Darstellungsparameter: Aktuell verwendete Einstellungen:
Skalierung der Graphiken ... ?
xyx+y,   Skalierungsfaktor:      Skalierung: Modus: x, Faktor: 1
Darstellungszeitraum ... ?
Vom - - bis: - -   Zeitraum: 28.03.2020 - 27.04.2020
Min/Max/Avg-Anzeige ... ?
Zeige MMA aktuell
Zeige MMA Monat
Zeige MMA alles
Zeige --A aktuell
Zeige --A Monat
Zeige --A alles
Keine MMA-Anzeige
MMA:
Average (ber die Originaldaten)
MMA-Basis: 28.03.2020 - 27.04.2020
Quicknavigation für Darstellung... ?
Tage:      1T, 2T, 3T, 5T -1T -2T -3T -5T +1T +2T +3T +5T
Wochen: 1W, 2W, 3W -1W -2W -3W +1W +2W +3W
Monate: 1M, 3M, 6M -1M -3M -6M +1M +3M +6M
Jahre:    1J, 3J, 5J, 10J -1J -3J -5J -10J +1J +3J +5J +10J
Nutze für die Darstellung ... ?
Originaldaten oder Mittelwerte auf ...
Stundenbasis Tagesbasis Wochenbasis
Monatsbasis Jahresbasis      Datenbasis: Original-Daten
Darstellen als:
Statistik (Auto) Statistik J:M      Darstellung:
Zur Graphik,    zurück zur Übersicht aller Sensoren.
 
Tabellarische Datenbersicht: ?
 
Sensor: Nr:Datum:Temp:Feuchte:
Aussen-T/F 1 28-03-2020 00:00:17 4.8 C 38 %
2 28-03-2020 00:10:17 4.8 C 39 %
3 28-03-2020 00:20:17 5 C 37 %
4 28-03-2020 00:30:18 4.9 C 38 %
5 28-03-2020 00:40:18 4.7 C 38 %
6 28-03-2020 00:50:17 4.7 C 38 %
7 28-03-2020 01:00:17 4.6 C 38 %
8 28-03-2020 01:10:17 4.4 C 39 %
9 28-03-2020 01:20:17 4.3 C 39 %
10 28-03-2020 01:30:17 4.1 C 39 %
11 28-03-2020 01:40:18 3.9 C 40 %
12 28-03-2020 01:50:17 3.7 C 41 %
13 28-03-2020 02:00:18 3.6 C 41 %
14 28-03-2020 02:10:18 3.3 C 41 %
15 28-03-2020 02:20:18 3.1 C 41 %
16 28-03-2020 02:30:17 3.7 C 42 %
17 28-03-2020 02:40:17 3.7 C 41 %
18 28-03-2020 02:50:18 3.4 C 41 %
19 28-03-2020 03:00:18 3.1 C 41 %
20 28-03-2020 03:10:18 2.9 C 42 %
21 28-03-2020 03:20:17 2.8 C 43 %
22 28-03-2020 03:30:18 2.6 C 43 %
23 28-03-2020 03:40:18 2.1 C 43 %
24 28-03-2020 03:50:17 2.1 C 44 %
25 28-03-2020 04:00:18 2.2 C 44 %
Sensor: Nr:Datum:Temp:Feuchte:
Aussen-T/F 26 28-03-2020 04:10:18 2.1 C 44 %
27 28-03-2020 04:20:18 1.9 C 45 %
28 28-03-2020 04:30:18 1.7 C 45 %
29 28-03-2020 04:40:18 1.8 C 46 %
30 28-03-2020 04:50:17 1.8 C 46 %
31 28-03-2020 05:00:18 1.7 C 45 %
32 28-03-2020 05:10:18 1.6 C 45 %
33 28-03-2020 05:20:17 1.5 C 45 %
34 28-03-2020 05:30:18 1.3 C 46 %
35 28-03-2020 05:40:18 1.2 C 46 %
36 28-03-2020 05:50:18 1.2 C 46 %
37 28-03-2020 06:00:18 1.2 C 46 %
38 28-03-2020 06:10:18 1.3 C 46 %
39 28-03-2020 06:20:17 1.1 C 46 %
40 28-03-2020 06:30:17 1.1 C 46 %
41 28-03-2020 06:40:17 1 C 46 %
42 28-03-2020 06:50:17 1.2 C 47 %
43 28-03-2020 07:00:17 1.5 C 47 %
44 28-03-2020 07:10:17 1.7 C 47 %
45 28-03-2020 07:20:17 1.9 C 47 %
46 28-03-2020 07:30:18 1.9 C 46 %
47 28-03-2020 07:40:18 1.9 C 46 %
48 28-03-2020 07:50:17 2 C 45 %
49 28-03-2020 08:00:17 2.2 C 45 %
50 28-03-2020 08:10:18 2.5 C 45 %
Sensor: Nr:Datum:Temp:Feuchte:
Aussen-T/F 51 28-03-2020 08:20:18 2.8 C 46 %
52 28-03-2020 08:30:17 3.2 C 45 %
53 28-03-2020 08:40:17 3.7 C 44 %
54 28-03-2020 08:50:18 4 C 43 %
55 28-03-2020 09:00:18 4.6 C 43 %
56 28-03-2020 09:10:18 5.1 C 41 %
57 28-03-2020 09:20:17 5.7 C 41 %
58 28-03-2020 09:30:18 6.3 C 40 %
59 28-03-2020 09:40:18 6.9 C 40 %
60 28-03-2020 09:50:18 7.8 C 38 %
61 28-03-2020 10:00:18 8.4 C 37 %
62 28-03-2020 10:10:18 9.5 C 35 %
63 28-03-2020 10:20:17 10.2 C 32 %
64 28-03-2020 10:30:17 10.9 C 31 %
65 28-03-2020 10:40:17 11.6 C 30 %
66 28-03-2020 10:50:18 12.2 C 29 %
67 28-03-2020 11:00:18 13.4 C 26 %
68 28-03-2020 11:10:18 13.6 C 25 %
69 28-03-2020 11:20:17 15.8 C 20 %
70 28-03-2020 11:30:17 16.7 C 20 %
71 28-03-2020 11:40:17 16.4 C 20 %
72 28-03-2020 11:50:18 15.9 C 20 %
73 28-03-2020 12:00:17 16.6 C 20 %
74 28-03-2020 12:10:17 17 C 20 %
75 28-03-2020 12:20:17 17.7 C 20 %
Sensor: Nr:Datum:Temp:Feuchte:
Aussen-T/F 76 28-03-2020 12:30:17 17.8 C 20 %
77 28-03-2020 12:40:17 18.1 C 20 %
78 28-03-2020 12:50:18 18 C 20 %
79 28-03-2020 13:00:18 18.6 C 20 %
80 28-03-2020 13:10:18 19.6 C 20 %
81 28-03-2020 13:20:18 21.7 C 20 %
82 28-03-2020 13:30:17 21.1 C 20 %
83 28-03-2020 13:40:17 20.7 C 20 %
84 28-03-2020 13:50:18 20.6 C 20 %
85 28-03-2020 14:00:17 21.1 C 20 %
86 28-03-2020 14:10:17 21.3 C 20 %
87 28-03-2020 14:20:17 21.9 C 20 %
88 28-03-2020 14:30:17 23.7 C 20 %
89 28-03-2020 14:40:17 24.3 C 20 %
90 28-03-2020 14:50:17 23.2 C 20 %
91 28-03-2020 15:00:18 22.4 C 20 %
92 28-03-2020 15:10:18 19.9 C 20 %
93 28-03-2020 15:20:18 18.6 C 20 %
94 28-03-2020 15:30:18 19.6 C 20 %
95 28-03-2020 15:40:18 22.1 C 20 %
96 28-03-2020 15:50:18 20.5 C 20 %
97 28-03-2020 16:00:18 21.1 C 20 %
98 28-03-2020 16:10:18 21.1 C 20 %
99 28-03-2020 16:20:18 19.9 C 20 %
100 28-03-2020 16:30:18 19.6 C 20 %
Sensor: Nr:Datum:Temp:Feuchte:
Aussen-T/F 101 28-03-2020 16:40:18 19.6 C 20 %
102 28-03-2020 16:50:18 18.5 C 20 %
103 28-03-2020 17:00:18 17.9 C 20 %
104 28-03-2020 17:10:18 17 C 20 %
105 28-03-2020 17:20:18 16.6 C 20 %
106 28-03-2020 17:30:18 16.2 C 20 %
107 28-03-2020 17:40:18 16.2 C 20 %
108 28-03-2020 17:50:17 15.4 C 20 %
109 28-03-2020 18:00:18 14.9 C 20 %
110 28-03-2020 18:10:18 14.6 C 20 %
111 28-03-2020 18:20:17 14 C 20 %
112 28-03-2020 18:30:17 13.5 C 20 %
113 28-03-2020 18:40:17 13.1 C 20 %
114 28-03-2020 18:50:18 12.6 C 20 %
115 28-03-2020 19:00:18 12.3 C 20 %
116 28-03-2020 19:10:18 11.7 C 20 %
117 28-03-2020 19:20:18 11.7 C 20 %
118 28-03-2020 19:30:18 11.4 C 20 %
119 28-03-2020 19:40:18 11.2 C 20 %
120 28-03-2020 19:50:17 10.8 C 20 %
121 28-03-2020 20:00:18 10.3 C 20 %
122 28-03-2020 20:10:18 10.7 C 20 %
123 28-03-2020 20:20:17 10.5 C 20 %
124 28-03-2020 20:30:18 10 C 20 %
125 28-03-2020 20:40:18 9.2 C 20 %
Sensor: Nr:Datum:Temp:Feuchte:
Aussen-T/F 126 28-03-2020 20:50:17 8.7 C 20 %
127 28-03-2020 21:00:17 8.8 C 20 %
128 28-03-2020 21:10:17 9.2 C 20 %
129 28-03-2020 21:20:17 8.7 C 23 %
130 28-03-2020 21:30:17 8.1 C 25 %
131 28-03-2020 21:40:17 8.4 C 23 %
132 28-03-2020 21:50:17 7.6 C 25 %
133 28-03-2020 22:00:17 8.3 C 25 %
134 28-03-2020 22:10:17 8.5 C 21 %
135 28-03-2020 22:20:17 8.4 C 25 %
136 28-03-2020 22:30:17 8.3 C 26 %
137 28-03-2020 22:40:17 7.9 C 26 %
138 28-03-2020 22:50:17 7.4 C 28 %
139 28-03-2020 23:00:17 7.3 C 30 %
140 28-03-2020 23:10:17 7.2 C 30 %
141 28-03-2020 23:20:18 7.1 C 30 %
142 28-03-2020 23:30:18 7.1 C 31 %
143 28-03-2020 23:40:18 6.8 C 32 %
144 28-03-2020 23:50:17 6.7 C 33 %
145 29-03-2020 00:00:18 6.5 C 33 %
146 29-03-2020 00:10:18 6.4 C 33 %
147 29-03-2020 00:20:17 6.2 C 33 %
148 29-03-2020 00:30:17 6.5 C 33 %
149 29-03-2020 00:40:17 6.6 C 33 %
150 29-03-2020 00:50:18 6.5 C 32 %
Sensor: Nr:Datum:Temp:Feuchte:
Aussen-T/F 151 29-03-2020 01:00:18 6.3 C 32 %
152 29-03-2020 01:10:18 6.3 C 32 %
153 29-03-2020 01:20:17 6.2 C 32 %
154 29-03-2020 01:30:17 6.1 C 32 %
155 29-03-2020 01:40:17 6 C 31 %
156 29-03-2020 01:50:17 6 C 31 %
157 29-03-2020 02:00:17 5.8 C 31 %
158 29-03-2020 02:10:17 5.7 C 31 %
159 29-03-2020 02:20:18 5.4 C 31 %
160 29-03-2020 02:30:18 5 C 31 %
161 29-03-2020 02:40:18 4.7 C 32 %
162 29-03-2020 02:50:18 4.7 C 32 %
163 29-03-2020 04:00:18 4.6 C 31 %
164 29-03-2020 04:10:18 4.2 C 32 %
165 29-03-2020 04:20:17 4.1 C 31 %
166 29-03-2020 04:30:17 4.3 C 31 %
167 29-03-2020 04:40:17 4.4 C 31 %
168 29-03-2020 04:50:18 4.3 C 31 %
169 29-03-2020 05:00:17 4.4 C 32 %
170 29-03-2020 05:10:17 4.3 C 32 %
171 29-03-2020 05:20:17 4.2 C 31 %
172 29-03-2020 05:30:17 4 C 31 %
173 29-03-2020 05:40:17 3.8 C 32 %
174 29-03-2020 05:50:18 3.5 C 32 %
175 29-03-2020 06:00:18 3.1 C 32 %
Sensor: Nr:Datum:Temp:Feuchte:
Aussen-T/F 176 29-03-2020 06:10:18 2.8 C 33 %
177 29-03-2020 06:20:17 2.5 C 33 %
178 29-03-2020 06:30:18 2.9 C 33 %
179 29-03-2020 06:40:18 3.2 C 32 %
180 29-03-2020 06:50:17 3.3 C 33 %
181 29-03-2020 07:00:18 3.4 C 33 %
182 29-03-2020 07:10:18 3.5 C 34 %
183 29-03-2020 07:20:17 3.5 C 35 %
184 29-03-2020 07:30:17 3.6 C 35 %
185 29-03-2020 07:40:17 3.7 C 35 %
186 29-03-2020 07:50:17 3.7 C 35 %
187 29-03-2020 08:00:18 3.8 C 35 %
188 29-03-2020 08:10:18 3.8 C 35 %
189 29-03-2020 08:20:17 4.1 C 33 %
190 29-03-2020 08:30:17 4.1 C 33 %
191 29-03-2020 08:40:17 4.3 C 33 %
192 29-03-2020 08:50:17 4 C 33 %
193 29-03-2020 09:00:17 4.3 C 33 %
194 29-03-2020 09:10:17 4.2 C 32 %
195 29-03-2020 09:20:17 4.1 C 33 %
196 29-03-2020 09:30:17 4.2 C 33 %
197 29-03-2020 09:40:17 4.5 C 32 %
198 29-03-2020 09:50:17 4.8 C 32 %
199 29-03-2020 10:00:17 5 C 31 %
200 29-03-2020 10:10:17 5.3 C 31 %
Sensor: Nr:Datum:Temp:Feuchte:
Aussen-T/F 201 29-03-2020 10:20:17 5.8 C 30 %
202 29-03-2020 10:30:18 5.6 C 30 %
203 29-03-2020 10:40:18 6.2 C 30 %
204 29-03-2020 10:50:17 6.2 C 28 %
205 29-03-2020 11:00:18 6.5 C 25 %
206 29-03-2020 11:10:18 6.5 C 25 %
207 29-03-2020 11:20:18 6 C 25 %
208 29-03-2020 11:30:18 6.1 C 25 %
209 29-03-2020 11:40:18 6.2 C 25 %
210 29-03-2020 11:50:17 6.3 C 25 %
211 29-03-2020 12:00:17 6.2 C 25 %
212 29-03-2020 12:10:17 5.6 C 27 %
213 29-03-2020 12:20:17 5.5 C 27 %
214 29-03-2020 12:30:17 5.7 C 27 %
215 29-03-2020 12:40:17 5.8 C 26 %
216 29-03-2020 12:50:18 6.4 C 26 %
217 29-03-2020 13:00:18 6.3 C 25 %
218 29-03-2020 13:10:18 6.1 C 25 %
219 29-03-2020 13:20:17 6.6 C 23 %
220 29-03-2020 13:30:17 6.8 C 20 %
221 29-03-2020 13:40:18 8.1 C 20 %
222 29-03-2020 13:50:17 8.4 C 20 %
223 29-03-2020 14:00:18 7.6 C 20 %
224 29-03-2020 14:10:18 7.5 C 20 %
225 29-03-2020 14:20:17 7 C 20 %
Sensor: Nr:Datum:Temp:Feuchte:
Aussen-T/F 226 29-03-2020 14:30:17 6.7 C 20 %
227 29-03-2020 14:40:17 6.5 C 20 %
228 29-03-2020 14:50:17 6.7 C 20 %
229 29-03-2020 15:00:17 7.2 C 20 %
230 29-03-2020 15:10:17 7.4 C 20 %
231 29-03-2020 15:20:17 7.4 C 20 %
232 29-03-2020 15:30:18 7.6 C 20 %
233 29-03-2020 15:40:18 7.6 C 20 %
234 29-03-2020 15:50:17 8 C 20 %
235 29-03-2020 16:00:18 7.4 C 20 %
236 29-03-2020 16:10:18 7 C 20 %
237 29-03-2020 16:20:17 6.7 C 20 %
238 29-03-2020 16:30:18 6.5 C 20 %
239 29-03-2020 16:40:18 6.6 C 20 %
240 29-03-2020 16:50:18 6.8 C 20 %
241 29-03-2020 17:00:18 7 C 20 %
242 29-03-2020 17:10:18 6.8 C 20 %
243 29-03-2020 17:20:17 7.4 C 20 %
244 29-03-2020 17:30:17 7 C 20 %
245 29-03-2020 17:40:17 7 C 20 %
246 29-03-2020 17:50:18 6.8 C 25 %
247 29-03-2020 18:00:18 7.1 C 23 %
248 29-03-2020 18:10:18 6.5 C 25 %
249 29-03-2020 18:20:18 6.2 C 25 %
250 29-03-2020 18:30:18 5.3 C 29 %
Sensor: Nr:Datum:Temp:Feuchte:
Aussen-T/F 251 29-03-2020 18:40:18 4.4 C 35 %
252 29-03-2020 18:50:18 4.1 C 36 %
253 29-03-2020 19:00:18 4 C 36 %
254 29-03-2020 19:10:18 3.6 C 39 %
255 29-03-2020 19:20:17 3.6 C 40 %
256 29-03-2020 19:30:17 3.4 C 40 %
257 29-03-2020 19:40:17 3.2 C 41 %
258 29-03-2020 19:50:17 3.1 C 41 %
259 29-03-2020 20:00:17 3 C 41 %
260 29-03-2020 20:10:17 3 C 41 %
261 29-03-2020 20:20:18 2.9 C 42 %
262 29-03-2020 20:30:18 3 C 41 %
263 29-03-2020 20:40:18 3.3 C 40 %
264 29-03-2020 20:50:18 3.5 C 40 %
265 29-03-2020 21:00:18 3.6 C 39 %
266 29-03-2020 21:10:18 3.7 C 39 %
267 29-03-2020 21:20:18 3.7 C 38 %
268 29-03-2020 21:30:17 3.7 C 37 %
269 29-03-2020 21:40:17 3.8 C 37 %
270 29-03-2020 21:50:17 3.8 C 37 %
271 29-03-2020 22:00:17 3.7 C 37 %
272 29-03-2020 22:10:17 3.7 C 36 %
273 29-03-2020 22:20:18 3.7 C 36 %
274 29-03-2020 22:30:18 3.6 C 36 %
275 29-03-2020 22:40:18 3.6 C 36 %
Sensor: Nr:Datum:Temp:Feuchte:
Aussen-T/F 276 29-03-2020 22:50:18 3.6 C 35 %
277 29-03-2020 23:00:18 3.6 C 35 %
278 29-03-2020 23:10:18 3.5 C 35 %
279 29-03-2020 23:20:17 3.4 C 34 %
280 29-03-2020 23:30:17 3.3 C 33 %
281 29-03-2020 23:40:17 3.1 C 33 %
282 29-03-2020 23:50:17 2.9 C 33 %
283 30-03-2020 00:00:18 2.5 C 34 %
284 30-03-2020 00:10:18 2.4 C 33 %
285 30-03-2020 00:20:17 2.4 C 33 %
286 30-03-2020 00:30:17 1.7 C 35 %
287 30-03-2020 00:40:17 1 C 36 %
288 30-03-2020 00:50:17 0.3 C 38 %
289 30-03-2020 01:00:18 0.2 C 38 %
290 30-03-2020 01:10:18 0.3 C 38 %
291 30-03-2020 01:20:17 0.3 C 37 %
292 30-03-2020 01:30:18 0.5 C 36 %
293 30-03-2020 01:40:18 -0.1 C 37 %
294 30-03-2020 01:50:17 -0.3 C 37 %
295 30-03-2020 02:00:17 -0.8 C 38 %
296 30-03-2020 02:10:17 -0.9 C 38 %
297 30-03-2020 02:20:17 -1.5 C 39 %
298 30-03-2020 02:30:18 -1.7 C 39 %
299 30-03-2020 02:40:18 -1.6 C 40 %
300 30-03-2020 02:50:17 -1.6 C 39 %
Sensor: Nr:Datum:Temp:Feuchte:
Aussen-T/F 301 30-03-2020 03:00:18 -1.7 C 39 %
302 30-03-2020 03:10:18 -1.3 C 38 %
303 30-03-2020 03:20:18 -1.7 C 39 %
304 30-03-2020 03:30:18 -2.2 C 40 %
305 30-03-2020 03:40:18 -2.1 C 40 %
306 30-03-2020 03:50:17 -2.1 C 40 %
307 30-03-2020 04:00:18 -1.9 C 39 %
308 30-03-2020 04:10:18 -2.2 C 39 %
309 30-03-2020 04:20:17 -2 C 39 %
310 30-03-2020 04:30:17 -2.4 C 39 %
311 30-03-2020 04:40:17 -2.6 C 39 %
312 30-03-2020 04:50:17 -2.4 C 39 %
313 30-03-2020 05:00:17 -2.4 C 38 %
314 30-03-2020 05:10:17 -2.5 C 38 %
315 30-03-2020 05:20:17 -2.7 C 38 %
316 30-03-2020 05:30:18 -3 C 39 %
317 30-03-2020 05:40:18 -3 C 38 %
318 30-03-2020 05:50:17 -3 C 38 %
319 30-03-2020 06:00:18 -3 C 38 %
320 30-03-2020 06:10:18 -3.4 C 38 %
321 30-03-2020 06:20:17 -3.7 C 39 %
322 30-03-2020 06:30:17 -3.9 C 40 %
323 30-03-2020 06:40:17 -4.1 C 40 %
324 30-03-2020 06:50:17 -3.3 C 39 %
325 30-03-2020 07:00:17 -3.7 C 40 %
Sensor: Nr:Datum:Temp:Feuchte:
Aussen-T/F 326 30-03-2020 07:10:17 -3.2 C 39 %
327 30-03-2020 07:20:17 -3.8 C 39 %
328 30-03-2020 07:30:18 -4.3 C 40 %
329 30-03-2020 07:40:18 -4.5 C 40 %
330 30-03-2020 07:50:17 -4.5 C 40 %
331 30-03-2020 08:00:18 -3.8 C 40 %
332 30-03-2020 08:10:18 -3.9 C 40 %
333 30-03-2020 08:20:18 -4.1 C 40 %
334 30-03-2020 08:30:18 -3.7 C 39 %
335 30-03-2020 08:40:18 -3.3 C 39 %
336 30-03-2020 08:50:17 -3.2 C 38 %
337 30-03-2020 09:00:18 -3.1 C 38 %
338 30-03-2020 09:10:18 -2.7 C 37 %
339 30-03-2020 09:20:18 -2.6 C 37 %
340 30-03-2020 09:30:18 -2.5 C 37 %
341 30-03-2020 09:40:18 -2.1 C 37 %
342 30-03-2020 09:50:18 -2.1 C 37 %
343 30-03-2020 10:00:18 -1.6 C 36 %
344 30-03-2020 10:10:18 -1.7 C 37 %
345 30-03-2020 10:20:17 -1.5 C 37 %
346 30-03-2020 10:30:17 -1.3 C 36 %
347 30-03-2020 10:40:17 0.1 C 31 %
348 30-03-2020 10:50:17 1 C 21 %
349 30-03-2020 11:00:17 1.1 C 23 %
350 30-03-2020 11:10:18 2 C 20 %
Sensor: Nr:Datum:Temp:Feuchte:
Aussen-T/F 351 30-03-2020 11:20:18 2.4 C 20 %
352 30-03-2020 11:30:18 2.8 C 20 %
353 30-03-2020 11:40:18 2.9 C 20 %
354 30-03-2020 11:50:18 3.2 C 20 %
355 30-03-2020 12:00:18 3.7 C 20 %
356 30-03-2020 12:10:18 4 C 20 %
357 30-03-2020 12:20:18 6.4 C 20 %
358 30-03-2020 12:30:18 7.6 C 20 %
359 30-03-2020 12:40:18 6.3 C 20 %
360 30-03-2020 12:50:18 5.1 C 20 %
361 30-03-2020 13:00:18 6.6 C 20 %
362 30-03-2020 13:10:18 6.5 C 20 %
363 30-03-2020 13:20:18 5.6 C 20 %
364 30-03-2020 13:30:17 5.9 C 20 %
365 30-03-2020 13:40:17 7 C 20 %
366 30-03-2020 13:50:17 6.4 C 20 %
367 30-03-2020 14:00:17 7.1 C 20 %
368 30-03-2020 14:10:17 8.4 C 20 %
369 30-03-2020 14:20:18 8.9 C 20 %
370 30-03-2020 14:30:18 9.5 C 20 %
371 30-03-2020 14:40:18 9.7 C 20 %
372 30-03-2020 14:50:18 10.8 C 20 %
373 30-03-2020 15:00:18 11.3 C 20 %
374 30-03-2020 15:10:18 11.7 C 20 %
375 30-03-2020 15:20:17 11.6 C 20 %
Sensor: Nr:Datum:Temp:Feuchte:
Aussen-T/F 376 30-03-2020 15:30:18 13.5 C 20 %
377 30-03-2020 15:40:18 13.6 C 20 %
378 30-03-2020 15:50:18 11.9 C 20 %
379 30-03-2020 16:00:18 12.9 C 20 %
380 30-03-2020 16:10:18 13.6 C 20 %
381 30-03-2020 16:20:17 15.2 C 20 %
382 30-03-2020 16:30:18 9.9 C 20 %
383 30-03-2020 16:40:18 13.9 C 20 %
384 30-03-2020 16:50:18 13.6 C 20 %
385 30-03-2020 17:00:17 10.1 C 20 %
386 30-03-2020 17:10:17 13.4 C 20 %
387 30-03-2020 17:20:18 12.5 C 20 %
388 30-03-2020 17:30:18 12.6 C 20 %
389 30-03-2020 17:40:18 11.6 C 20 %
390 30-03-2020 17:50:18 10.2 C 20 %
391 30-03-2020 18:00:18 8.7 C 20 %
392 30-03-2020 18:10:18 7.6 C 20 %
393 30-03-2020 18:20:18 7.9 C 20 %
394 30-03-2020 18:30:18 8.2 C 20 %
395 30-03-2020 18:40:18 7.7 C 20 %
396 30-03-2020 18:50:18 7.8 C 20 %
397 30-03-2020 19:00:18 7.3 C 20 %
398 30-03-2020 19:10:18 7.1 C 20 %
399 30-03-2020 19:20:17 6.5 C 20 %
400 30-03-2020 19:30:18 6.3 C 20 %
Sensor: Nr:Datum:Temp:Feuchte:
Aussen-T/F 401 30-03-2020 19:40:18 5.8 C 20 %
402 30-03-2020 19:50:17 5 C 20 %
403 30-03-2020 20:00:18 3.8 C 27 %
404 30-03-2020 20:10:18 3 C 30 %
405 30-03-2020 20:20:17 2.8 C 30 %
406 30-03-2020 20:30:18 3.3 C 31 %
407 30-03-2020 20:40:18 3.2 C 30 %
408 30-03-2020 20:50:18 3.3 C 31 %
409 30-03-2020 21:00:18 4 C 29 %
410 30-03-2020 21:10:18 4.1 C 29 %
411 30-03-2020 21:20:18 4.2 C 30 %
412 30-03-2020 21:30:18 4.3 C 30 %
413 30-03-2020 21:40:18 4.2 C 30 %
414 30-03-2020 21:50:18 4.1 C 30 %
415 30-03-2020 22:00:18 3.7 C 32 %
416 30-03-2020 22:10:18 3.7 C 33 %
417 30-03-2020 22:20:17 3.9 C 32 %
418 30-03-2020 22:30:18 4 C 31 %
419 30-03-2020 22:40:18 4.1 C 31 %
420 30-03-2020 22:50:18 4.2 C 31 %
421 30-03-2020 23:00:18 4.1 C 31 %
422 30-03-2020 23:10:18 4.2 C 30 %
423 30-03-2020 23:20:18 4.2 C 31 %
424 30-03-2020 23:30:18 4.1 C 31 %
425 30-03-2020 23:40:18 4.2 C 31 %
Sensor: Nr:Datum:Temp:Feuchte:
Aussen-T/F 426 30-03-2020 23:50:17 4.2 C 31 %
427 31-03-2020 00:00:18 4.3 C 30 %
428 31-03-2020 00:10:18 4.3 C 30 %
429 31-03-2020 00:20:18 4.2 C 31 %
430 31-03-2020 00:30:18 4.2 C 31 %
431 31-03-2020 00:40:18 4.2 C 31 %
432 31-03-2020 00:50:18 4.3 C 31 %
433 31-03-2020 01:00:18 4.4 C 32 %
434 31-03-2020 01:10:18 4 C 34 %
435 31-03-2020 01:20:18 3.8 C 36 %
436 31-03-2020 01:30:18 3.8 C 36 %
437 31-03-2020 01:40:18 3.7 C 37 %
438 31-03-2020 01:50:18 4 C 37 %
439 31-03-2020 02:00:18 3.9 C 38 %
440 31-03-2020 02:10:18 3.4 C 39 %
441 31-03-2020 02:20:17 3.5 C 39 %
442 31-03-2020 02:30:18 3.7 C 39 %
443 31-03-2020 02:40:18 3.3 C 40 %
444 31-03-2020 02:50:18 2.8 C 41 %
445 31-03-2020 03:00:18 2.5 C 41 %
446 31-03-2020 03:10:18 2.2 C 42 %
447 31-03-2020 03:20:17 2.4 C 42 %
448 31-03-2020 03:30:18 2.3 C 42 %
449 31-03-2020 03:40:18 2.3 C 43 %
450 31-03-2020 03:50:18 2.7 C 43 %
Sensor: Nr:Datum:Temp:Feuchte:
Aussen-T/F 451 31-03-2020 04:00:18 2.9 C 42 %
452 31-03-2020 04:10:18 3 C 42 %
453 31-03-2020 04:20:18 3.1 C 42 %
454 31-03-2020 04:30:17 3.2 C 42 %
455 31-03-2020 04:40:18 3.2 C 41 %
456 31-03-2020 04:50:17 3.5 C 41 %
457 31-03-2020 05:00:18 3.4 C 41 %
458 31-03-2020 05:10:18 3 C 41 %
459 31-03-2020 05:20:17 2.8 C 43 %
460 31-03-2020 05:30:18 2.5 C 43 %
461 31-03-2020 05:40:18 2.3 C 43 %
462 31-03-2020 05:50:18 1.9 C 44 %
463 31-03-2020 06:00:18 1.7 C 44 %
464 31-03-2020 06:10:18 1.6 C 45 %
465 31-03-2020 06:20:18 1.5 C 45 %
466 31-03-2020 06:30:18 1.7 C 45 %
467 31-03-2020 06:40:18 2 C 45 %
468 31-03-2020 06:50:18 2.1 C 45 %
469 31-03-2020 07:00:18 2.2 C 45 %
470 31-03-2020 07:10:18 2.3 C 45 %
471 31-03-2020 07:20:18 2.2 C 44 %
472 31-03-2020 07:30:18 2.1 C 44 %
473 31-03-2020 07:40:18 1.7 C 45 %
474 31-03-2020 07:50:17 2 C 45 %
475 31-03-2020 08:00:18 2.5 C 45 %
Sensor: Nr:Datum:Temp:Feuchte:
Aussen-T/F 476 31-03-2020 08:10:18 3.1 C 43 %
477 31-03-2020 08:20:18 3.3 C 42 %
478 31-03-2020 08:30:18 3.5 C 41 %
479 31-03-2020 08:40:18 3.7 C 40 %
480 31-03-2020 08:50:17 4 C 38 %
481 31-03-2020 09:00:18 3.9 C 38 %
482 31-03-2020 09:10:18 3.9 C 37 %
483 31-03-2020 09:20:18 4 C 36 %
484 31-03-2020 09:30:17 4 C 36 %
485 31-03-2020 09:40:17 4.1 C 35 %
486 31-03-2020 09:50:18 4.3 C 35 %
487 31-03-2020 10:00:18 4.8 C 34 %
488 31-03-2020 10:10:18 4.7 C 34 %
489 31-03-2020 10:20:18 4.5 C 34 %
490 31-03-2020 10:30:18 4.4 C 34 %
491 31-03-2020 10:40:18 4.3 C 34 %
492 31-03-2020 10:50:17 4.3 C 33 %
493 31-03-2020 11:00:17 4.3 C 33 %
494 31-03-2020 11:10:17 4.4 C 32 %
495 31-03-2020 11:20:18 4.7 C 31 %
496 31-03-2020 11:30:18 5.4 C 30 %
497 31-03-2020 11:40:18 5.3 C 30 %
498 31-03-2020 11:50:17 5.3 C 29 %
499 31-03-2020 12:00:18 5.6 C 27 %
500 31-03-2020 12:10:18 6.3 C 25 %
Sensor: Nr:Datum:Temp:Feuchte:
Aussen-T/F 501 31-03-2020 12:20:17 6.4 C 20 %
502 31-03-2020 12:30:18 9.2 C 20 %
503 31-03-2020 12:40:18 8.4 C 20 %
504 31-03-2020 12:50:18 7 C 20 %
505 31-03-2020 13:00:17 7.5 C 20 %
506 31-03-2020 13:10:17 7.1 C 20 %
507 31-03-2020 13:20:17 7.3 C 20 %
508 31-03-2020 13:30:17 7 C 20 %
509 31-03-2020 13:40:17 8.1 C 20 %
510 31-03-2020 13:51:17 8.4 C 20 %
511 31-03-2020 14:00:17 8.5 C 20 %
512 31-03-2020 14:10:17 9.7 C 20 %
513 31-03-2020 14:20:17 11.2 C 20 %
514 31-03-2020 14:30:17 12.6 C 20 %
515 31-03-2020 14:40:17 11.7 C 20 %
516 31-03-2020 14:51:17 12 C 20 %
517 31-03-2020 15:00:17 12 C 20 %
518 31-03-2020 15:10:18 13.1 C 20 %
519 31-03-2020 15:20:17 13.2 C 20 %
520 31-03-2020 15:30:17 13.5 C 20 %
521 31-03-2020 15:40:17 14.6 C 20 %
522 31-03-2020 15:50:18 13.9 C 20 %
523 31-03-2020 16:00:17 16.8 C 20 %
524 31-03-2020 16:10:17 14.8 C 20 %
525 31-03-2020 16:20:17 15.8 C 20 %
Sensor: Nr:Datum:Temp:Feuchte:
Aussen-T/F 526 31-03-2020 16:31:17 15.1 C 20 %
527 31-03-2020 16:40:17 14 C 20 %
528 31-03-2020 16:50:17 13.3 C 20 %
529 31-03-2020 17:00:17 14.4 C 20 %
530 31-03-2020 17:10:17 16.2 C 20 %
531 31-03-2020 17:21:17 15.3 C 20 %
532 31-03-2020 17:31:17 14.7 C 20 %
533 31-03-2020 17:40:17 15.5 C 20 %
534 31-03-2020 17:51:17 10.6 C 20 %
535 31-03-2020 18:01:17 10.5 C 20 %
536 31-03-2020 18:11:17 10.2 C 20 %
537 31-03-2020 18:21:17 9.8 C 20 %
538 31-03-2020 18:31:17 9.6 C 20 %
539 31-03-2020 18:40:17 9.4 C 20 %
540 31-03-2020 18:51:17 9.1 C 20 %
541 31-03-2020 19:00:17 9.1 C 20 %
542 31-03-2020 19:10:17 8.8 C 20 %
543 31-03-2020 19:20:17 8.7 C 20 %
544 31-03-2020 19:31:17 8.2 C 20 %
545 31-03-2020 19:41:17 7.7 C 20 %
546 31-03-2020 19:50:17 6.6 C 20 %
547 31-03-2020 20:01:17 5.6 C 20 %
548 31-03-2020 20:11:17 5.5 C 20 %
549 31-03-2020 20:21:17 5.3 C 20 %
550 31-03-2020 20:31:17 4.7 C 20 %
Sensor: Nr:Datum:Temp:Feuchte:
Aussen-T/F 551 31-03-2020 20:41:17 4.4 C 20 %
552 31-03-2020 20:51:17 4 C 20 %
553 31-03-2020 21:00:17 3.7 C 20 %
554 31-03-2020 21:10:18 3.9 C 20 %
555 31-03-2020 21:21:17 3.7 C 20 %
556 31-03-2020 21:31:17 3.5 C 20 %
557 31-03-2020 21:41:17 3.2 C 23 %
558 31-03-2020 21:51:17 3.2 C 23 %
559 31-03-2020 22:00:18 3 C 23 %
560 31-03-2020 22:10:18 2.7 C 25 %
561 31-03-2020 22:21:17 2.7 C 25 %
562 31-03-2020 22:31:17 2.6 C 25 %
563 31-03-2020 22:41:17 1.8 C 30 %
564 31-03-2020 22:50:18 1.6 C 30 %
565 31-03-2020 23:01:17 1.6 C 30 %
566 31-03-2020 23:11:17 1.7 C 30 %
567 31-03-2020 23:21:17 1.4 C 31 %
568 31-03-2020 23:30:17 1.3 C 31 %
569 31-03-2020 23:40:18 1.6 C 31 %
570 31-03-2020 23:51:17 0.9 C 32 %
571 01-04-2020 00:01:17 1.2 C 31 %
572 01-04-2020 00:11:17 0 C 35 %
573 01-04-2020 00:21:17 0.8 C 33 %
574 01-04-2020 00:31:17 0.6 C 32 %
575 01-04-2020 00:41:17 0.5 C 33 %
Sensor: Nr:Datum:Temp:Feuchte:
Aussen-T/F 576 01-04-2020 00:51:17 -0.3 C 35 %
577 01-04-2020 01:01:17 -0.1 C 36 %
578 01-04-2020 01:11:17 -0.3 C 35 %
579 01-04-2020 01:21:17 -1 C 37 %
580 01-04-2020 01:30:18 -1.4 C 38 %
581 01-04-2020 01:40:18 -1.7 C 38 %
582 01-04-2020 01:51:17 -1.9 C 38 %
583 01-04-2020 02:01:17 -1.9 C 38 %
584 01-04-2020 02:11:17 -2 C 38 %
585 01-04-2020 02:21:17 -2.1 C 38 %
586 01-04-2020 02:31:17 -2.3 C 39 %
587 01-04-2020 02:41:17 -2.4 C 38 %
588 01-04-2020 02:50:18 -2.4 C 39 %
589 01-04-2020 03:01:17 -2.5 C 38 %
590 01-04-2020 03:11:17 -2.6 C 38 %
591 01-04-2020 03:21:17 -2.8 C 39 %
592 01-04-2020 03:31:17 -2.7 C 38 %
593 01-04-2020 03:41:18 -3 C 38 %
594 01-04-2020 03:51:17 -3 C 39 %
595 01-04-2020 04:01:17 -2.8 C 39 %
596 01-04-2020 04:11:17 -3.1 C 38 %
597 01-04-2020 04:21:17 -3.2 C 39 %
598 01-04-2020 04:31:18 -3.5 C 38 %
599 01-04-2020 04:41:19 -3.4 C 39 %
600 01-04-2020 04:51:17 -3.5 C 39 %
Sensor: Nr:Datum:Temp:Feuchte:
Aussen-T/F 601 01-04-2020 05:01:18 -3.6 C 39 %
602 01-04-2020 05:11:19 -3.8 C 40 %
603 01-04-2020 05:21:17 -3.8 C 40 %
604 01-04-2020 05:31:18 -3.8 C 40 %
605 01-04-2020 05:41:18 -4 C 40 %
606 01-04-2020 05:51:17 -4.2 C 40 %
607 01-04-2020 06:01:18 -4.2 C 40 %
608 01-04-2020 06:11:18 -4 C 40 %
609 01-04-2020 06:21:17 -4.2 C 40 %
610 01-04-2020 06:31:17 -4.2 C 41 %
611 01-04-2020 06:41:17 -4.3 C 41 %
612 01-04-2020 06:51:17 -4.5 C 41 %
613 01-04-2020 07:01:18 -4.6 C 41 %
614 01-04-2020 07:11:19 -4.7 C 41 %
615 01-04-2020 07:21:17 -4.5 C 41 %
616 01-04-2020 07:31:18 -4.4 C 41 %
617 01-04-2020 07:41:18 -4.5 C 41 %
618 01-04-2020 07:51:17 -4.3 C 41 %
619 01-04-2020 08:01:17 -4.2 C 41 %
620 01-04-2020 08:11:17 -4.2 C 41 %
621 01-04-2020 08:21:17 -3.7 C 41 %
622 01-04-2020 08:31:17 -3.8 C 41 %
623 01-04-2020 08:41:17 -3.7 C 41 %
624 01-04-2020 08:51:17 -3.4 C 40 %
625 01-04-2020 09:01:17 -3.4 C 40 %
Sensor: Nr:Datum:Temp:Feuchte:
Aussen-T/F 626 01-04-2020 09:11:17 -2.7 C 40 %
627 01-04-2020 09:21:17 -2.6 C 40 %
628 01-04-2020 09:31:17 -2.5 C 40 %
629 01-04-2020 09:41:17 -2.1 C 40 %
630 01-04-2020 09:51:17 -1.5 C 39 %
631 01-04-2020 10:01:17 -1 C 39 %
632 01-04-2020 10:11:17 -0.9 C 40 %
633 01-04-2020 10:21:17 -0.4 C 40 %
634 01-04-2020 10:31:18 0.5 C 39 %
635 01-04-2020 10:41:18 1 C 37 %
636 01-04-2020 10:51:17 1.6 C 36 %
637 01-04-2020 11:01:17 2.4 C 35 %
638 01-04-2020 11:11:17 3.2 C 33 %
639 01-04-2020 11:21:17 4.2 C 29 %
640 01-04-2020 11:31:17 4.8 C 20 %
641 01-04-2020 11:41:17 5.3 C 20 %
642 01-04-2020 11:51:17 6 C 20 %
643 01-04-2020 12:01:17 6.6 C 20 %
644 01-04-2020 12:11:18 7.1 C 20 %
645 01-04-2020 12:21:17 8.9 C 20 %
646 01-04-2020 12:31:17 10.3 C 20 %
647 01-04-2020 12:41:17 9.2 C 20 %
648 01-04-2020 12:51:17 8 C 20 %
649 01-04-2020 13:01:17 9.3 C 20 %
650 01-04-2020 13:11:17 9.3 C 20 %
Sensor: Nr:Datum:Temp:Feuchte:
Aussen-T/F 651 01-04-2020 13:21:16 8.6 C 20 %
652 01-04-2020 13:31:17 9.2 C 20 %
653 01-04-2020 13:41:17 9.6 C 20 %
654 01-04-2020 13:51:17 10 C 20 %
655 01-04-2020 14:01:17 10.3 C 20 %
656 01-04-2020 14:11:17 10.7 C 20 %
657 01-04-2020 14:21:17 13.2 C 20 %
658 01-04-2020 14:31:16 15.9 C 20 %
659 01-04-2020 14:41:16 16.3 C 20 %
660 01-04-2020 14:51:17 13.7 C 20 %
661 01-04-2020 15:01:17 14.2 C 20 %
662 01-04-2020 15:11:17 17.2 C 20 %
663 01-04-2020 15:21:17 16.8 C 20 %
664 01-04-2020 15:31:16 16.3 C 20 %
665 01-04-2020 15:41:16 18.2 C 20 %
666 01-04-2020 15:51:17 19.5 C 20 %
667 01-04-2020 16:01:16 18.7 C 20 %
668 01-04-2020 16:11:16 18.7 C 20 %
669 01-04-2020 16:21:16 19.7 C 20 %
670 01-04-2020 16:31:17 21.3 C 20 %
671 01-04-2020 16:41:17 15.5 C 20 %
672 01-04-2020 16:51:16 18.4 C 20 %
673 01-04-2020 17:01:16 17.2 C 20 %
674 01-04-2020 17:11:16 17.4 C 20 %
675 01-04-2020 17:21:17 17.7 C 20 %
Sensor: Nr:Datum:Temp:Feuchte:
Aussen-T/F 676 01-04-2020 17:31:17 18.5 C 20 %
677 01-04-2020 17:41:17 16.8 C 20 %
678 01-04-2020 17:51:17 15.8 C 20 %
679 01-04-2020 18:01:17 12.6 C 20 %
680 01-04-2020 18:11:17 12 C 20 %
681 01-04-2020 18:21:16 12.1 C 20 %
682 01-04-2020 18:31:17 11.7 C 20 %
683 01-04-2020 18:41:17 11.8 C 20 %
684 01-04-2020 18:51:16 11.6 C 20 %
685 01-04-2020 19:01:17 11 C 20 %
686 01-04-2020 19:11:17 10.7 C 20 %
687 01-04-2020 19:21:17 10.4 C 20 %
688 01-04-2020 19:31:17 9.9 C 20 %
689 01-04-2020 19:41:17 9.6 C 20 %
690 01-04-2020 19:51:16 8.9 C 20 %
691 01-04-2020 20:01:17 8.1 C 20 %
692 01-04-2020 20:11:17 7.8 C 20 %
693 01-04-2020 20:21:16 8.1 C 20 %
694 01-04-2020 20:31:16 7.1 C 20 %
695 01-04-2020 20:41:16 6.2 C 20 %
696 01-04-2020 20:51:16 5.9 C 20 %
697 01-04-2020 21:01:16 6 C 20 %
698 01-04-2020 21:11:16 6 C 20 %
699 01-04-2020 21:21:16 5.7 C 20 %
700 01-04-2020 21:31:16 5.7 C 20 %
Sensor: Nr:Datum:Temp:Feuchte:
Aussen-T/F 701 01-04-2020 21:41:16 5.4 C 20 %
702 01-04-2020 21:51:16 4 C 21 %
703 01-04-2020 22:01:16 4.2 C 21 %
704 01-04-2020 22:11:16 3.7 C 26 %
705 01-04-2020 22:21:16 3.2 C 26 %
706 01-04-2020 22:31:16 2.5 C 29 %
707 01-04-2020 22:41:16 2.6 C 28 %
708 01-04-2020 22:51:16 2 C 30 %
709 01-04-2020 23:01:17 1.7 C 33 %
710 01-04-2020 23:11:17 1.7 C 32 %
711 01-04-2020 23:21:16 1.4 C 34 %
712 01-04-2020 23:31:16 1.2 C 34 %
713 01-04-2020 23:41:16 1 C 35 %
714 01-04-2020 23:51:16 1.1 C 34 %
715 02-04-2020 00:01:17 1 C 35 %
716 02-04-2020 00:11:17 0.4 C 36 %
717 02-04-2020 00:21:16 0.4 C 36 %
718 02-04-2020 00:31:17 0.2 C 36 %
719 02-04-2020 00:41:17 0.3 C 37 %
720 02-04-2020 00:51:16 0.3 C 36 %
721 02-04-2020 01:01:17 0 C 37 %
722 02-04-2020 01:11:17 -0.4 C 38 %
723 02-04-2020 01:21:16 -0.6 C 38 %
724 02-04-2020 01:31:17 -0.7 C 38 %
725 02-04-2020 01:41:17 -0.7 C 38 %
Sensor: Nr:Datum:Temp:Feuchte:
Aussen-T/F 726 02-04-2020 01:51:16 -0.9 C 39 %
727 02-04-2020 02:01:16 -1 C 39 %
728 02-04-2020 02:11:16 -1 C 39 %
729 02-04-2020 02:21:16 -1.2 C 39 %
730 02-04-2020 02:31:17 -1.3 C 40 %
731 02-04-2020 02:41:17 -1.6 C 40 %
732 02-04-2020 02:51:17 -1.5 C 40 %
733 02-04-2020 03:01:17 -1.5 C 40 %
734 02-04-2020 03:11:17 -1.5 C 40 %
735 02-04-2020 03:21:17 -1.3 C 40 %
736 02-04-2020 03:31:17 -1.4 C 40 %
737 02-04-2020 03:41:17 -1.6 C 40 %
738 02-04-2020 03:51:18 -1.7 C 40 %
739 02-04-2020 04:01:18 -2.1 C 40 %
740 02-04-2020 04:11:18 -1.7 C 41 %
741 02-04-2020 04:21:18 -1.6 C 40 %
742 02-04-2020 04:31:17 -2 C 40 %
743 02-04-2020 04:41:17 -2.4 C 41 %
744 02-04-2020 04:51:17 -2.7 C 41 %
745 02-04-2020 05:01:18 -2.6 C 41 %
746 02-04-2020 05:11:18 -2.6 C 41 %
747 02-04-2020 05:21:17 -2.6 C 41 %
748 02-04-2020 05:31:18 -2.7 C 41 %
749 02-04-2020 05:41:18 -2.6 C 41 %
750 02-04-2020 05:51:17 -2.5 C 41 %
Sensor: Nr:Datum:Temp:Feuchte:
Aussen-T/F 751 02-04-2020 06:01:17 -2.6 C 41 %
752 02-04-2020 06:11:17 -3 C 41 %
753 02-04-2020 06:21:17 -3 C 42 %
754 02-04-2020 06:31:17 -2.6 C 43 %
755 02-04-2020 06:41:17 -3.1 C 42 %
756 02-04-2020 06:51:17 -2.9 C 42 %
757 02-04-2020 07:01:17 -3.3 C 42 %
758 02-04-2020 07:11:17 -3 C 42 %
759 02-04-2020 07:21:17 -3.1 C 42 %
760 02-04-2020 07:31:17 -3 C 43 %
761 02-04-2020 07:41:18 -2.9 C 42 %
762 02-04-2020 07:51:17 -3 C 43 %
763 02-04-2020 08:01:17 -2.7 C 43 %
764 02-04-2020 08:11:18 -2.5 C 43 %
765 02-04-2020 08:21:17 -2.2 C 42 %
766 02-04-2020 08:31:17 -2.2 C 42 %
767 02-04-2020 08:41:17 -2 C 42 %
768 02-04-2020 08:51:17 -1.8 C 42 %
769 02-04-2020 09:01:17 -1.7 C 42 %
770 02-04-2020 09:11:17 -1.5 C 41 %
771 02-04-2020 09:21:17 -1.3 C 41 %
772 02-04-2020 09:31:17 -1 C 41 %
773 02-04-2020 09:41:17 -0.6 C 41 %
774 02-04-2020 09:51:18 -0.3 C 41 %
775 02-04-2020 10:01:18 0.1 C 41 %
Sensor: Nr:Datum:Temp:Feuchte:
Aussen-T/F 776 02-04-2020 10:11:18 0.6 C 41 %
777 02-04-2020 10:21:17 0.8 C 41 %
778 02-04-2020 10:31:17 1.7 C 40 %
779 02-04-2020 10:41:17 2.2 C 39 %
780 02-04-2020 10:51:17 3.1 C 37 %
781 02-04-2020 11:01:17 3.6 C 37 %
782 02-04-2020 11:11:17 4.6 C 35 %
783 02-04-2020 11:21:17 5.7 C 30 %
784 02-04-2020 11:31:18 6.5 C 30 %
785 02-04-2020 11:41:18 6.9 C 29 %
786 02-04-2020 11:51:17 7.4 C 27 %
787 02-04-2020 12:01:17 8.1 C 27 %
788 02-04-2020 12:11:17 8.5 C 25 %
789 02-04-2020 12:21:17 10.5 C 20 %
790 02-04-2020 12:31:18 12.2 C 20 %
791 02-04-2020 12:41:18 10.8 C 20 %
792 02-04-2020 12:51:17 10.3 C 20 %
793 02-04-2020 13:01:17 11 C 20 %
794 02-04-2020 13:11:18 11.5 C 20 %
795 02-04-2020 13:21:17 11.6 C 20 %
796 02-04-2020 13:31:17 11.4 C 20 %
797 02-04-2020 13:41:17 12.3 C 20 %
798 02-04-2020 13:51:17 12.5 C 20 %
799 02-04-2020 14:01:17 11.8 C 20 %
800 02-04-2020 14:11:17 12.6 C 20 %
Sensor: Nr:Datum:Temp:Feuchte:
Aussen-T/F 801 02-04-2020 14:21:17 15.5 C 20 %
802 02-04-2020 14:31:18 18.1 C 20 %
803 02-04-2020 14:41:18 18.3 C 20 %
804 02-04-2020 14:51:17 18.3 C 20 %
805 02-04-2020 15:01:18 19.7 C 20 %
806 02-04-2020 15:11:18 17.5 C 20 %
807 02-04-2020 15:21:17 19.2 C 20 %
808 02-04-2020 15:31:18 19.8 C 20 %
809 02-04-2020 15:41:18 19.3 C 20 %
810 02-04-2020 15:51:17 19.4 C 20 %
811 02-04-2020 16:01:17 21.3 C 20 %
812 02-04-2020 16:11:17 19.9 C 20 %
813 02-04-2020 16:21:17 16.6 C 20 %
814 02-04-2020 16:31:18 18 C 20 %
815 02-04-2020 16:41:18 17.6 C 20 %
816 02-04-2020 16:51:17 17.8 C 20 %
817 02-04-2020 17:01:17 17.3 C 20 %
818 02-04-2020 17:11:17 16.6 C 20 %
819 02-04-2020 17:21:17 15.8 C 20 %
820 02-04-2020 17:31:18 15.5 C 20 %
821 02-04-2020 17:41:18 14.7 C 20 %
822 02-04-2020 17:51:17 14.8 C 20 %
823 02-04-2020 18:01:17 12.8 C 20 %
824 02-04-2020 18:11:17 12.2 C 20 %
825 02-04-2020 18:21:17 12.3 C 20 %
Sensor: Nr:Datum:Temp:Feuchte:
Aussen-T/F 826 02-04-2020 18:31:17 11.8 C 20 %
827 02-04-2020 18:41:17 11.3 C 20 %
828 02-04-2020 18:51:17 11.1 C 20 %
829 02-04-2020 19:01:17 10.7 C 20 %
830 02-04-2020 19:11:17 10.2 C 20 %
831 02-04-2020 19:21:17 10 C 20 %
832 02-04-2020 19:31:17 9.6 C 20 %
833 02-04-2020 19:41:17 9.5 C 20 %
834 02-04-2020 19:51:17 8.7 C 20 %
835 02-04-2020 20:01:17 8.5 C 20 %
836 02-04-2020 20:11:17 8.5 C 20 %
837 02-04-2020 20:21:17 7.9 C 20 %
838 02-04-2020 20:31:17 7.8 C 20 %
839 02-04-2020 20:41:17 7.2 C 21 %
840 02-04-2020 20:51:17 6.9 C 25 %
841 02-04-2020 21:01:17 6.4 C 26 %
842 02-04-2020 21:11:17 6.3 C 27 %
843 02-04-2020 21:21:17 5.9 C 28 %
844 02-04-2020 21:31:18 5.7 C 29 %
845 02-04-2020 21:41:18 5.6 C 30 %
846 02-04-2020 21:51:17 5.3 C 30 %
847 02-04-2020 22:01:17 5.2 C 30 %
848 02-04-2020 22:11:17 5.5 C 30 %
849 02-04-2020 22:21:17 5 C 30 %
850 02-04-2020 22:31:18 5.3 C 31 %
Sensor: Nr:Datum:Temp:Feuchte:
Aussen-T/F 851 02-04-2020 22:41:18 5.2 C 31 %
852 02-04-2020 22:51:17 5.1 C 31 %
853 02-04-2020 23:01:17 4.8 C 32 %
854 02-04-2020 23:11:17 5 C 31 %
855 02-04-2020 23:21:17 5 C 31 %
856 02-04-2020 23:31:18 4.7 C 33 %
857 02-04-2020 23:41:18 3.9 C 35 %
858 02-04-2020 23:51:17 3.1 C 36 %
859 03-04-2020 00:01:18 2.7 C 38 %
860 03-04-2020 00:11:18 2.3 C 39 %
861 03-04-2020 00:21:17 2.6 C 40 %
862 03-04-2020 00:31:17 2.6 C 39 %
863 03-04-2020 00:41:17 3.2 C 38 %
864 03-04-2020 00:51:17 2.4 C 39 %
865 03-04-2020 01:01:18 2.4 C 39 %
866 03-04-2020 01:11:18 2.4 C 39 %
867 03-04-2020 01:21:17 2.6 C 39 %
868 03-04-2020 01:31:18 2.7 C 39 %
869 03-04-2020 01:41:18 2.5 C 39 %
870 03-04-2020 01:51:17 2.3 C 39 %
871 03-04-2020 02:01:18 2.2 C 39 %
872 03-04-2020 02:11:18 2.3 C 39 %
873 03-04-2020 02:21:18 3.1 C 38 %
874 03-04-2020 02:31:18 3.2 C 38 %
875 03-04-2020 02:41:18 2.6 C 39 %
Sensor: Nr:Datum:Temp:Feuchte:
Aussen-T/F 876 03-04-2020 02:51:17 2.8 C 39 %
877 03-04-2020 03:01:18 3 C 38 %
878 03-04-2020 03:11:18 3.6 C 38 %
879 03-04-2020 03:21:17 3.9 C 38 %
880 03-04-2020 03:31:17 4.4 C 36 %
881 03-04-2020 03:41:17 4.7 C 36 %
882 03-04-2020 03:51:17 4.6 C 36 %
883 03-04-2020 04:01:17 5 C 35 %
884 03-04-2020 04:11:17 5.6 C 35 %
885 03-04-2020 04:21:17 4.9 C 35 %
886 03-04-2020 04:31:18 4.7 C 36 %
887 03-04-2020 04:41:18 4.6 C 36 %
888 03-04-2020 04:51:18 4.4 C 36 %
889 03-04-2020 05:01:18 4.3 C 36 %
890 03-04-2020 05:11:18 4.5 C 36 %
891 03-04-2020 05:21:17 4.8 C 36 %
892 03-04-2020 05:31:17 4.8 C 36 %
893 03-04-2020 05:41:17 5.2 C 35 %
894 03-04-2020 05:51:17 5.3 C 35 %
895 03-04-2020 06:01:18 5.4 C 35 %
896 03-04-2020 06:11:18 5.4 C 35 %
897 03-04-2020 06:21:17 5.1 C 35 %
898 03-04-2020 06:31:17 5.1 C 36 %
899 03-04-2020 06:41:17 5.1 C 35 %
900 03-04-2020 06:51:17 5.2 C 35 %
Sensor: Nr:Datum:Temp:Feuchte:
Aussen-T/F 901 03-04-2020 07:01:17 5.7 C 35 %
902 03-04-2020 07:11:17 5.6 C 35 %
903 03-04-2020 07:21:18 5.5 C 35 %
904 03-04-2020 07:31:17 5.7 C 35 %
905 03-04-2020 07:41:17 5.6 C 35 %
906 03-04-2020 07:51:17 5.6 C 35 %
907 03-04-2020 08:01:17 5.7 C 35 %
908 03-04-2020 08:11:17 5.9 C 35 %
909 03-04-2020 08:21:18 5.9 C 35 %
910 03-04-2020 08:31:17 5.9 C 35 %
911 03-04-2020 08:41:17 6.1 C 35 %
912 03-04-2020 08:51:18 6.6 C 35 %
913 03-04-2020 09:01:17 7 C 34 %
914 03-04-2020 09:11:17 7.1 C 34 %
915 03-04-2020 09:21:18 7.6 C 34 %
916 03-04-2020 09:31:18 7.7 C 34 %
917 03-04-2020 09:41:18 8 C 33 %
918 03-04-2020 09:51:17 8.4 C 33 %
919 03-04-2020 10:01:18 8.6 C 32 %
920 03-04-2020 10:11:18 8.6 C 32 %
921 03-04-2020 10:21:17 9 C 32 %
922 03-04-2020 10:31:18 9.4 C 32 %
923 03-04-2020 10:41:18 9.2 C 32 %
924 03-04-2020 10:51:17 9.6 C 32 %
925 03-04-2020 11:01:17 10.6 C 31 %
Sensor: Nr:Datum:Temp:Feuchte:
Aussen-T/F 926 03-04-2020 11:11:17 11.2 C 29 %
927 03-04-2020 11:21:17 10.9 C 29 %
928 03-04-2020 11:31:17 11.1 C 28 %
929 03-04-2020 11:41:17 11.5 C 26 %
930 03-04-2020 11:51:17 11.4 C 26 %
931 03-04-2020 12:01:17 11.1 C 26 %
932 03-04-2020 12:11:17 11.2 C 26 %
933 03-04-2020 12:21:17 11.4 C 26 %
934 03-04-2020 12:31:17 11.6 C 25 %
935 03-04-2020 12:41:18 11.1 C 25 %
936 03-04-2020 12:51:17 11.1 C 25 %
937 03-04-2020 13:01:18 11.2 C 25 %
938 03-04-2020 13:11:18 11.7 C 25 %
939 03-04-2020 13:21:17 12.2 C 22 %
940 03-04-2020 13:31:17 11.8 C 22 %
941 03-04-2020 13:41:17 11.8 C 23 %
942 03-04-2020 13:51:17 12.2 C 22 %
943 03-04-2020 14:01:18 12.3 C 20 %
944 03-04-2020 14:11:18 11.6 C 21 %
945 03-04-2020 14:21:17 11.7 C 21 %
946 03-04-2020 14:31:17 11.6 C 21 %
947 03-04-2020 14:41:18 11.4 C 23 %
948 03-04-2020 14:51:17 11.7 C 21 %
949 03-04-2020 15:01:17 11.8 C 20 %
950 03-04-2020 15:11:17 11.7 C 20 %
Sensor: Nr:Datum:Temp:Feuchte:
Aussen-T/F 951 03-04-2020 15:21:18 11.8 C 20 %
952 03-04-2020 15:31:17 12.1 C 20 %
953 03-04-2020 15:41:17 12.5 C 20 %
954 03-04-2020 15:51:17 13.1 C 20 %
955 03-04-2020 16:01:17 12.6 C 20 %
956 03-04-2020 16:11:17 12.4 C 20 %
957 03-04-2020 16:21:17 12.4 C 20 %
958 03-04-2020 16:31:17 12.3 C 20 %
959 03-04-2020 16:41:17 12.4 C 20 %
960 03-04-2020 16:51:17 12.4 C 20 %
961 03-04-2020 17:01:17 12.2 C 20 %
962 03-04-2020 17:11:17 12.2 C 20 %
963 03-04-2020 17:21:17 12.2 C 20 %
964 03-04-2020 17:31:17 12.2 C 20 %
965 03-04-2020 17:41:17 12.4 C 20 %
966 03-04-2020 17:51:17 11.9 C 20 %
967 03-04-2020 18:01:17 11.5 C 20 %
968 03-04-2020 18:11:17 11.7 C 20 %
969 03-04-2020 18:21:17 11.5 C 20 %
970 03-04-2020 18:31:18 11.4 C 20 %
971 03-04-2020 18:41:18 11 C 20 %
972 03-04-2020 18:51:17 11 C 20 %
973 03-04-2020 19:01:18 10.8 C 20 %
974 03-04-2020 19:11:18 10.7 C 20 %
975 03-04-2020 19:21:17 10.5 C 20 %
Sensor: Nr:Datum:Temp:Feuchte:
Aussen-T/F 976 03-04-2020 19:31:17 10.2 C 20 %
977 03-04-2020 19:41:17 10.3 C 20 %
978 03-04-2020 19:51:17 9.9 C 20 %
979 03-04-2020 20:01:17 9.8 C 20 %
980 03-04-2020 20:11:17 9.5 C 20 %
981 03-04-2020 20:21:17 9.1 C 20 %
982 03-04-2020 20:31:18 9.5 C 20 %
983 03-04-2020 20:41:18 9.2 C 20 %
984 03-04-2020 20:51:18 9.1 C 20 %
985 03-04-2020 21:01:17 9.2 C 20 %
986 03-04-2020 21:11:17 9.1 C 20 %
987 03-04-2020 21:21:17 8.9 C 20 %
988 03-04-2020 21:31:17 8.7 C 20 %
989 03-04-2020 21:41:17 8.6 C 20 %
990 03-04-2020 21:51:17 8.3 C 20 %
991 03-04-2020 22:01:17 8.1 C 20 %
992 03-04-2020 22:11:17 7.9 C 20 %
993 03-04-2020 22:21:17 7.2 C 23 %
994 03-04-2020 22:31:18 6.8 C 25 %
995 03-04-2020 22:41:18 6.5 C 26 %
996 03-04-2020 22:51:17 6.3 C 26 %
997 03-04-2020 23:01:17 6.4 C 26 %
998 03-04-2020 23:11:18 6.4 C 25 %
999 03-04-2020 23:21:18 6.2 C 26 %
1000 03-04-2020 23:31:17 5.2 C 28 %
Sensor: Nr:Datum:Temp:Feuchte:
Aussen-T/F 1001 03-04-2020 23:41:18 5 C 29 %
1002 03-04-2020 23:51:17 4.7 C 30 %
1003 04-04-2020 00:01:17 4.8 C 30 %
1004 04-04-2020 00:11:18 4.8 C 30 %
1005 04-04-2020 00:21:17 4.7 C 30 %
1006 04-04-2020 00:31:17 5.2 C 28 %
1007 04-04-2020 00:41:17 4.5 C 29 %
1008 04-04-2020 00:51:17 4 C 30 %
1009 04-04-2020 01:01:17 4.6 C 30 %
1010 04-04-2020 01:11:17 4.3 C 30 %
1011 04-04-2020 01:21:18 3.9 C 31 %
1012 04-04-2020 01:31:17 4 C 32 %
1013 04-04-2020 01:41:17 3.1 C 35 %
1014 04-04-2020 01:51:17 2.2 C 37 %
1015 04-04-2020 02:01:18 1.7 C 39 %
1016 04-04-2020 02:11:18 1.4 C 40 %
1017 04-04-2020 02:21:17 1.2 C 40 %
1018 04-04-2020 02:31:17 0.9 C 41 %
1019 04-04-2020 02:41:17 0.8 C 41 %
1020 04-04-2020 02:51:17 0.8 C 42 %
1021 04-04-2020 03:01:18 0.6 C 42 %
1022 04-04-2020 03:11:18 0.4 C 42 %
1023 04-04-2020 03:21:17 0.3 C 43 %
1024 04-04-2020 03:31:18 0.6 C 43 %
1025 04-04-2020 03:41:18 0.5 C 42 %
Sensor: Nr:Datum:Temp:Feuchte:
Aussen-T/F 1026 04-04-2020 03:51:17 -0.1 C 43 %
1027 04-04-2020 04:01:17 -0.4 C 43 %
1028 04-04-2020 04:11:17 -0.6 C 43 %
1029 04-04-2020 04:21:17 -0.7 C 44 %
1030 04-04-2020 04:31:17 -0.6 C 44 %
1031 04-04-2020 04:41:17 -0.9 C 44 %
1032 04-04-2020 04:51:17 -0.9 C 45 %
1033 04-04-2020 05:01:18 -0.9 C 45 %
1034 04-04-2020 05:11:18 -1.2 C 45 %
1035 04-04-2020 05:21:18 -1.2 C 45 %
1036 04-04-2020 05:31:17 -1 C 45 %
1037 04-04-2020 05:41:17 -1.2 C 45 %
1038 04-04-2020 05:51:17 -1.2 C 45 %
1039 04-04-2020 06:01:18 -1.5 C 45 %
1040 04-04-2020 06:11:18 -1.5 C 45 %
1041 04-04-2020 06:21:17 -1.5 C 45 %
1042 04-04-2020 06:31:17 -1.8 C 45 %
1043 04-04-2020 06:41:17 -1.4 C 46 %
1044 04-04-2020 06:51:17 -1.5 C 45 %
1045 04-04-2020 07:01:18 -1.6 C 45 %
1046 04-04-2020 07:11:18 -1.8 C 45 %
1047 04-04-2020 07:21:17 -1.5 C 46 %
1048 04-04-2020 07:31:18 -1.8 C 45 %
1049 04-04-2020 07:41:18 -1.7 C 46 %
1050 04-04-2020 07:51:17 -1.8 C 45 %
Sensor: Nr:Datum:Temp:Feuchte:
Aussen-T/F 1051 04-04-2020 08:01:17 -1.8 C 46 %
1052 04-04-2020 08:11:18 -1.7 C 46 %
1053 04-04-2020 08:21:17 -1.5 C 46 %
1054 04-04-2020 08:31:17 -1.1 C 46 %
1055 04-04-2020 08:41:18 -1 C 46 %
1056 04-04-2020 08:51:17 -0.7 C 45 %
1057 04-04-2020 09:01:17 -0.3 C 45 %
1058 04-04-2020 09:11:17 0 C 45 %
1059 04-04-2020 09:21:17 -0.2 C 45 %
1060 04-04-2020 09:31:18 0.2 C 45 %
1061 04-04-2020 09:41:18 0.8 C 44 %
1062 04-04-2020 09:51:17 1.1 C 43 %
1063 04-04-2020 10:01:17 1.5 C 43 %
1064 04-04-2020 10:11:18 1.8 C 43 %
1065 04-04-2020 10:21:17 2.2 C 41 %
1066 04-04-2020 10:31:17 2.9 C 41 %
1067 04-04-2020 10:41:17 3.5 C 40 %
1068 04-04-2020 10:51:17 4.5 C 37 %
1069 04-04-2020 11:01:17 5.3 C 36 %
1070 04-04-2020 11:11:17 6.4 C 35 %
1071 04-04-2020 11:21:18 7.1 C 32 %
1072 04-04-2020 11:31:18 7.9 C 32 %
1073 04-04-2020 11:41:18 8.4 C 29 %
1074 04-04-2020 11:51:18 8.7 C 29 %
1075 04-04-2020 12:01:18 9.7 C 26 %
Sensor: Nr:Datum:Temp:Feuchte:
Aussen-T/F 1076 04-04-2020 12:11:18 9.7 C 26 %
1077 04-04-2020 12:21:17 10.6 C 22 %
1078 04-04-2020 12:31:17 10.9 C 20 %
1079 04-04-2020 12:41:17 11.4 C 20 %
1080 04-04-2020 12:51:17 10.8 C 20 %
1081 04-04-2020 13:01:17 11.1 C 20 %
1082 04-04-2020 13:11:17 12.1 C 20 %
1083 04-04-2020 13:21:17 11.6 C 20 %
1084 04-04-2020 13:31:17 11.4 C 20 %
1085 04-04-2020 13:41:17 12.2 C 20 %
1086 04-04-2020 13:51:18 12.5 C 20 %
1087 04-04-2020 14:01:17 12.1 C 20 %
1088 04-04-2020 14:11:17 13.7 C 20 %
1089 04-04-2020 14:21:17 14.6 C 20 %
1090 04-04-2020 14:31:17 16.6 C 20 %
1091 04-04-2020 14:41:17 17 C 20 %
1092 04-04-2020 14:51:17 16.3 C 20 %
1093 04-04-2020 15:01:18 18.1 C 20 %
1094 04-04-2020 15:11:18 18.9 C 20 %
1095 04-04-2020 15:21:17 16.9 C 20 %
1096 04-04-2020 15:31:17 19.1 C 20 %
1097 04-04-2020 15:41:17 19.8 C 20 %
1098 04-04-2020 15:51:17 17.4 C 20 %
1099 04-04-2020 16:01:17 19.9 C 20 %
1100 04-04-2020 16:11:17 19.3 C 20 %
Sensor: Nr:Datum:Temp:Feuchte:
Aussen-T/F 1101 04-04-2020 16:21:17 18.7 C 20 %
1102 04-04-2020 16:31:17 19.3 C 20 %
1103 04-04-2020 16:41:17 20.5 C 20 %
1104 04-04-2020 16:51:17 20.4 C 20 %
1105 04-04-2020 17:01:17 20.3 C 20 %
1106 04-04-2020 17:11:17 20.1 C 20 %
1107 04-04-2020 17:21:17 20.5 C 20 %
1108 04-04-2020 17:31:17 19.2 C 20 %
1109 04-04-2020 17:41:17 18.7 C 20 %
1110 04-04-2020 17:51:18 17.8 C 20 %
1111 04-04-2020 18:01:17 16.8 C 20 %
1112 04-04-2020 18:11:17 16.2 C 20 %
1113 04-04-2020 18:21:17 15.4 C 20 %
1114 04-04-2020 18:31:17 15.4 C 20 %
1115 04-04-2020 18:41:17 15.6 C 20 %
1116 04-04-2020 18:51:17 15.1 C 20 %
1117 04-04-2020 19:01:17 14.9 C 20 %
1118 04-04-2020 19:11:17 14.4 C 20 %
1119 04-04-2020 19:21:17 14 C 20 %
1120 04-04-2020 19:31:17 13.9 C 20 %
1121 04-04-2020 19:41:17 12.6 C 20 %
1122 04-04-2020 19:51:17 11.5 C 20 %
1123 04-04-2020 20:01:17 11.3 C 20 %
1124 04-04-2020 20:11:17 10.7 C 20 %
1125 04-04-2020 20:21:17 10.3 C 21 %
Sensor: Nr:Datum:Temp:Feuchte:
Aussen-T/F 1126 04-04-2020 20:31:17 9.8 C 25 %
1127 04-04-2020 20:41:17 9.5 C 23 %
1128 04-04-2020 20:51:17 9.2 C 25 %
1129 04-04-2020 21:01:17 9.2 C 21 %
1130 04-04-2020 21:11:17 8.7 C 25 %
1131 04-04-2020 21:21:17 8.8 C 25 %
1132 04-04-2020 21:31:17 8.5 C 25 %
1133 04-04-2020 21:41:17 8.2 C 25 %
1134 04-04-2020 21:51:17 7.1 C 28 %
1135 04-04-2020 22:01:18 5.8 C 31 %
1136 04-04-2020 22:11:18 5.5 C 32 %
1137 04-04-2020 22:21:18 5.1 C 32 %
1138 04-04-2020 22:31:17 4.8 C 35 %
1139 04-04-2020 22:41:17 4.7 C 34 %
1140 04-04-2020 22:51:17 4.6 C 34 %
1141 04-04-2020 23:01:17 4.4 C 34 %
1142 04-04-2020 23:11:17 4.1 C 34 %
1143 04-04-2020 23:21:17 3.9 C 35 %
1144 04-04-2020 23:31:17 3.6 C 36 %
1145 04-04-2020 23:41:17 3.5 C 36 %
1146 04-04-2020 23:51:17 3.4 C 37 %
1147 05-04-2020 00:01:17 3 C 37 %
1148 05-04-2020 00:11:17 2.9 C 38 %
1149 05-04-2020 00:21:17 2.8 C 39 %
1150 05-04-2020 00:31:17 2.5 C 39 %
Sensor: Nr:Datum:Temp:Feuchte:
Aussen-T/F 1151 05-04-2020 00:41:17 2.5 C 40 %
1152 05-04-2020 00:51:18 2.4 C 40 %
1153 05-04-2020 01:01:18 2.3 C 40 %
1154 05-04-2020 01:11:18 2.3 C 40 %
1155 05-04-2020 01:21:17 2.2 C 40 %
1156 05-04-2020 01:31:18 2.1 C 41 %
1157 05-04-2020 01:41:18 1.9 C 42 %
1158 05-04-2020 01:51:17 1.8 C 42 %
1159 05-04-2020 02:01:18 1.6 C 42 %
1160 05-04-2020 02:11:18 1.3 C 42 %
1161 05-04-2020 02:21:17 1.4 C 43 %
1162 05-04-2020 02:31:18 1.4 C 43 %
1163 05-04-2020 02:41:18 1.1 C 43 %
1164 05-04-2020 02:51:17 1.1 C 43 %
1165 05-04-2020 03:01:18 1.3 C 43 %
1166 05-04-2020 03:11:18 1.1 C 43 %
1167 05-04-2020 03:21:17 1 C 43 %
1168 05-04-2020 03:31:17 0.7 C 45 %
1169 05-04-2020 03:41:17 0.5 C 45 %
1170 05-04-2020 03:51:17 0.7 C 45 %
1171 05-04-2020 04:01:17 0.6 C 45 %
1172 05-04-2020 04:11:17 0.4 C 45 %
1173 05-04-2020 04:21:17 0.4 C 46 %
1174 05-04-2020 04:31:17 0.2 C 46 %
1175 05-04-2020 04:41:17 0.2 C 46 %
Sensor: Nr:Datum:Temp:Feuchte:
Aussen-T/F 1176 05-04-2020 04:51:17 0.2 C 46 %
1177 05-04-2020 05:01:17 0 C 46 %
1178 05-04-2020 05:11:17 -0.3 C 46 %
1179 05-04-2020 05:21:17 -0.2 C 47 %
1180 05-04-2020 05:31:17 -0.3 C 46 %
1181 05-04-2020 05:41:17 -0.4 C 47 %
1182 05-04-2020 05:51:17 -0.5 C 47 %
1183 05-04-2020 06:01:17 -0.4 C 47 %
1184 05-04-2020 06:11:17 -0.5 C 47 %
1185 05-04-2020 06:21:17 -0.6 C 47 %
1186 05-04-2020 06:31:18 -0.8 C 48 %
1187 05-04-2020 06:41:18 -0.8 C 47 %
1188 05-04-2020 06:51:17 -0.8 C 47 %
1189 05-04-2020 07:01:18 -0.9 C 47 %
1190 05-04-2020 07:11:18 -0.7 C 48 %
1191 05-04-2020 07:21:18 -0.6 C 48 %
1192 05-04-2020 07:31:17 -0.5 C 48 %
1193 05-04-2020 07:41:17 -0.5 C 48 %
1194 05-04-2020 07:51:17 -0.4 C 48 %
1195 05-04-2020 08:01:17 -0.3 C 48 %
1196 05-04-2020 08:11:17 0 C 49 %
1197 05-04-2020 08:21:17 0.1 C 48 %
1198 05-04-2020 08:31:17 0.4 C 48 %
1199 05-04-2020 08:41:17 0.5 C 49 %
1200 05-04-2020 08:51:18 0.8 C 49 %
Sensor: Nr:Datum:Temp:Feuchte:
Aussen-T/F 1201 05-04-2020 09:01:17 1.1 C 47 %
1202 05-04-2020 09:11:17 1.4 C 47 %
1203 05-04-2020 09:21:17 1.8 C 47 %
1204 05-04-2020 09:31:17 2.4 C 46 %
1205 05-04-2020 09:41:17 2.8 C 46 %
1206 05-04-2020 09:51:18 3.4 C 44 %
1207 05-04-2020 10:01:18 3.9 C 43 %
1208 05-04-2020 10:11:18 4.5 C 41 %
1209 05-04-2020 10:21:17 5.4 C 40 %
1210 05-04-2020 10:31:17 5.9 C 40 %
1211 05-04-2020 10:41:17 7 C 38 %
1212 05-04-2020 10:51:17 7.9 C 37 %
1213 05-04-2020 11:01:17 8.6 C 36 %
1214 05-04-2020 11:11:17 10.7 C 32 %
1215 05-04-2020 11:21:17 11.2 C 30 %
1216 05-04-2020 11:31:17 13.1 C 21 %
1217 05-04-2020 11:41:17 13.9 C 20 %
1218 05-04-2020 11:51:17 14.8 C 20 %
1219 05-04-2020 12:01:17 15.6 C 20 %
1220 05-04-2020 12:11:17 15.9 C 20 %
1221 05-04-2020 12:21:17 16.7 C 20 %
1222 05-04-2020 12:31:18 17.6 C 20 %
1223 05-04-2020 12:41:18 17.4 C 20 %
1224 05-04-2020 12:51:17 17.4 C 20 %
1225 05-04-2020 13:01:17 17.2 C 20 %
Sensor: Nr:Datum:Temp:Feuchte:
Aussen-T/F 1226 05-04-2020 13:11:17 18.4 C 20 %
1227 05-04-2020 13:21:17 17.5 C 20 %
1228 05-04-2020 13:31:17 17.1 C 20 %
1229 05-04-2020 13:41:17 17.9 C 20 %
1230 05-04-2020 13:51:17 17.7 C 20 %
1231 05-04-2020 14:01:17 17.9 C 20 %
1232 05-04-2020 14:11:17 19 C 20 %
1233 05-04-2020 14:21:17 19.8 C 20 %
1234 05-04-2020 14:31:18 21.7 C 20 %
1235 05-04-2020 14:41:18 23.4 C 20 %
1236 05-04-2020 14:51:18 23.3 C 20 %
1237 05-04-2020 15:01:17 24.7 C 20 %
1238 05-04-2020 15:11:18 26.9 C 20 %
1239 05-04-2020 15:21:17 24.5 C 20 %
1240 05-04-2020 15:31:17 24.8 C 20 %
1241 05-04-2020 15:41:17 25.1 C 20 %
1242 05-04-2020 15:51:18 26.6 C 20 %
1243 05-04-2020 16:01:17 25 C 20 %
1244 05-04-2020 16:11:17 23.3 C 20 %
1245 05-04-2020 16:21:17 25.5 C 20 %
1246 05-04-2020 16:31:17 24.8 C 20 %
1247 05-04-2020 16:41:17 23.1 C 20 %
1248 05-04-2020 16:51:17 23.4 C 20 %
1249 05-04-2020 17:01:17 23.5 C 20 %
1250 05-04-2020 17:11:17 26.4 C 20 %
Sensor: Nr:Datum:Temp:Feuchte:
Aussen-T/F 1251 05-04-2020 17:21:17 25.9 C 20 %
1252 05-04-2020 17:31:17 24.4 C 20 %
1253 05-04-2020 17:41:17 24.2 C 20 %
1254 05-04-2020 17:51:17 23.6 C 20 %
1255 05-04-2020 18:01:17 20.8 C 20 %
1256 05-04-2020 18:11:17 19.7 C 20 %
1257 05-04-2020 18:21:17 20 C 20 %
1258 05-04-2020 18:31:17 19.7 C 20 %
1259 05-04-2020 18:41:17 19.4 C 20 %
1260 05-04-2020 18:51:17 18.9 C 20 %
1261 05-04-2020 19:01:17 18.8 C 20 %
1262 05-04-2020 19:11:17 18.4 C 20 %
1263 05-04-2020 19:21:17 18 C 20 %
1264 05-04-2020 19:31:18 17.5 C 20 %
1265 05-04-2020 19:41:18 16.3 C 20 %
1266 05-04-2020 19:51:17 15 C 20 %
1267 05-04-2020 20:01:18 14.3 C 20 %
1268 05-04-2020 20:11:18 14.1 C 20 %
1269 05-04-2020 20:21:17 13.5 C 20 %
1270 05-04-2020 20:31:17 13.3 C 20 %
1271 05-04-2020 20:41:17 13 C 20 %
1272 05-04-2020 20:51:17 12.7 C 20 %
1273 05-04-2020 21:01:18 12.3 C 20 %
1274 05-04-2020 21:11:18 12 C 20 %
1275 05-04-2020 21:21:17 12.1 C 20 %
Sensor: Nr:Datum:Temp:Feuchte:
Aussen-T/F 1276 05-04-2020 21:31:17 11.7 C 20 %
1277 05-04-2020 21:41:17 11.5 C 20 %
1278 05-04-2020 21:51:17 10.3 C 20 %
1279 05-04-2020 22:01:17 10.5 C 20 %
1280 05-04-2020 22:11:17 9.2 C 25 %
1281 05-04-2020 22:21:17 8.9 C 26 %
1282 05-04-2020 22:31:17 8.8 C 26 %
1283 05-04-2020 22:41:17 8.4 C 27 %
1284 05-04-2020 22:51:17 8.2 C 27 %
1285 05-04-2020 23:01:17 8 C 28 %
1286 05-04-2020 23:11:17 7.4 C 30 %
1287 05-04-2020 23:21:17 7.4 C 29 %
1288 05-04-2020 23:31:17 7 C 30 %
1289 05-04-2020 23:41:17 6.7 C 31 %
1290 05-04-2020 23:51:17 6.3 C 31 %
1291 06-04-2020 00:01:17 6.2 C 32 %
1292 06-04-2020 00:11:17 6.3 C 32 %
1293 06-04-2020 00:21:17 6.3 C 32 %
1294 06-04-2020 00:31:18 6 C 32 %
1295 06-04-2020 00:41:18 5.6 C 33 %
1296 06-04-2020 00:51:17 5.6 C 34 %
1297 06-04-2020 01:01:18 5.4 C 35 %
1298 06-04-2020 01:11:18 5.3 C 35 %
1299 06-04-2020 01:21:17 5.1 C 35 %
1300 06-04-2020 01:31:17 4.8 C 36 %
Sensor: Nr:Datum:Temp:Feuchte:
Aussen-T/F 1301 06-04-2020 01:41:17 4.7 C 36 %
1302 06-04-2020 01:51:17 4.6 C 36 %
1303 06-04-2020 02:01:17 4.5 C 37 %
1304 06-04-2020 02:11:17 4.1 C 37 %
1305 06-04-2020 02:21:17 4.2 C 37 %
1306 06-04-2020 02:31:17 4 C 37 %
1307 06-04-2020 02:41:17 4.1 C 37 %
1308 06-04-2020 02:51:17 3.8 C 38 %
1309 06-04-2020 03:01:17 3.9 C 39 %
1310 06-04-2020 03:11:17 3.6 C 39 %
1311 06-04-2020 03:21:17 3.3 C 39 %
1312 06-04-2020 03:31:18 3.3 C 40 %
1313 06-04-2020 03:41:18 3.2 C 40 %
1314 06-04-2020 03:51:17 3.3 C 40 %
1315 06-04-2020 04:01:17 3.2 C 40 %
1316 06-04-2020 04:11:17 3.3 C 40 %
1317 06-04-2020 04:21:17 3.1 C 40 %
1318 06-04-2020 04:31:17 2.8 C 40 %
1319 06-04-2020 04:41:17 2.6 C 41 %
1320 06-04-2020 04:51:17 2.5 C 41 %
1321 06-04-2020 05:01:17 2.4 C 41 %
1322 06-04-2020 05:11:17 2.3 C 41 %
1323 06-04-2020 05:21:18 2.2 C 41 %
1324 06-04-2020 05:31:17 1.9 C 42 %
1325 06-04-2020 05:41:17 1.8 C 43 %
Sensor: Nr:Datum:Temp:Feuchte:
Aussen-T/F 1326 06-04-2020 05:51:17 1.7 C 43 %
1327 06-04-2020 06:01:17 1.6 C 44 %
1328 06-04-2020 06:11:17 1.5 C 44 %
1329 06-04-2020 06:21:18 1.3 C 45 %
1330 06-04-2020 06:31:17 1.2 C 45 %
1331 06-04-2020 06:41:18 1.3 C 45 %
1332 06-04-2020 06:51:17 1.3 C 45 %
1333 06-04-2020 07:01:17 1.4 C 45 %
1334 06-04-2020 07:11:17 1.5 C 45 %
1335 06-04-2020 07:21:17 1.6 C 45 %
1336 06-04-2020 07:31:18 1.5 C 45 %
1337 06-04-2020 07:41:18 1.6 C 45 %
1338 06-04-2020 07:51:17 2 C 45 %
1339 06-04-2020 08:01:17 1.9 C 45 %
1340 06-04-2020 08:11:17 2.2 C 44 %
1341 06-04-2020 08:21:17 2.5 C 44 %
1342 06-04-2020 08:31:17 3 C 42 %
1343 06-04-2020 08:41:17 3.2 C 42 %
1344 06-04-2020 08:51:17 3.4 C 41 %
1345 06-04-2020 09:01:18 3.5 C 41 %
1346 06-04-2020 09:11:18 3.4 C 41 %
1347 06-04-2020 09:21:17 3.9 C 41 %
1348 06-04-2020 09:31:17 4.3 C 40 %
1349 06-04-2020 09:41:17 4.8 C 40 %
1350 06-04-2020 09:51:18 5.2 C 40 %
Sensor: Nr:Datum:Temp:Feuchte:
Aussen-T/F 1351 06-04-2020 10:01:18 6 C 38 %
1352 06-04-2020 10:11:18 6.5 C 37 %
1353 06-04-2020 10:21:17 7.2 C 36 %
1354 06-04-2020 10:31:17 7.9 C 36 %
1355 06-04-2020 10:41:17 8.8 C 35 %
1356 06-04-2020 10:51:17 9.8 C 34 %
1357 06-04-2020 11:01:17 11.1 C 31 %
1358 06-04-2020 11:11:18 12.2 C 29 %
1359 06-04-2020 11:21:17 13.3 C 26 %
1360 06-04-2020 11:31:17 16 C 20 %
1361 06-04-2020 11:41:17 17.1 C 20 %
1362 06-04-2020 11:51:18 17.6 C 20 %
1363 06-04-2020 12:01:18 18.1 C 20 %
1364 06-04-2020 12:11:18 18.6 C 20 %
1365 06-04-2020 12:21:17 20.3 C 20 %
1366 06-04-2020 12:31:17 21 C 20 %
1367 06-04-2020 12:41:17 19.4 C 20 %
1368 06-04-2020 12:51:17 20.2 C 20 %
1369 06-04-2020 13:01:17 20.6 C 20 %
1370 06-04-2020 13:11:17 20.8 C 20 %
1371 06-04-2020 13:21:17 20.4 C 20 %
1372 06-04-2020 13:31:18 20.3 C 20 %
1373 06-04-2020 13:41:18 21.2 C 20 %
1374 06-04-2020 13:51:17 21.3 C 20 %
1375 06-04-2020 14:01:18 22.3 C 20 %
Sensor: Nr:Datum:Temp:Feuchte:
Aussen-T/F 1376 06-04-2020 14:11:18 22.3 C 20 %
1377 06-04-2020 14:21:17 23.7 C 20 %
1378 06-04-2020 14:31:17 26.8 C 20 %
1379 06-04-2020 14:41:17 27.4 C 20 %
1380 06-04-2020 14:51:18 28.3 C 20 %
1381 06-04-2020 15:01:17 28 C 20 %
1382 06-04-2020 15:11:17 26.6 C 20 %
1383 06-04-2020 15:21:17 27.1 C 20 %
1384 06-04-2020 15:31:17 25.8 C 20 %
1385 06-04-2020 15:41:17 26.9 C 20 %
1386 06-04-2020 15:51:17 27.9 C 20 %
1387 06-04-2020 16:01:17 29.7 C 20 %
1388 06-04-2020 16:11:17 27.4 C 20 %
1389 06-04-2020 16:21:18 27.4 C 20 %
1390 06-04-2020 16:31:18 28.3 C 20 %
1391 06-04-2020 16:41:18 28.5 C 20 %
1392 06-04-2020 16:51:17 27.1 C 20 %
1393 06-04-2020 17:01:17 27.6 C 20 %
1394 06-04-2020 17:11:17 26 C 20 %
1395 06-04-2020 17:21:17 26.7 C 20 %
1396 06-04-2020 17:31:17 25.7 C 20 %
1397 06-04-2020 17:41:17 25.5 C 20 %
1398 06-04-2020 17:51:17 24.2 C 20 %
1399 06-04-2020 18:01:17 23.3 C 20 %
1400 06-04-2020 18:11:17 23.1 C 20 %
Sensor: Nr:Datum:Temp:Feuchte:
Aussen-T/F 1401 06-04-2020 18:21:17 22.6 C 20 %
1402 06-04-2020 18:31:18 22.6 C 20 %
1403 06-04-2020 18:41:18 22.3 C 20 %
1404 06-04-2020 18:51:17 22 C 20 %
1405 06-04-2020 19:01:17 21.7 C 20 %
1406 06-04-2020 19:11:17 21.1 C 20 %
1407 06-04-2020 19:21:17 20.5 C 20 %
1408 06-04-2020 19:31:17 20.2 C 20 %
1409 06-04-2020 19:41:17 19.1 C 20 %
1410 06-04-2020 19:51:17 18.3 C 20 %
1411 06-04-2020 20:01:18 16.4 C 20 %
1412 06-04-2020 20:11:18 16.3 C 20 %
1413 06-04-2020 20:21:17 15.8 C 20 %
1414 06-04-2020 20:31:17 15.3 C 20 %
1415 06-04-2020 20:41:18 15.1 C 20 %
1416 06-04-2020 20:51:17 13.7 C 20 %
1417 06-04-2020 21:01:18 13.2 C 20 %
1418 06-04-2020 21:11:18 12.9 C 20 %
1419 06-04-2020 21:21:17 12 C 20 %
1420 06-04-2020 21:31:18 11.8 C 22 %
1421 06-04-2020 21:41:18 11.6 C 22 %
1422 06-04-2020 21:51:17 11.1 C 22 %
1423 06-04-2020 22:01:17 10.8 C 25 %
1424 06-04-2020 22:11:17 10.6 C 25 %
1425 06-04-2020 22:21:17 10.2 C 25 %
Sensor: Nr:Datum:Temp:Feuchte:
Aussen-T/F 1426 06-04-2020 22:31:17 10 C 26 %
1427 06-04-2020 22:41:17 10 C 26 %
1428 06-04-2020 22:51:17 9.9 C 26 %
1429 06-04-2020 23:01:18 9.8 C 26 %
1430 06-04-2020 23:11:18 9.6 C 26 %
1431 06-04-2020 23:21:17 9.5 C 27 %
1432 06-04-2020 23:31:17 9.4 C 27 %
1433 06-04-2020 23:41:17 9.2 C 27 %
1434 06-04-2020 23:51:17 9.5 C 29 %
1435 07-04-2020 00:01:17 10.2 C 26 %
1436 07-04-2020 00:11:17 9.1 C 29 %
1437 07-04-2020 00:21:18 8.7 C 30 %
1438 07-04-2020 00:31:17 8.8 C 30 %
1439 07-04-2020 00:41:17 9 C 30 %
1440 07-04-2020 00:51:17 8.6 C 30 %
1441 07-04-2020 01:01:17 8.7 C 30 %
1442 07-04-2020 01:11:17 9.1 C 30 %
1443 07-04-2020 01:21:17 9.4 C 30 %
1444 07-04-2020 01:31:17 9.8 C 30 %
1445 07-04-2020 01:41:17 10.1 C 30 %
1446 07-04-2020 01:51:18 10 C 29 %
1447 07-04-2020 02:01:18 9.2 C 30 %
1448 07-04-2020 02:11:18 8.8 C 31 %
1449 07-04-2020 02:21:17 8.2 C 33 %
1450 07-04-2020 02:31:17 7.9 C 34 %
Sensor: Nr:Datum:Temp:Feuchte:
Aussen-T/F 1451 07-04-2020 02:41:17 7.5 C 34 %
1452 07-04-2020 02:51:17 7.2 C 35 %
1453 07-04-2020 03:01:17 7.3 C 35 %
1454 07-04-2020 03:11:17 7.6 C 35 %
1455 07-04-2020 03:21:17 7.9 C 35 %
1456 07-04-2020 03:31:17 8 C 35 %
1457 07-04-2020 03:41:17 7.7 C 36 %
1458 07-04-2020 03:51:17 7.8 C 35 %
1459 07-04-2020 04:01:17 7.8 C 36 %
1460 07-04-2020 04:11:17 7.6 C 36 %
1461 07-04-2020 04:21:17 7.4 C 36 %
1462 07-04-2020 04:31:17 7.2 C 36 %
1463 07-04-2020 04:41:18 6.9 C 37 %
1464 07-04-2020 04:51:17 6.8 C 37 %
1465 07-04-2020 05:01:17 6.3 C 38 %
1466 07-04-2020 05:11:17 6.1 C 38 %
1467 07-04-2020 05:21:18 5.9 C 40 %
1468 07-04-2020 05:31:17 5.8 C 40 %
1469 07-04-2020 05:41:17 5.7 C 40 %
1470 07-04-2020 05:51:17 5.6 C 41 %
1471 07-04-2020 06:01:17 5.6 C 41 %
1472 07-04-2020 06:11:17 5.2 C 40 %
1473 07-04-2020 06:21:17 5.3 C 41 %
1474 07-04-2020 06:31:17 5.2 C 41 %
1475 07-04-2020 06:41:17 5 C 41 %
Sensor: Nr:Datum:Temp:Feuchte:
Aussen-T/F 1476 07-04-2020 06:51:17 4.8 C 42 %
1477 07-04-2020 07:01:18 4.8 C 43 %
1478 07-04-2020 07:11:18 4.7 C 43 %
1479 07-04-2020 07:21:18 4.8 C 44 %
1480 07-04-2020 07:31:17 5 C 43 %
1481 07-04-2020 07:41:18 5.7 C 43 %
1482 07-04-2020 07:51:17 5.8 C 42 %
1483 07-04-2020 08:01:17 5.7 C 41 %
1484 07-04-2020 08:11:18 5.8 C 41 %
1485 07-04-2020 08:21:17 6 C 41 %
1486 07-04-2020 08:31:17 6 C 41 %
1487 07-04-2020 08:41:17 6.3 C 41 %
1488 07-04-2020 08:51:17 6.6 C 41 %
1489 07-04-2020 09:01:17 7.1 C 40 %
1490 07-04-2020 09:11:17 7.3 C 40 %
1491 07-04-2020 09:21:17 7.5 C 40 %
1492 07-04-2020 09:31:17 8 C 39 %
1493 07-04-2020 09:41:18 8.9 C 39 %
1494 07-04-2020 09:51:17 9.3 C 37 %
1495 07-04-2020 10:01:17 9.4 C 38 %
1496 07-04-2020 10:11:18 10 C 37 %
1497 07-04-2020 10:21:17 10.7 C 37 %
1498 07-04-2020 10:31:18 11.4 C 36 %
1499 07-04-2020 10:41:18 12.3 C 35 %
1500 07-04-2020 10:51:17 13.1 C 33 %
Sensor: Nr:Datum:Temp:Feuchte:
Aussen-T/F 1501 07-04-2020 11:01:17 14 C 31 %
1502 07-04-2020 11:11:17 14.6 C 31 %
1503 07-04-2020 11:21:17 15.2 C 30 %
1504 07-04-2020 11:31:17 16 C 28 %
1505 07-04-2020 11:41:17 16.5 C 27 %
1506 07-04-2020 11:51:17 16.9 C 27 %
1507 07-04-2020 12:01:17 17.2 C 26 %
1508 07-04-2020 12:11:17 17.7 C 25 %
1509 07-04-2020 12:21:18 18.7 C 23 %
1510 07-04-2020 12:31:17 20.9 C 21 %
1511 07-04-2020 12:41:17 19.6 C 20 %
1512 07-04-2020 12:51:18 19.6 C 20 %
1513 07-04-2020 13:01:17 20.7 C 20 %
1514 07-04-2020 13:11:17 21.3 C 20 %
1515 07-04-2020 13:21:17 20.8 C 20 %
1516 07-04-2020 13:31:17 19.8 C 20 %
1517 07-04-2020 13:41:17 20.4 C 20 %
1518 07-04-2020 13:51:18 20.6 C 20 %
1519 07-04-2020 14:01:17 21.1 C 20 %
1520 07-04-2020 14:11:17 22 C 20 %
1521 07-04-2020 14:21:17 23.6 C 20 %
1522 07-04-2020 14:31:17 26.2 C 20 %
1523 07-04-2020 14:41:17 22.9 C 20 %
1524 07-04-2020 14:51:17 26.7 C 20 %
1525 07-04-2020 15:01:17 26.4 C 20 %
Sensor: Nr:Datum:Temp:Feuchte:
Aussen-T/F 1526 07-04-2020 15:11:17 27.1 C 20 %
1527 07-04-2020 15:21:17 30.1 C 20 %
1528 07-04-2020 15:31:17 28.4 C 20 %
1529 07-04-2020 15:41:18 27.2 C 20 %
1530 07-04-2020 15:51:17 26.6 C 20 %
1531 07-04-2020 16:01:17 27.4 C 20 %
1532 07-04-2020 16:11:17 25.1 C 20 %
1533 07-04-2020 16:21:17 27.8 C 20 %
1534 07-04-2020 16:31:17 23.9 C 20 %
1535 07-04-2020 16:41:18 24.3 C 20 %
1536 07-04-2020 16:51:18 29.2 C 20 %
1537 07-04-2020 17:01:17 31 C 20 %
1538 07-04-2020 17:11:17 25 C 20 %
1539 07-04-2020 17:21:17 24.2 C 20 %
1540 07-04-2020 17:31:18 24.2 C 20 %
1541 07-04-2020 17:41:18 26.9 C 20 %
1542 07-04-2020 17:51:18 24.6 C 20 %
1543 07-04-2020 18:01:17 23.7 C 20 %
1544 07-04-2020 18:11:17 23.7 C 20 %
1545 07-04-2020 18:21:17 22.9 C 20 %
1546 07-04-2020 18:31:17 22.7 C 20 %
1547 07-04-2020 18:41:17 22.3 C 20 %
1548 07-04-2020 18:51:17 22 C 20 %
1549 07-04-2020 19:01:17 21.8 C 20 %
1550 07-04-2020 19:11:18 21 C 20 %
Sensor: Nr:Datum:Temp:Feuchte:
Aussen-T/F 1551 07-04-2020 19:21:17 20 C 20 %
1552 07-04-2020 19:31:17 19.1 C 20 %
1553 07-04-2020 19:41:17 18.4 C 20 %
1554 07-04-2020 19:51:17 18.3 C 20 %
1555 07-04-2020 20:01:18 17.6 C 20 %
1556 07-04-2020 20:11:18 17.3 C 20 %
1557 07-04-2020 20:21:17 17.1 C 20 %
1558 07-04-2020 20:31:17 16.8 C 20 %
1559 07-04-2020 20:41:17 16.5 C 20 %
1560 07-04-2020 20:51:17 16.3 C 20 %
1561 07-04-2020 21:01:17 16.1 C 20 %
1562 07-04-2020 21:11:17 15.9 C 20 %
1563 07-04-2020 21:21:18 15.8 C 20 %
1564 07-04-2020 21:31:17 15.4 C 21 %
1565 07-04-2020 21:41:17 15.2 C 21 %
1566 07-04-2020 21:51:17 15.1 C 22 %
1567 07-04-2020 22:01:18 14.6 C 25 %
1568 07-04-2020 22:11:18 13.1 C 27 %
1569 07-04-2020 22:21:17 12.9 C 29 %
1570 07-04-2020 22:31:17 12.7 C 30 %
1571 07-04-2020 22:41:17 12.7 C 30 %
1572 07-04-2020 22:51:18 12.7 C 30 %
1573 07-04-2020 23:01:18 12.7 C 30 %
1574 07-04-2020 23:11:18 12.6 C 30 %
1575 07-04-2020 23:21:17 13.1 C 29 %
Sensor: Nr:Datum:Temp:Feuchte:
Aussen-T/F 1576 07-04-2020 23:31:17 12.8 C 30 %
1577 07-04-2020 23:41:17 12.8 C 30 %
1578 07-04-2020 23:51:17 12.3 C 31 %
1579 08-04-2020 00:01:17 11.7 C 33 %
1580 08-04-2020 00:11:17 11.7 C 33 %
1581 08-04-2020 00:21:17 11.5 C 33 %
1582 08-04-2020 00:31:17 11.5 C 33 %
1583 08-04-2020 00:41:17 11.2 C 34 %
1584 08-04-2020 00:51:18 10.8 C 35 %
1585 08-04-2020 01:01:17 10.8 C 36 %
1586 08-04-2020 01:11:17 10.9 C 35 %
1587 08-04-2020 01:21:17 10.4 C 36 %
1588 08-04-2020 01:31:18 10.2 C 36 %
1589 08-04-2020 01:41:18 9.9 C 37 %
1590 08-04-2020 01:51:17 9.6 C 38 %
1591 08-04-2020 02:01:18 9.2 C 38 %
1592 08-04-2020 02:11:18 8.7 C 39 %
1593 08-04-2020 02:21:17 8.5 C 40 %
1594 08-04-2020 02:31:17 8.2 C 40 %
1595 08-04-2020 02:41:18 8 C 40 %
1596 08-04-2020 02:51:17 7.7 C 41 %
1597 08-04-2020 03:01:18 7.4 C 41 %
1598 08-04-2020 03:11:18 7.1 C 41 %
1599 08-04-2020 03:21:17 7.1 C 42 %
1600 08-04-2020 03:31:17 7.1 C 42 %
Sensor: Nr:Datum:Temp:Feuchte:
Aussen-T/F 1601 08-04-2020 03:41:17 6.8 C 43 %
1602 08-04-2020 03:51:17 6.7 C 43 %
1603 08-04-2020 04:01:17 6.6 C 44 %
1604 08-04-2020 04:11:18 6.7 C 44 %
1605 08-04-2020 04:21:17 6.3 C 44 %
1606 08-04-2020 04:31:17 6.3 C 45 %
1607 08-04-2020 04:41:17 6.4 C 45 %
1608 08-04-2020 04:51:17 6.3 C 45 %
1609 08-04-2020 05:01:18 6.1 C 44 %
1610 08-04-2020 05:11:18 5.9 C 45 %
1611 08-04-2020 05:21:17 5.6 C 45 %
1612 08-04-2020 05:31:17 5.4 C 45 %
1613 08-04-2020 05:41:18 5.4 C 45 %
1614 08-04-2020 05:51:17 5.4 C 46 %
1615 08-04-2020 06:01:17 5.3 C 46 %
1616 08-04-2020 06:11:17 5.4 C 46 %
1617 08-04-2020 06:21:17 5.3 C 46 %
1618 08-04-2020 06:31:17 5.3 C 46 %
1619 08-04-2020 06:41:17 5.1 C 46 %
1620 08-04-2020 06:51:18 5 C 46 %
1621 08-04-2020 07:01:18 5 C 46 %
1622 08-04-2020 07:11:18 5.1 C 46 %
1623 08-04-2020 07:21:17 5.2 C 46 %
1624 08-04-2020 07:31:17 5.3 C 46 %
1625 08-04-2020 07:41:17 5.4 C 46 %
Sensor: Nr:Datum:Temp:Feuchte:
Aussen-T/F 1626 08-04-2020 07:51:17 5.8 C 46 %
1627 08-04-2020 08:01:17 5.7 C 46 %
1628 08-04-2020 08:11:17 6 C 46 %
1629 08-04-2020 08:21:17 6.3 C 46 %
1630 08-04-2020 08:31:18 6.3 C 46 %
1631 08-04-2020 08:41:18 6.5 C 46 %
1632 08-04-2020 08:51:18 6.7 C 46 %
1633 08-04-2020 09:01:18 7 C 45 %
1634 08-04-2020 09:11:18 7.1 C 45 %
1635 08-04-2020 09:21:17 7.6 C 45 %
1636 08-04-2020 09:31:17 7.9 C 45 %
1637 08-04-2020 09:41:17 8.3 C 45 %
1638 08-04-2020 09:51:17 8.7 C 44 %
1639 08-04-2020 10:01:17 9.1 C 43 %
1640 08-04-2020 10:11:17 9.7 C 43 %
1641 08-04-2020 10:21:17 10.2 C 41 %
1642 08-04-2020 10:31:18 11 C 40 %
1643 08-04-2020 10:41:18 11.8 C 39 %
1644 08-04-2020 10:51:18 12.6 C 38 %
1645 08-04-2020 11:01:18 13.7 C 36 %
1646 08-04-2020 11:11:18 14.5 C 35 %
1647 08-04-2020 11:21:17 15.5 C 34 %
1648 08-04-2020 11:31:18 16.2 C 32 %
1649 08-04-2020 11:41:18 17.6 C 27 %
1650 08-04-2020 11:51:17 18.6 C 25 %
Sensor: Nr:Datum:Temp:Feuchte:
Aussen-T/F 1651 08-04-2020 12:01:18 19.2 C 22 %
1652 08-04-2020 12:11:18 20.1 C 21 %
1653 08-04-2020 12:21:17 21.2 C 20 %
1654 08-04-2020 12:31:17 22.4 C 20 %
1655 08-04-2020 12:41:17 22.9 C 20 %
1656 08-04-2020 12:51:17 21.8 C 20 %
1657 08-04-2020 13:01:18 22.9 C 20 %
1658 08-04-2020 13:11:18 22.4 C 20 %
1659 08-04-2020 13:21:17 22.1 C 20 %
1660 08-04-2020 13:31:18 22.3 C 20 %
1661 08-04-2020 13:41:18 23.3 C 20 %
1662 08-04-2020 13:51:17 22.6 C 20 %
1663 08-04-2020 14:01:18 23 C 20 %
1664 08-04-2020 14:11:18 23.7 C 20 %
1665 08-04-2020 14:21:17 24.8 C 20 %
1666 08-04-2020 14:31:18 28.3 C 20 %
1667 08-04-2020 14:41:18 28.9 C 20 %
1668 08-04-2020 14:51:17 28.7 C 20 %
1669 08-04-2020 15:01:17 28.7 C 20 %
1670 08-04-2020 15:11:17 30.1 C 20 %
1671 08-04-2020 15:21:18 29.3 C 20 %
1672 08-04-2020 15:31:17 29.5 C 20 %
1673 08-04-2020 15:41:17 29.1 C 20 %
1674 08-04-2020 15:51:17 32.2 C 20 %
1675 08-04-2020 16:01:17 31.1 C 20 %
Sensor: Nr:Datum:Temp:Feuchte:
Aussen-T/F 1676 08-04-2020 16:11:17 29.7 C 20 %
1677 08-04-2020 16:21:18 30.7 C 20 %
1678 08-04-2020 16:31:17 29 C 20 %
1679 08-04-2020 16:41:17 32.6 C 20 %
1680 08-04-2020 16:51:17 29.7 C 20 %
1681 08-04-2020 17:01:17 29.4 C 20 %
1682 08-04-2020 17:11:17 29.7 C 20 %
1683 08-04-2020 17:21:17 30.1 C 20 %
1684 08-04-2020 17:31:17 30.1 C 20 %
1685 08-04-2020 17:41:17 29 C 20 %
1686 08-04-2020 17:51:17 28.1 C 20 %
1687 08-04-2020 18:01:17 26.6 C 20 %
1688 08-04-2020 18:11:17 25.2 C 20 %
1689 08-04-2020 18:21:17 24.7 C 20 %
1690 08-04-2020 18:31:18 24.3 C 20 %
1691 08-04-2020 18:41:18 24.1 C 20 %
1692 08-04-2020 18:51:17 23.8 C 20 %
1693 08-04-2020 19:01:17 23.2 C 20 %
1694 08-04-2020 19:11:17 22.6 C 20 %
1695 08-04-2020 19:21:17 21.4 C 20 %
1696 08-04-2020 19:31:17 20.1 C 20 %
1697 08-04-2020 19:41:17 19.7 C 20 %
1698 08-04-2020 19:51:17 19.2 C 20 %
1699 08-04-2020 20:01:17 18.5 C 20 %
1700 08-04-2020 20:11:17 18 C 20 %
Sensor: Nr:Datum:Temp:Feuchte:
Aussen-T/F 1701 08-04-2020 20:21:18 17.5 C 20 %
1702 08-04-2020 20:31:17 17 C 20 %
1703 08-04-2020 20:41:18 16.2 C 20 %
1704 08-04-2020 20:51:17 15.6 C 20 %
1705 08-04-2020 21:01:18 14.6 C 20 %
1706 08-04-2020 21:11:18 13.9 C 20 %
1707 08-04-2020 21:21:17 14.2 C 20 %
1708 08-04-2020 21:31:17 13.7 C 20 %
1709 08-04-2020 21:41:17 13.5 C 20 %
1710 08-04-2020 21:51:17 13.4 C 20 %
1711 08-04-2020 22:01:17 12.9 C 21 %
1712 08-04-2020 22:11:18 12.7 C 21 %
1713 08-04-2020 22:21:17 12.5 C 24 %
1714 08-04-2020 22:31:17 12.2 C 25 %
1715 08-04-2020 22:41:17 11.8 C 26 %
1716 08-04-2020 22:51:18 11.6 C 26 %
1717 08-04-2020 23:01:17 12 C 25 %
1718 08-04-2020 23:11:17 11.5 C 26 %
1719 08-04-2020 23:21:17 10.9 C 28 %
1720 08-04-2020 23:31:17 10.5 C 29 %
1721 08-04-2020 23:41:17 10.7 C 28 %
1722 08-04-2020 23:51:17 11.2 C 28 %
1723 09-04-2020 00:01:18 10.7 C 29 %
1724 09-04-2020 00:11:18 10.7 C 29 %
1725 09-04-2020 00:21:17 10.3 C 30 %
Sensor: Nr:Datum:Temp:Feuchte:
Aussen-T/F 1726 09-04-2020 00:31:18 10 C 30 %
1727 09-04-2020 00:41:18 10.5 C 30 %
1728 09-04-2020 00:51:17 10.5 C 30 %
1729 09-04-2020 01:01:17 10 C 30 %
1730 09-04-2020 01:11:17 9.6 C 31 %
1731 09-04-2020 01:21:17 9.2 C 32 %
1732 09-04-2020 01:31:17 9.9 C 33 %
1733 09-04-2020 01:41:17 9.3 C 33 %
1734 09-04-2020 01:51:17 9.6 C 33 %
1735 09-04-2020 02:01:17 8.8 C 35 %
1736 09-04-2020 02:11:17 9.1 C 34 %
1737 09-04-2020 02:21:18 9 C 34 %
1738 09-04-2020 02:31:18 8.8 C 35 %
1739 09-04-2020 02:41:18 8.7 C 35 %
1740 09-04-2020 02:51:17 8.8 C 35 %
1741 09-04-2020 03:01:17 9.2 C 34 %
1742 09-04-2020 03:11:17 9.7 C 33 %
1743 09-04-2020 03:21:17 9.5 C 33 %
1744 09-04-2020 03:31:17 9.4 C 34 %
1745 09-04-2020 03:41:17 9.5 C 34 %
1746 09-04-2020 03:51:17 10.2 C 32 %
1747 09-04-2020 04:01:17 9.9 C 34 %
1748 09-04-2020 04:11:17 10.1 C 33 %
1749 09-04-2020 04:21:17 10 C 33 %
1750 09-04-2020 04:31:18 9.4 C 34 %
Sensor: Nr:Datum:Temp:Feuchte:
Aussen-T/F 1751 09-04-2020 04:41:18 9.3 C 35 %
1752 09-04-2020 04:51:17 8.9 C 35 %
1753 09-04-2020 05:01:17 8.7 C 36 %
1754 09-04-2020 05:11:17 8.6 C 35 %
1755 09-04-2020 05:21:17 8.5 C 36 %
1756 09-04-2020 05:31:18 8.2 C 36 %
1757 09-04-2020 05:41:18 8.1 C 36 %
1758 09-04-2020 05:51:17 8.1 C 37 %
1759 09-04-2020 06:01:18 8.1 C 37 %
1760 09-04-2020 06:11:18 7.7 C 38 %
1761 09-04-2020 06:21:17 7.1 C 38 %
1762 09-04-2020 06:31:17 7 C 38 %
1763 09-04-2020 06:41:17 6.6 C 39 %
1764 09-04-2020 06:51:17 6.8 C 40 %
1765 09-04-2020 07:01:17 6.9 C 40 %
1766 09-04-2020 07:11:17 7.3 C 39 %
1767 09-04-2020 07:21:17 7.3 C 39 %
1768 09-04-2020 07:31:17 7 C 39 %
1769 09-04-2020 07:41:17 6.9 C 40 %
1770 09-04-2020 07:51:17 7 C 40 %
1771 09-04-2020 08:01:17 7 C 40 %
1772 09-04-2020 08:11:17 7.3 C 40 %
1773 09-04-2020 08:21:18 7.4 C 40 %
1774 09-04-2020 08:31:17 7.6 C 40 %
1775 09-04-2020 08:41:17 8 C 39 %
Sensor: Nr:Datum:Temp:Feuchte:
Aussen-T/F 1776 09-04-2020 08:51:17 8.3 C 39 %
1777 09-04-2020 09:01:17 8.5 C 38 %
1778 09-04-2020 09:11:17 8.7 C 39 %
1779 09-04-2020 09:21:17 9 C 38 %
1780 09-04-2020 09:31:17 9.3 C 38 %
1781 09-04-2020 09:41:17 9.8 C 37 %
1782 09-04-2020 09:51:17 10.4 C 36 %
1783 09-04-2020 10:01:17 10.8 C 36 %
1784 09-04-2020 10:11:17 11.2 C 35 %
1785 09-04-2020 10:21:17 11.8 C 35 %
1786 09-04-2020 10:31:17 12.6 C 34 %
1787 09-04-2020 10:41:17 13.3 C 32 %
1788 09-04-2020 10:51:18 14.6 C 31 %
1789 09-04-2020 11:01:17 15.4 C 30 %
1790 09-04-2020 11:11:18 16.2 C 28 %
1791 09-04-2020 11:21:17 17 C 25 %
1792 09-04-2020 11:31:17 17.9 C 23 %
1793 09-04-2020 11:41:17 18.5 C 21 %
1794 09-04-2020 11:51:18 19 C 20 %
1795 09-04-2020 12:01:17 19.3 C 20 %
1796 09-04-2020 12:11:17 19.8 C 20 %
1797 09-04-2020 12:21:17 20.7 C 20 %
1798 09-04-2020 12:31:17 22 C 20 %
1799 09-04-2020 12:41:17 23 C 20 %
1800 09-04-2020 12:51:18 22.3 C 20 %
Sensor: Nr:Datum:Temp:Feuchte:
Aussen-T/F 1801 09-04-2020 13:01:17 23.2 C 20 %
1802 09-04-2020 13:11:17 23.3 C 20 %
1803 09-04-2020 13:21:17 22.9 C 20 %
1804 09-04-2020 13:31:17 22.4 C 20 %
1805 09-04-2020 13:41:18 22.6 C 20 %
1806 09-04-2020 13:51:17 22.8 C 20 %
1807 09-04-2020 14:01:17 24.1 C 20 %
1808 09-04-2020 14:11:17 23.8 C 20 %
1809 09-04-2020 14:21:17 24.3 C 20 %
1810 09-04-2020 14:31:17 26.8 C 20 %
1811 09-04-2020 14:41:17 28 C 20 %
1812 09-04-2020 14:51:17 29.2 C 20 %
1813 09-04-2020 15:01:17 28.6 C 20 %
1814 09-04-2020 15:11:17 31.7 C 20 %
1815 09-04-2020 15:21:17 28.2 C 20 %
1816 09-04-2020 15:31:18 28.7 C 20 %
1817 09-04-2020 15:41:18 28.4 C 20 %
1818 09-04-2020 15:51:17 30.1 C 20 %
1819 09-04-2020 16:01:18 29.2 C 20 %
1820 09-04-2020 16:11:18 29.3 C 20 %
1821 09-04-2020 16:21:17 31.4 C 20 %
1822 09-04-2020 16:31:17 28.8 C 20 %
1823 09-04-2020 16:41:17 28.8 C 20 %
1824 09-04-2020 16:51:17 29.2 C 20 %
1825 09-04-2020 17:01:17 28.7 C 20 %
Sensor: Nr:Datum:Temp:Feuchte:
Aussen-T/F 1826 09-04-2020 17:11:17 28.4 C 20 %
1827 09-04-2020 17:21:17 29.8 C 20 %
1828 09-04-2020 17:31:17 28 C 20 %
1829 09-04-2020 17:41:17 27.6 C 20 %
1830 09-04-2020 17:51:18 27.1 C 20 %
1831 09-04-2020 18:01:18 25.2 C 20 %
1832 09-04-2020 18:11:18 24 C 20 %
1833 09-04-2020 18:21:17 23.7 C 20 %
1834 09-04-2020 18:31:17 23.4 C 20 %
1835 09-04-2020 18:41:17 23.5 C 20 %
1836 09-04-2020 18:51:17 22.9 C 20 %
1837 09-04-2020 19:01:18 22.7 C 20 %
1838 09-04-2020 19:11:18 22.4 C 20 %
1839 09-04-2020 19:21:17 21.8 C 20 %
1840 09-04-2020 19:31:17 21.1 C 20 %
1841 09-04-2020 19:41:17 20.6 C 20 %
1842 09-04-2020 19:51:17 20.1 C 20 %
1843 09-04-2020 20:01:17 19.7 C 20 %
1844 09-04-2020 20:11:17 17.9 C 20 %
1845 09-04-2020 20:21:17 16.6 C 20 %
1846 09-04-2020 20:31:17 16.6 C 20 %
1847 09-04-2020 20:41:17 16.1 C 21 %
1848 09-04-2020 20:51:17 16.4 C 20 %
1849 09-04-2020 21:01:17 16.2 C 20 %
1850 09-04-2020 21:11:17 16.4 C 20 %
Sensor: Nr:Datum:Temp:Feuchte:
Aussen-T/F 1851 09-04-2020 21:21:17 16.5 C 20 %
1852 09-04-2020 21:31:17 15.9 C 21 %
1853 09-04-2020 21:41:17 15.4 C 22 %
1854 09-04-2020 21:51:17 15.5 C 22 %
1855 09-04-2020 22:01:17 15.5 C 22 %
1856 09-04-2020 22:11:17 15.2 C 22 %
1857 09-04-2020 22:21:17 15.1 C 22 %
1858 09-04-2020 22:31:18 14.8 C 24 %
1859 09-04-2020 22:41:18 14.6 C 25 %
1860 09-04-2020 22:51:17 14.3 C 25 %
1861 09-04-2020 23:01:18 14.2 C 25 %
1862 09-04-2020 23:11:18 14.2 C 25 %
1863 09-04-2020 23:21:17 13.6 C 26 %
1864 09-04-2020 23:31:17 13.8 C 26 %
1865 09-04-2020 23:41:18 13.7 C 26 %
1866 09-04-2020 23:51:17 12.7 C 28 %
1867 10-04-2020 00:01:17 12.7 C 29 %
1868 10-04-2020 00:11:17 11.7 C 31 %
1869 10-04-2020 00:21:18 11.8 C 31 %
1870 10-04-2020 00:31:18 11.1 C 32 %
1871 10-04-2020 00:41:18 10.7 C 34 %
1872 10-04-2020 00:51:17 10.5 C 34 %
1873 10-04-2020 01:01:17 10.1 C 35 %
1874 10-04-2020 01:11:17 10 C 35 %
1875 10-04-2020 01:21:17 9.7 C 36 %
Sensor: Nr:Datum:Temp:Feuchte:
Aussen-T/F 1876 10-04-2020 01:31:17 9.6 C 36 %
1877 10-04-2020 01:41:17 9.5 C 36 %
1878 10-04-2020 01:51:17 9 C 36 %
1879 10-04-2020 02:01:17 9.2 C 36 %
1880 10-04-2020 02:11:17 8.9 C 37 %
1881 10-04-2020 02:21:18 8.7 C 37 %
1882 10-04-2020 02:31:18 8.6 C 37 %
1883 10-04-2020 02:41:18 8.3 C 38 %
1884 10-04-2020 02:51:17 8.2 C 38 %
1885 10-04-2020 03:01:18 8.3 C 38 %
1886 10-04-2020 03:11:18 7.9 C 39 %
1887 10-04-2020 03:21:17 7.6 C 39 %
1888 10-04-2020 03:31:17 7.4 C 40 %
1889 10-04-2020 03:41:17 7.2 C 40 %
1890 10-04-2020 03:51:17 7.1 C 40 %
1891 10-04-2020 04:01:18 7 C 40 %
1892 10-04-2020 04:11:18 6.8 C 41 %
1893 10-04-2020 04:21:17 6.9 C 41 %
1894 10-04-2020 04:31:17 6.6 C 41 %
1895 10-04-2020 04:41:17 6.6 C 41 %
1896 10-04-2020 04:51:18 6.6 C 41 %
1897 10-04-2020 05:01:17 6.3 C 41 %
1898 10-04-2020 05:11:17 6.3 C 42 %
1899 10-04-2020 05:21:18 6.4 C 42 %
1900 10-04-2020 05:31:17 6.2 C 42 %
Sensor: Nr:Datum:Temp:Feuchte:
Aussen-T/F 1901 10-04-2020 05:41:17 5.9 C 43 %
1902 10-04-2020 05:51:17 5.7 C 43 %
1903 10-04-2020 06:01:17 5.8 C 44 %
1904 10-04-2020 06:11:17 5.8 C 44 %
1905 10-04-2020 06:21:17 5.6 C 44 %
1906 10-04-2020 06:31:18 5.4 C 44 %
1907 10-04-2020 06:41:18 5.4 C 44 %
1908 10-04-2020 06:51:17 5.4 C 44 %
1909 10-04-2020 07:01:18 5.3 C 44 %
1910 10-04-2020 07:11:18 5.3 C 45 %
1911 10-04-2020 07:21:17 5.3 C 45 %
1912 10-04-2020 07:31:18 5.3 C 45 %
1913 10-04-2020 07:41:18 5.3 C 45 %
1914 10-04-2020 07:51:17 5.9 C 46 %
1915 10-04-2020 08:01:17 5.8 C 45 %
1916 10-04-2020 08:11:17 5.8 C 45 %
1917 10-04-2020 08:21:17 6 C 44 %
1918 10-04-2020 08:31:17 6.1 C 45 %
1919 10-04-2020 08:41:17 6.2 C 44 %
1920 10-04-2020 08:51:17 6.5 C 45 %
1921 10-04-2020 09:01:17 6.9 C 45 %
1922 10-04-2020 09:11:17 7.8 C 42 %
1923 10-04-2020 09:21:18 8.2 C 41 %
1924 10-04-2020 09:31:18 8.5 C 40 %
1925 10-04-2020 09:41:18 9.1 C 39 %
Sensor: Nr:Datum:Temp:Feuchte:
Aussen-T/F 1926 10-04-2020 09:51:17 9.4 C 39 %
1927 10-04-2020 10:01:17 9.9 C 38 %
1928 10-04-2020 10:11:17 10.2 C 37 %
1929 10-04-2020 10:21:17 10.8 C 37 %
1930 10-04-2020 10:31:17 11.6 C 36 %
1931 10-04-2020 10:41:17 12.3 C 35 %
1932 10-04-2020 10:51:17 13.4 C 33 %
1933 10-04-2020 11:01:17 14 C 31 %
1934 10-04-2020 11:11:17 14.7 C 31 %
1935 10-04-2020 11:21:17 15.9 C 28 %
1936 10-04-2020 11:31:17 16.3 C 27 %
1937 10-04-2020 11:41:17 16.8 C 26 %
1938 10-04-2020 11:51:17 17.5 C 25 %
1939 10-04-2020 12:01:17 17.9 C 24 %
1940 10-04-2020 12:11:17 18.4 C 21 %
1941 10-04-2020 12:21:17 19.2 C 20 %
1942 10-04-2020 12:31:17 19.7 C 20 %
1943 10-04-2020 12:41:17 20.6 C 20 %
1944 10-04-2020 12:51:17 20.4 C 20 %
1945 10-04-2020 13:01:17 20.8 C 20 %
1946 10-04-2020 13:11:17 20.2 C 20 %
1947 10-04-2020 13:21:17 20.4 C 20 %
1948 10-04-2020 13:31:17 20.2 C 20 %
1949 10-04-2020 13:41:17 20.4 C 20 %
1950 10-04-2020 13:51:17 20.7 C 20 %
Sensor: Nr:Datum:Temp:Feuchte:
Aussen-T/F 1951 10-04-2020 14:01:17 21.7 C 20 %
1952 10-04-2020 14:11:17 21.6 C 20 %
1953 10-04-2020 14:21:18 22 C 20 %
1954 10-04-2020 14:31:18 25.1 C 20 %
1955 10-04-2020 14:41:18 29.1 C 20 %
1956 10-04-2020 14:51:17 27.6 C 20 %
1957 10-04-2020 15:01:17 27.9 C 20 %
1958 10-04-2020 15:11:17 31.6 C 20 %
1959 10-04-2020 15:21:17 30.1 C 20 %
1960 10-04-2020 15:31:17 30.5 C 20 %
1961 10-04-2020 15:41:17 30.2 C 20 %
1962 10-04-2020 15:51:17 29.1 C 20 %
1963 10-04-2020 16:01:17 29.8 C 20 %
1964 10-04-2020 16:11:17 30.3 C 20 %
1965 10-04-2020 16:21:17 28.8 C 20 %
1966 10-04-2020 16:31:17 29.1 C 20 %
1967 10-04-2020 16:41:17 28.3 C 20 %
1968 10-04-2020 16:51:17 30.8 C 20 %
1969 10-04-2020 17:01:17 29.6 C 20 %
1970 10-04-2020 17:11:17 28.8 C 20 %
1971 10-04-2020 17:21:17 26.8 C 20 %
1972 10-04-2020 17:31:17 28.5 C 20 %
1973 10-04-2020 17:41:17 27.6 C 20 %
1974 10-04-2020 17:51:18 26.4 C 20 %
1975 10-04-2020 18:01:17 23.6 C 20 %
Sensor: Nr:Datum:Temp:Feuchte:
Aussen-T/F 1976 10-04-2020 18:11:17 23 C 20 %
1977 10-04-2020 18:21:18 22.5 C 20 %
1978 10-04-2020 18:31:18 22.2 C 20 %
1979 10-04-2020 18:41:18 22.3 C 20 %
1980 10-04-2020 18:51:17 22 C 20 %
1981 10-04-2020 19:01:17 21.6 C 20 %
1982 10-04-2020 19:11:17 21.4 C 20 %
1983 10-04-2020 19:21:17 21.1 C 20 %
1984 10-04-2020 19:31:17 20.9 C 20 %
1985 10-04-2020 19:41:17 20.7 C 20 %
1986 10-04-2020 19:51:18 20.2 C 20 %
1987 10-04-2020 20:01:17 19.6 C 20 %
1988 10-04-2020 20:11:17 18.5 C 20 %
1989 10-04-2020 20:21:18 16 C 20 %
1990 10-04-2020 20:31:17 15.9 C 20 %
1991 10-04-2020 20:41:17 15.3 C 20 %
1992 10-04-2020 20:51:17 15 C 20 %
1993 10-04-2020 21:01:17 15.3 C 20 %
1994 10-04-2020 21:11:17 14.7 C 20 %
1995 10-04-2020 21:21:17 14.3 C 21 %
1996 10-04-2020 21:31:17 13.8 C 21 %
1997 10-04-2020 21:41:17 14.2 C 21 %
1998 10-04-2020 21:51:17 14.3 C 21 %
1999 10-04-2020 22:01:18 14.5 C 21 %
2000 10-04-2020 22:11:18 14.9 C 20 %
Sensor: Nr:Datum:Temp:Feuchte:
Aussen-T/F 2001 10-04-2020 22:21:18 14.5 C 22 %
2002 10-04-2020 22:31:17 14.5 C 22 %
2003 10-04-2020 22:41:17 13.9 C 24 %
2004 10-04-2020 22:51:17 13.1 C 25 %
2005 10-04-2020 23:01:17 12.7 C 25 %
2006 10-04-2020 23:11:17 12.8 C 25 %
2007 10-04-2020 23:21:17 12 C 26 %
2008 10-04-2020 23:31:17 12.2 C 26 %
2009 10-04-2020 23:41:17 11.2 C 28 %
2010 10-04-2020 23:51:17 11.1 C 29 %
2011 11-04-2020 00:01:18 10.5 C 30 %
2012 11-04-2020 00:11:18 10.8 C 30 %
2013 11-04-2020 00:21:17 10.8 C 30 %
2014 11-04-2020 00:31:17 10.1 C 31 %
2015 11-04-2020 00:41:18 9.9 C 32 %
2016 11-04-2020 00:51:18 10 C 31 %
2017 11-04-2020 01:01:17 9.6 C 31 %
2018 11-04-2020 01:11:17 9.6 C 32 %
2019 11-04-2020 01:21:17 9.1 C 32 %
2020 11-04-2020 01:31:18 9.2 C 32 %
2021 11-04-2020 01:41:18 9 C 32 %
2022 11-04-2020 01:51:18 8.7 C 32 %
2023 11-04-2020 02:01:17 8.4 C 32 %
2024 11-04-2020 02:11:17 8.2 C 32 %
2025 11-04-2020 02:21:18 8.1 C 32 %
Sensor: Nr:Datum:Temp:Feuchte:
Aussen-T/F 2026 11-04-2020 02:31:17 8.3 C 32 %
2027 11-04-2020 02:41:17 8.1 C 32 %
2028 11-04-2020 02:51:17 7.9 C 33 %
2029 11-04-2020 03:01:17 8.5 C 31 %
2030 11-04-2020 03:11:17 8.7 C 31 %
2031 11-04-2020 03:21:17 8.8 C 30 %
2032 11-04-2020 03:31:18 8.8 C 30 %
2033 11-04-2020 03:41:18 8.2 C 30 %
2034 11-04-2020 03:51:17 8.6 C 30 %
2035 11-04-2020 04:01:17 8.3 C 30 %
2036 11-04-2020 04:11:17 8.3 C 30 %
2037 11-04-2020 04:21:17 7.7 C 30 %
2038 11-04-2020 04:31:17 7.4 C 30 %
2039 11-04-2020 04:41:17 7.5 C 30 %
2040 11-04-2020 04:51:17 7.6 C 29 %
2041 11-04-2020 05:01:17 7.4 C 29 %
2042 11-04-2020 05:11:17 6.9 C 30 %
2043 11-04-2020 05:21:17 6.8 C 30 %
2044 11-04-2020 05:31:18 6.1 C 31 %
2045 11-04-2020 05:41:18 5.8 C 32 %
2046 11-04-2020 05:51:17 5.7 C 32 %
2047 11-04-2020 06:01:17 5.6 C 32 %
2048 11-04-2020 06:11:17 5 C 33 %
2049 11-04-2020 06:21:17 4.9 C 35 %
2050 11-04-2020 06:31:18 5 C 33 %
Sensor: Nr:Datum:Temp:Feuchte:
Aussen-T/F 2051 11-04-2020 06:41:18 4.6 C 35 %
2052 11-04-2020 06:51:17 4.6 C 35 %
2053 11-04-2020 07:01:18 4.4 C 35 %
2054 11-04-2020 07:11:18 4.5 C 35 %
2055 11-04-2020 07:21:17 4.4 C 35 %
2056 11-04-2020 07:31:18 4.4 C 36 %
2057 11-04-2020 07:41:18 4.7 C 35 %
2058 11-04-2020 07:51:17 5 C 34 %
2059 11-04-2020 08:01:18 5 C 34 %
2060 11-04-2020 08:11:18 5 C 35 %
2061 11-04-2020 08:21:18 5.1 C 35 %
2062 11-04-2020 08:31:18 5.5 C 34 %
2063 11-04-2020 08:41:18 6 C 33 %
2064 11-04-2020 08:51:18 6.4 C 32 %
2065 11-04-2020 09:01:17 6.5 C 33 %
2066 11-04-2020 09:11:18 7.1 C 31 %
2067 11-04-2020 09:21:17 7.3 C 31 %
2068 11-04-2020 09:31:18 7.8 C 31 %
2069 11-04-2020 09:41:18 8.2 C 30 %
2070 11-04-2020 09:51:17 8.6 C 30 %
2071 11-04-2020 10:01:17 9.1 C 29 %
2072 11-04-2020 10:11:17 9.5 C 29 %
2073 11-04-2020 10:21:17 10.2 C 26 %
2074 11-04-2020 10:31:17 10.7 C 27 %
2075 11-04-2020 10:41:17 11.5 C 25 %
Sensor: Nr:Datum:Temp:Feuchte:
Aussen-T/F 2076 11-04-2020 10:51:17 12.3 C 21 %
2077 11-04-2020 11:01:18 12.9 C 20 %
2078 11-04-2020 11:11:18 13.7 C 20 %
2079 11-04-2020 11:21:17 14.5 C 20 %
2080 11-04-2020 11:31:17 15.3 C 20 %
2081 11-04-2020 11:41:18 16 C 20 %
2082 11-04-2020 11:51:17 16.5 C 20 %
2083 11-04-2020 12:01:17 17.2 C 20 %
2084 11-04-2020 12:11:17 17.5 C 20 %
2085 11-04-2020 12:21:18 18.1 C 20 %
2086 11-04-2020 12:31:17 19.1 C 20 %
2087 11-04-2020 12:41:17 19.4 C 20 %
2088 11-04-2020 12:51:17 19.5 C 20 %
2089 11-04-2020 13:01:17 19.6 C 20 %
2090 11-04-2020 13:11:17 19.5 C 20 %
2091 11-04-2020 13:21:17 19.5 C 20 %
2092 11-04-2020 13:31:17 19.6 C 20 %
2093 11-04-2020 13:41:17 19.9 C 20 %
2094 11-04-2020 13:51:17 20.2 C 20 %
2095 11-04-2020 14:01:18 20.9 C 20 %
2096 11-04-2020 14:11:18 21.3 C 20 %
2097 11-04-2020 14:21:17 21.5 C 20 %
2098 11-04-2020 14:31:17 24.4 C 20 %
2099 11-04-2020 14:41:17 27.5 C 20 %
2100 11-04-2020 14:51:18 27.4 C 20 %
Sensor: Nr:Datum:Temp:Feuchte:
Aussen-T/F 2101 11-04-2020 15:01:18 28.6 C 20 %
2102 11-04-2020 15:11:18 30.4 C 20 %
2103 11-04-2020 15:21:17 29.9 C 20 %
2104 11-04-2020 15:31:17 30.4 C 20 %
2105 11-04-2020 15:41:17 31.2 C 20 %
2106 11-04-2020 15:51:18 31.8 C 20 %
2107 11-04-2020 16:01:17 28.5 C 20 %
2108 11-04-2020 16:11:17 31.4 C 20 %
2109 11-04-2020 16:21:18 30.7 C 20 %
2110 11-04-2020 16:31:17 31.5 C 20 %
2111 11-04-2020 16:41:17 31.3 C 20 %
2112 11-04-2020 16:51:17 32.1 C 20 %
2113 11-04-2020 17:01:17 31.8 C 20 %
2114 11-04-2020 17:11:17 29.5 C 20 %
2115 11-04-2020 17:21:17 29.8 C 20 %
2116 11-04-2020 17:31:17 28.7 C 20 %
2117 11-04-2020 17:41:17 26.5 C 20 %
2118 11-04-2020 17:51:17 27.5 C 20 %
2119 11-04-2020 18:01:17 24.2 C 20 %
2120 11-04-2020 18:11:17 23.4 C 20 %
2121 11-04-2020 18:21:17 23.6 C 20 %
2122 11-04-2020 18:31:17 23.6 C 20 %
2123 11-04-2020 18:41:17 23.3 C 20 %
2124 11-04-2020 18:51:17 22.9 C 20 %
2125 11-04-2020 19:01:17 22.9 C 20 %
Sensor: Nr:Datum:Temp:Feuchte:
Aussen-T/F 2126 11-04-2020 19:11:17 22.7 C 20 %
2127 11-04-2020 19:21:18 22 C 20 %
2128 11-04-2020 19:31:17 21.7 C 20 %
2129 11-04-2020 19:41:17 21.2 C 20 %
2130 11-04-2020 19:51:17 18.9 C 20 %
2131 11-04-2020 20:01:17 18 C 20 %
2132 11-04-2020 20:11:17 17.1 C 20 %
2133 11-04-2020 20:21:17 16.6 C 20 %
2134 11-04-2020 20:31:17 16.5 C 20 %
2135 11-04-2020 20:41:17 16.5 C 20 %
2136 11-04-2020 20:51:17 16.2 C 20 %
2137 11-04-2020 21:01:18 16 C 20 %
2138 11-04-2020 21:11:18 15.5 C 20 %
2139 11-04-2020 21:21:18 15.4 C 20 %
2140 11-04-2020 21:31:17 15.1 C 20 %
2141 11-04-2020 21:41:17 14.8 C 20 %
2142 11-04-2020 21:51:17 14.5 C 20 %
2143 11-04-2020 22:01:17 14.3 C 20 %
2144 11-04-2020 22:11:17 14.4 C 20 %
2145 11-04-2020 22:21:17 14 C 20 %
2146 11-04-2020 22:31:18 14 C 21 %
2147 11-04-2020 22:41:18 14.4 C 21 %
2148 11-04-2020 22:51:17 14.4 C 22 %
2149 11-04-2020 23:01:17 13.7 C 23 %
2150 11-04-2020 23:11:17 13 C 24 %
Sensor: Nr:Datum:Temp:Feuchte:
Aussen-T/F 2151 11-04-2020 23:21:18 12.3 C 26 %
2152 11-04-2020 23:31:18 12.1 C 26 %
2153 11-04-2020 23:41:18 11.8 C 27 %
2154 11-04-2020 23:51:17 11.7 C 28 %
2155 12-04-2020 00:01:17 11.6 C 29 %
2156 12-04-2020 00:11:17 11.3 C 28 %
2157 12-04-2020 00:21:17 11.3 C 29 %
2158 12-04-2020 00:31:17 11.5 C 29 %
2159 12-04-2020 00:41:17 11.6 C 29 %
2160 12-04-2020 00:51:17 11.4 C 28 %
2161 12-04-2020 01:01:17 11.3 C 28 %
2162 12-04-2020 01:11:17 11 C 28 %
2163 12-04-2020 01:21:17 10.6 C 29 %
2164 12-04-2020 01:31:18 10.3 C 29 %
2165 12-04-2020 01:41:18 10.2 C 30 %
2166 12-04-2020 01:51:17 10.6 C 29 %
2167 12-04-2020 02:01:18 10.8 C 30 %
2168 12-04-2020 02:11:18 10.7 C 31 %
2169 12-04-2020 02:21:18 10.3 C 31 %
2170 12-04-2020 02:31:17 10.4 C 30 %
2171 12-04-2020 02:41:17 10.2 C 31 %
2172 12-04-2020 02:51:17 10.1 C 31 %
2173 12-04-2020 03:01:17 10.3 C 31 %
2174 12-04-2020 03:11:17 10.2 C 31 %
2175 12-04-2020 03:21:17 10.1 C 32 %
Sensor: Nr:Datum:Temp:Feuchte:
Aussen-T/F 2176 12-04-2020 03:31:17 10 C 32 %
2177 12-04-2020 03:41:18 9.9 C 33 %
2178 12-04-2020 03:51:17 10 C 32 %
2179 12-04-2020 04:01:17 9.8 C 33 %
2180 12-04-2020 04:11:17 9.7 C 33 %
2181 12-04-2020 04:21:17 8.9 C 35 %
2182 12-04-2020 04:31:17 8.8 C 34 %
2183 12-04-2020 04:41:17 8.9 C 35 %
2184 12-04-2020 04:51:17 8.5 C 35 %
2185 12-04-2020 05:01:18 8.2 C 36 %
2186 12-04-2020 05:11:18 8.4 C 36 %
2187 12-04-2020 05:21:17 8.5 C 36 %
2188 12-04-2020 05:31:17 8.2 C 36 %
2189 12-04-2020 05:41:17 8 C 36 %
2190 12-04-2020 05:51:17 7.6 C 37 %
2191 12-04-2020 06:01:17 7.7 C 37 %
2192 12-04-2020 06:11:17 7.5 C 38 %
2193 12-04-2020 06:21:17 7.2 C 38 %
2194 12-04-2020 06:31:17 7.1 C 39 %
2195 12-04-2020 06:41:17 7.2 C 39 %
2196 12-04-2020 06:51:17 7.3 C 39 %
2197 12-04-2020 07:01:17 6.9 C 39 %
2198 12-04-2020 07:11:17 6.7 C 40 %
2199 12-04-2020 07:21:17 6.5 C 40 %
2200 12-04-2020 07:31:17 6.7 C 40 %
Sensor: Nr:Datum:Temp:Feuchte:
Aussen-T/F 2201 12-04-2020 07:41:17 7.1 C 40 %
2202 12-04-2020 07:51:18 7 C 40 %
2203 12-04-2020 08:01:17 7.3 C 40 %
2204 12-04-2020 08:11:17 7.5 C 40 %
2205 12-04-2020 08:21:17 7.5 C 40 %
2206 12-04-2020 08:31:17 7.6 C 40 %
2207 12-04-2020 08:41:18 7.9 C 40 %
2208 12-04-2020 08:51:17 8.2 C 40 %
2209 12-04-2020 09:01:18 8.8 C 39 %
2210 12-04-2020 09:11:18 9.2 C 38 %
2211 12-04-2020 09:21:17 9.5 C 38 %
2212 12-04-2020 09:31:17 10 C 37 %
2213 12-04-2020 09:41:17 10.1 C 37 %
2214 12-04-2020 09:51:17 11 C 36 %
2215 12-04-2020 10:01:17 11.3 C 36 %
2216 12-04-2020 10:11:17 11.7 C 35 %
2217 12-04-2020 10:21:17 12.2 C 35 %
2218 12-04-2020 10:31:18 13.2 C 33 %
2219 12-04-2020 10:41:18 14.4 C 31 %
2220 12-04-2020 10:51:17 14.9 C 31 %
2221 12-04-2020 11:01:17 15.6 C 30 %
2222 12-04-2020 11:11:17 17 C 27 %
2223 12-04-2020 11:21:17 17.6 C 27 %
2224 12-04-2020 11:31:17 18 C 26 %
2225 12-04-2020 11:41:17 18.5 C 24 %
Sensor: Nr:Datum:Temp:Feuchte:
Aussen-T/F 2226 12-04-2020 11:51:17 19.1 C 20 %
2227 12-04-2020 12:01:17 20.6 C 20 %
2228 12-04-2020 12:11:17 20.8 C 20 %
2229 12-04-2020 12:21:17 21.7 C 20 %
2230 12-04-2020 12:31:17 21.6 C 20 %
2231 12-04-2020 12:41:17 21.8 C 20 %
2232 12-04-2020 12:51:18 21.2 C 20 %
2233 12-04-2020 13:01:17 21.7 C 20 %
2234 12-04-2020 13:11:17 21.7 C 20 %
2235 12-04-2020 13:21:17 22 C 20 %
2236 12-04-2020 13:31:17 21.7 C 20 %
2237 12-04-2020 13:41:17 22 C 20 %
2238 12-04-2020 13:51:17 22.1 C 20 %
2239 12-04-2020 14:01:17 22.4 C 20 %
2240 12-04-2020 14:11:17 22.8 C 20 %
2241 12-04-2020 14:21:17 22.9 C 20 %
2242 12-04-2020 14:31:17 26.2 C 20 %
2243 12-04-2020 14:41:17 28.6 C 20 %
2244 12-04-2020 14:51:17 28.5 C 20 %
2245 12-04-2020 15:01:17 30.3 C 20 %
2246 12-04-2020 15:11:17 27.7 C 20 %
2247 12-04-2020 15:21:17 27.9 C 20 %
2248 12-04-2020 15:31:18 30.7 C 20 %
2249 12-04-2020 15:41:18 30.5 C 20 %
2250 12-04-2020 15:51:18 28.3 C 20 %
Sensor: Nr:Datum:Temp:Feuchte:
Aussen-T/F 2251 12-04-2020 16:01:17 30.5 C 20 %
2252 12-04-2020 16:11:17 33.2 C 20 %
2253 12-04-2020 16:21:17 32.8 C 20 %
2254 12-04-2020 16:31:17 27.8 C 20 %
2255 12-04-2020 16:41:17 26 C 20 %
2256 12-04-2020 16:51:17 24.7 C 20 %
2257 12-04-2020 17:01:17 29.6 C 20 %
2258 12-04-2020 17:11:18 29.6 C 20 %
2259 12-04-2020 17:21:17 29.5 C 20 %
2260 12-04-2020 17:31:17 26.5 C 20 %
2261 12-04-2020 17:41:17 29.3 C 20 %
2262 12-04-2020 17:51:17 29.8 C 20 %
2263 12-04-2020 18:01:18 24.6 C 20 %
2264 12-04-2020 18:11:18 24 C 20 %
2265 12-04-2020 18:21:17 24 C 20 %
2266 12-04-2020 18:31:17 23.6 C 20 %
2267 12-04-2020 18:41:17 22.9 C 20 %
2268 12-04-2020 18:51:17 22.4 C 20 %
2269 12-04-2020 19:01:17 22.5 C 20 %
2270 12-04-2020 19:11:17 22.4 C 20 %
2271 12-04-2020 19:21:17 22 C 20 %
2272 12-04-2020 19:31:17 21.6 C 20 %
2273 12-04-2020 19:41:17 20.3 C 20 %
2274 12-04-2020 19:51:18 19.1 C 20 %
2275 12-04-2020 20:01:18 18.2 C 20 %
Sensor: Nr:Datum:Temp:Feuchte:
Aussen-T/F 2276 12-04-2020 20:11:18 17.9 C 20 %
2277 12-04-2020 20:21:17 17.5 C 20 %
2278 12-04-2020 20:31:18 17 C 20 %
2279 12-04-2020 20:41:18 16.8 C 20 %
2280 12-04-2020 20:51:17 16 C 20 %
2281 12-04-2020 21:01:17 15.5 C 20 %
2282 12-04-2020 21:11:17 14 C 20 %
2283 12-04-2020 21:22:17 13.5 C 20 %
2284 12-04-2020 21:31:17 13.2 C 21 %
2285 12-04-2020 21:41:17 13.2 C 20 %
2286 12-04-2020 21:51:17 13.3 C 21 %
2287 12-04-2020 22:01:17 13.4 C 20 %
2288 12-04-2020 22:11:17 13 C 21 %
2289 12-04-2020 22:22:17 12.9 C 22 %
2290 12-04-2020 22:32:17 12.2 C 23 %
2291 12-04-2020 22:42:17 11.8 C 26 %
2292 12-04-2020 22:51:17 11.7 C 25 %
2293 12-04-2020 23:01:18 11.5 C 25 %
2294 12-04-2020 23:11:18 11.1 C 26 %
2295 12-04-2020 23:21:17 10.9 C 27 %
2296 12-04-2020 23:32:17 10.7 C 28 %
2297 12-04-2020 23:41:17 10.3 C 28 %
2298 12-04-2020 23:52:17 10.5 C 28 %
2299 13-04-2020 00:01:17 10.6 C 28 %
2300 13-04-2020 00:11:17 10.4 C 29 %
Sensor: Nr:Datum:Temp:Feuchte:
Aussen-T/F 2301 13-04-2020 00:21:18 10.4 C 30 %
2302 13-04-2020 00:31:17 10.1 C 30 %
2303 13-04-2020 00:41:17 9.9 C 31 %
2304 13-04-2020 00:51:17 9.7 C 31 %
2305 13-04-2020 01:01:18 9.5 C 31 %
2306 13-04-2020 01:11:18 9.4 C 32 %
2307 13-04-2020 01:21:18 9 C 32 %
2308 13-04-2020 01:31:18 9.3 C 32 %
2309 13-04-2020 01:41:18 9.2 C 32 %
2310 13-04-2020 01:51:18 9.3 C 32 %
2311 13-04-2020 02:02:17 9.2 C 32 %
2312 13-04-2020 02:12:17 9.2 C 32 %
2313 13-04-2020 02:21:17 9.1 C 32 %
2314 13-04-2020 02:31:18 9 C 33 %
2315 13-04-2020 02:41:18 8.6 C 34 %
2316 13-04-2020 02:51:17 8.6 C 34 %
2317 13-04-2020 03:01:18 8.4 C 34 %
2318 13-04-2020 03:11:18 8.2 C 35 %
2319 13-04-2020 03:22:17 7.9 C 35 %
2320 13-04-2020 03:32:17 8.1 C 35 %
2321 13-04-2020 03:42:17 8 C 35 %
2322 13-04-2020 03:51:17 7.8 C 35 %
2323 13-04-2020 04:02:17 7.5 C 36 %
2324 13-04-2020 04:12:17 7.2 C 36 %
2325 13-04-2020 04:21:18 6.8 C 38 %
Sensor: Nr:Datum:Temp:Feuchte:
Aussen-T/F 2326 13-04-2020 04:32:17 6.8 C 38 %
2327 13-04-2020 04:41:17 6.7 C 39 %
2328 13-04-2020 04:52:17 7.7 C 37 %
2329 13-04-2020 05:02:17 7.3 C 37 %
2330 13-04-2020 05:12:17 7.5 C 38 %
2331 13-04-2020 05:22:17 7.8 C 38 %
2332 13-04-2020 05:32:17 7.6 C 37 %
2333 13-04-2020 05:42:17 7.4 C 37 %
2334 13-04-2020 05:52:17 7.2 C 38 %
2335 13-04-2020 06:02:17 7.2 C 38 %
2336 13-04-2020 06:12:17 6.6 C 39 %
2337 13-04-2020 06:22:17 6.2 C 39 %
2338 13-04-2020 06:32:17 6.3 C 40 %
2339 13-04-2020 06:42:17 6.3 C 40 %
2340 13-04-2020 06:52:17 6.4 C 40 %
2341 13-04-2020 07:02:17 6.5 C 40 %
2342 13-04-2020 07:12:17 7.2 C 39 %
2343 13-04-2020 07:22:17 7.6 C 38 %
2344 13-04-2020 07:32:17 8.1 C 37 %
2345 13-04-2020 07:42:17 8.3 C 37 %
2346 13-04-2020 07:52:17 8.5 C 37 %
2347 13-04-2020 08:02:17 8.6 C 36 %
2348 13-04-2020 08:12:18 8.9 C 36 %
2349 13-04-2020 08:22:17 9 C 36 %
2350 13-04-2020 08:32:17 9.4 C 36 %
Sensor: Nr:Datum:Temp:Feuchte:
Aussen-T/F 2351 13-04-2020 08:42:17 10.7 C 37 %
2352 13-04-2020 08:52:17 11.1 C 36 %
2353 13-04-2020 09:02:17 10.7 C 37 %
2354 13-04-2020 09:12:17 10.7 C 37 %
2355 13-04-2020 09:22:17 11 C 36 %
2356 13-04-2020 09:32:17 11.5 C 36 %
2357 13-04-2020 09:42:17 11.9 C 35 %
2358 13-04-2020 09:52:17 11.4 C 35 %
2359 13-04-2020 10:02:17 11.2 C 35 %
2360 13-04-2020 10:12:17 11.1 C 35 %
2361 13-04-2020 10:22:17 11 C 34 %
2362 13-04-2020 10:32:17 11.1 C 34 %
2363 13-04-2020 10:42:17 11.3 C 34 %
2364 13-04-2020 10:52:17 11.6 C 33 %
2365 13-04-2020 11:02:17 11.6 C 33 %
2366 13-04-2020 11:12:17 11.4 C 32 %
2367 13-04-2020 11:22:17 11.8 C 32 %
2368 13-04-2020 11:32:17 11.5 C 31 %
2369 13-04-2020 11:42:17 11.1 C 31 %
2370 13-04-2020 11:52:16 10.8 C 32 %
2371 13-04-2020 12:02:17 10.9 C 32 %
2372 13-04-2020 12:12:17 10.5 C 33 %
2373 13-04-2020 12:22:17 10.4 C 33 %
2374 13-04-2020 12:32:17 10.7 C 32 %
2375 13-04-2020 12:42:17 11.1 C 32 %
Sensor: Nr:Datum:Temp:Feuchte:
Aussen-T/F 2376 13-04-2020 12:52:17 10.6 C 32 %
2377 13-04-2020 13:02:16 10.3 C 32 %
2378 13-04-2020 13:12:16 10.2 C 32 %
2379 13-04-2020 13:22:17 10.2 C 32 %
2380 13-04-2020 13:32:17 9.6 C 33 %
2381 13-04-2020 13:42:17 8.6 C 35 %
2382 13-04-2020 13:52:17 7.6 C 39 %
2383 13-04-2020 14:02:17 7.5 C 40 %
2384 13-04-2020 14:12:17 7.7 C 38 %
2385 13-04-2020 14:22:16 8.7 C 36 %
2386 13-04-2020 14:32:17 9.2 C 35 %
2387 13-04-2020 14:42:17 9.6 C 34 %
2388 13-04-2020 14:52:16 10.9 C 31 %
2389 13-04-2020 15:02:17 12.4 C 26 %
2390 13-04-2020 15:12:17 12.3 C 25 %
2391 13-04-2020 15:22:17 12.7 C 20 %
2392 13-04-2020 15:32:17 11.8 C 20 %
2393 13-04-2020 15:42:17 12.4 C 20 %
2394 13-04-2020 15:52:16 13.2 C 20 %
2395 13-04-2020 16:02:16 12.2 C 20 %
2396 13-04-2020 16:12:16 14.4 C 20 %
2397 13-04-2020 16:22:16 15 C 20 %
2398 13-04-2020 16:32:17 16 C 20 %
2399 13-04-2020 16:42:17 14.9 C 20 %
2400 13-04-2020 16:52:16 16.5 C 20 %
Sensor: Nr:Datum:Temp:Feuchte:
Aussen-T/F 2401 13-04-2020 17:02:17 15.2 C 20 %
2402 13-04-2020 17:12:17 15.6 C 20 %
2403 13-04-2020 17:22:16 15 C 20 %
2404 13-04-2020 17:32:16 15 C 20 %
2405 13-04-2020 17:42:16 14.5 C 20 %
2406 13-04-2020 17:52:16 15.4 C 20 %
2407 13-04-2020 18:02:16 13.2 C 20 %
2408 13-04-2020 18:12:16 12.5 C 20 %
2409 13-04-2020 18:22:17 12.1 C 20 %
2410 13-04-2020 18:32:17 11.9 C 20 %
2411 13-04-2020 18:42:18 11.1 C 20 %
2412 13-04-2020 18:52:16 11.1 C 20 %
2413 13-04-2020 19:02:16 10.8 C 20 %
2414 13-04-2020 19:12:16 10.5 C 20 %
2415 13-04-2020 19:22:16 10.2 C 20 %
2416 13-04-2020 19:32:17 10 C 20 %
2417 13-04-2020 19:42:17 9.8 C 20 %
2418 13-04-2020 19:52:16 9.6 C 20 %
2419 13-04-2020 20:02:16 9 C 20 %
2420 13-04-2020 20:12:16 8.6 C 20 %
2421 13-04-2020 20:22:16 8.5 C 20 %
2422 13-04-2020 20:32:16 8.4 C 20 %
2423 13-04-2020 20:42:16 8.2 C 20 %
2424 13-04-2020 20:52:16 7.5 C 20 %
2425 13-04-2020 21:02:16 7.5 C 20 %
Sensor: Nr:Datum:Temp:Feuchte:
Aussen-T/F 2426 13-04-2020 21:12:16 7.4 C 20 %
2427 13-04-2020 21:22:16 7.3 C 20 %
2428 13-04-2020 21:32:17 7.2 C 20 %
2429 13-04-2020 21:42:17 6.7 C 20 %
2430 13-04-2020 21:52:16 6.5 C 20 %
2431 13-04-2020 22:02:16 6.1 C 20 %
2432 13-04-2020 22:12:16 5.5 C 20 %
2433 13-04-2020 22:22:16 5.1 C 20 %
2434 13-04-2020 22:32:16 4.6 C 23 %
2435 13-04-2020 22:42:16 4.4 C 25 %
2436 13-04-2020 22:52:16 4.1 C 25 %
2437 13-04-2020 23:02:16 3.9 C 26 %
2438 13-04-2020 23:12:16 3.8 C 27 %
2439 13-04-2020 23:22:16 3.5 C 30 %
2440 13-04-2020 23:32:17 3.3 C 29 %
2441 13-04-2020 23:42:17 4 C 26 %
2442 13-04-2020 23:52:16 4 C 25 %
2443 14-04-2020 00:02:16 3.3 C 28 %
2444 14-04-2020 00:12:16 4.1 C 25 %
2445 14-04-2020 00:22:16 3.2 C 27 %
2446 14-04-2020 00:32:16 3.3 C 27 %
2447 14-04-2020 00:42:16 2.8 C 29 %
2448 14-04-2020 00:52:16 2.9 C 29 %
2449 14-04-2020 01:02:16 3.1 C 27 %
2450 14-04-2020 01:12:16 3.4 C 27 %
Sensor: Nr:Datum:Temp:Feuchte:
Aussen-T/F 2451 14-04-2020 01:22:16 2.8 C 28 %
2452 14-04-2020 01:32:16 2.1 C 30 %
2453 14-04-2020 01:42:16 1.9 C 33 %
2454 14-04-2020 01:52:16 1.2 C 35 %
2455 14-04-2020 02:02:16 1.6 C 35 %
2456 14-04-2020 02:12:16 1.3 C 35 %
2457 14-04-2020 02:22:16 0.9 C 36 %
2458 14-04-2020 02:32:16 0.8 C 36 %
2459 14-04-2020 02:42:16 1.1 C 35 %
2460 14-04-2020 02:52:18 1 C 35 %
2461 14-04-2020 03:02:18 1.1 C 35 %
2462 14-04-2020 03:12:18 1.1 C 35 %
2463 14-04-2020 03:22:17 0.7 C 36 %
2464 14-04-2020 03:32:18 1.1 C 36 %
2465 14-04-2020 03:42:18 0.9 C 36 %
2466 14-04-2020 03:52:17 1 C 35 %
2467 14-04-2020 04:02:18 0.9 C 36 %
2468 14-04-2020 04:12:18 0.9 C 36 %
2469 14-04-2020 04:22:17 0.6 C 36 %
2470 14-04-2020 04:32:17 0.7 C 36 %
2471 14-04-2020 04:42:17 0.7 C 36 %
2472 14-04-2020 04:52:18 0.6 C 36 %
2473 14-04-2020 05:02:17 0 C 37 %
2474 14-04-2020 05:12:17 0 C 38 %
2475 14-04-2020 05:22:17 0.6 C 38 %
Sensor: Nr:Datum:Temp:Feuchte:
Aussen-T/F 2476 14-04-2020 05:32:17 0.6 C 39 %
2477 14-04-2020 05:42:17 0.7 C 39 %
2478 14-04-2020 05:52:17 0 C 39 %
2479 14-04-2020 06:02:17 -0.2 C 40 %
2480 14-04-2020 06:12:17 -0.7 C 41 %
2481 14-04-2020 06:22:17 -0.9 C 41 %
2482 14-04-2020 06:32:17 -0.4 C 41 %
2483 14-04-2020 06:42:17 -0.1 C 41 %
2484 14-04-2020 06:52:17 0.5 C 41 %
2485 14-04-2020 07:02:17 0.7 C 41 %
2486 14-04-2020 07:12:17 1.1 C 40 %
2487 14-04-2020 07:22:17 1.3 C 39 %
2488 14-04-2020 07:32:17 1.6 C 39 %
2489 14-04-2020 07:42:17 1.8 C 39 %
2490 14-04-2020 07:52:18 2.1 C 37 %
2491 14-04-2020 08:02:17 2.2 C 38 %
2492 14-04-2020 08:12:17 2.3 C 37 %
2493 14-04-2020 08:22:18 1.7 C 39 %
2494 14-04-2020 08:32:17 1.7 C 40 %
2495 14-04-2020 08:42:17 2.2 C 38 %
2496 14-04-2020 08:52:17 2.4 C 38 %
2497 14-04-2020 09:02:18 3 C 37 %
2498 14-04-2020 09:12:18 3.8 C 36 %
2499 14-04-2020 09:22:17 4.7 C 34 %
2500 14-04-2020 09:32:18 5.7 C 32 %
Sensor: Nr:Datum:Temp:Feuchte:
Aussen-T/F 2501 14-04-2020 09:42:18 5.3 C 31 %
2502 14-04-2020 09:52:17 6 C 31 %
2503 14-04-2020 10:02:17 6.6 C 30 %
2504 14-04-2020 10:12:17 5.8 C 30 %
2505 14-04-2020 10:22:17 5.9 C 30 %
2506 14-04-2020 10:32:17 6.7 C 30 %
2507 14-04-2020 10:42:17 7.4 C 26 %
2508 14-04-2020 10:52:18 8.4 C 23 %
2509 14-04-2020 11:02:17 8.2 C 21 %
2510 14-04-2020 11:12:17 8 C 20 %
2511 14-04-2020 11:22:17 7.9 C 20 %
2512 14-04-2020 11:32:17 8.2 C 20 %
2513 14-04-2020 11:42:17 9.1 C 20 %
2514 14-04-2020 11:52:18 8.4 C 20 %
2515 14-04-2020 12:02:17 8.5 C 20 %
2516 14-04-2020 12:12:17 8.6 C 20 %
2517 14-04-2020 12:22:17 8.9 C 20 %
2518 14-04-2020 12:32:17 8.6 C 20 %
2519 14-04-2020 12:42:17 9.8 C 20 %
2520 14-04-2020 12:52:17 10.6 C 20 %
2521 14-04-2020 13:02:18 10.2 C 20 %
2522 14-04-2020 13:12:18 10 C 20 %
2523 14-04-2020 13:22:17 10.4 C 20 %
2524 14-04-2020 13:32:17 10.7 C 20 %
2525 14-04-2020 13:42:17 10 C 20 %
Sensor: Nr:Datum:Temp:Feuchte:
Aussen-T/F 2526 14-04-2020 13:52:18 9.5 C 20 %
2527 14-04-2020 14:02:17 9.8 C 20 %
2528 14-04-2020 14:12:18 10.3 C 20 %
2529 14-04-2020 14:22:18 11.8 C 20 %
2530 14-04-2020 14:32:18 14.5 C 20 %
2531 14-04-2020 14:42:18 17.4 C 20 %
2532 14-04-2020 14:52:17 16.8 C 20 %
2533 14-04-2020 15:02:17 17.6 C 20 %
2534 14-04-2020 15:12:18 21 C 20 %
2535 14-04-2020 15:22:17 14.7 C 20 %
2536 14-04-2020 15:32:17 16.7 C 20 %
2537 14-04-2020 15:42:17 14 C 20 %
2538 14-04-2020 15:52:17 14 C 20 %
2539 14-04-2020 16:02:17 15 C 20 %
2540 14-04-2020 16:12:17 17.2 C 20 %
2541 14-04-2020 16:22:17 17.7 C 20 %
2542 14-04-2020 16:32:18 16.3 C 20 %
2543 14-04-2020 16:42:18 14 C 20 %
2544 14-04-2020 16:52:17 14.5 C 20 %
2545 14-04-2020 17:02:18 12.2 C 20 %
2546 14-04-2020 17:12:18 14.2 C 20 %
2547 14-04-2020 17:22:17 19.2 C 20 %
2548 14-04-2020 17:32:17 16.8 C 20 %
2549 14-04-2020 17:42:18 15.5 C 20 %
2550 14-04-2020 17:52:17 16 C 20 %
Sensor: Nr:Datum:Temp:Feuchte:
Aussen-T/F 2551 14-04-2020 18:02:18 13.4 C 20 %
2552 14-04-2020 18:12:18 12.4 C 20 %
2553 14-04-2020 18:22:17 12.1 C 20 %
2554 14-04-2020 18:32:18 11.9 C 20 %
2555 14-04-2020 18:42:18 11.7 C 20 %
2556 14-04-2020 18:52:17 11.3 C 20 %
2557 14-04-2020 19:02:17 11.2 C 20 %
2558 14-04-2020 19:12:18 11 C 20 %
2559 14-04-2020 19:22:18 10.6 C 20 %
2560 14-04-2020 19:32:18 10.3 C 20 %
2561 14-04-2020 19:42:18 10.1 C 20 %
2562 14-04-2020 19:52:17 9.7 C 20 %
2563 14-04-2020 20:02:17 9.3 C 20 %
2564 14-04-2020 20:12:17 8.9 C 20 %
2565 14-04-2020 20:22:17 7.7 C 20 %
2566 14-04-2020 20:32:17 7 C 23 %
2567 14-04-2020 20:42:18 6.7 C 25 %
2568 14-04-2020 20:52:17 6.8 C 25 %
2569 14-04-2020 21:02:17 6.5 C 25 %
2570 14-04-2020 21:12:17 6.3 C 25 %
2571 14-04-2020 21:22:17 6 C 26 %
2572 14-04-2020 21:32:17 6.1 C 26 %
2573 14-04-2020 21:42:17 5.8 C 27 %
2574 14-04-2020 21:52:17 5.6 C 27 %
2575 14-04-2020 22:02:18 5.6 C 27 %
Sensor: Nr:Datum:Temp:Feuchte:
Aussen-T/F 2576 14-04-2020 22:12:18 5.1 C 29 %
2577 14-04-2020 22:22:17 5.2 C 28 %
2578 14-04-2020 22:32:18 5 C 29 %
2579 14-04-2020 22:42:18 4.7 C 30 %
2580 14-04-2020 22:52:18 4.7 C 30 %
2581 14-04-2020 23:02:18 4.3 C 32 %
2582 14-04-2020 23:12:18 3.6 C 34 %
2583 14-04-2020 23:22:17 3.2 C 35 %
2584 14-04-2020 23:32:17 3 C 35 %
2585 14-04-2020 23:42:17 2.8 C 36 %
2586 14-04-2020 23:52:17 2.6 C 36 %
2587 15-04-2020 00:02:18 2.4 C 37 %
2588 15-04-2020 00:12:18 2.1 C 37 %
2589 15-04-2020 00:22:17 1.7 C 39 %
2590 15-04-2020 00:32:18 1.6 C 39 %
2591 15-04-2020 00:42:18 1.6 C 40 %
2592 15-04-2020 00:52:17 1.6 C 39 %
2593 15-04-2020 01:02:17 1.5 C 40 %
2594 15-04-2020 01:12:17 1.3 C 40 %
2595 15-04-2020 01:22:17 1.2 C 40 %
2596 15-04-2020 01:32:17 1.3 C 40 %
2597 15-04-2020 01:42:17 1.2 C 40 %
2598 15-04-2020 01:52:17 1 C 40 %
2599 15-04-2020 02:02:17 0.8 C 41 %
2600 15-04-2020 02:12:17 0.8 C 42 %
Sensor: Nr:Datum:Temp:Feuchte:
Aussen-T/F 2601 15-04-2020 02:22:17 0.8 C 42 %
2602 15-04-2020 02:32:17 0.7 C 42 %
2603 15-04-2020 02:42:17 0.6 C 42 %
2604 15-04-2020 02:52:17 0.1 C 42 %
2605 15-04-2020 03:02:17 0.2 C 43 %
2606 15-04-2020 03:12:17 0.3 C 43 %
2607 15-04-2020 03:22:17 0.2 C 43 %
2608 15-04-2020 03:32:18 0.5 C 43 %
2609 15-04-2020 03:42:18 0.1 C 43 %
2610 15-04-2020 03:52:18 0 C 43 %
2611 15-04-2020 04:02:18 0.2 C 43 %
2612 15-04-2020 04:12:18 -0.2 C 43 %
2613 15-04-2020 04:22:17 0 C 44 %
2614 15-04-2020 04:32:18 -0.2 C 43 %
2615 15-04-2020 04:42:18 -0.3 C 44 %
2616 15-04-2020 04:52:17 -0.4 C 44 %
2617 15-04-2020 05:02:18 -0.4 C 44 %
2618 15-04-2020 05:12:18 -0.3 C 44 %
2619 15-04-2020 05:22:17 -0.4 C 45 %
2620 15-04-2020 05:32:17 -0.5 C 45 %
2621 15-04-2020 05:42:17 -0.4 C 45 %
2622 15-04-2020 05:52:17 -0.7 C 45 %
2623 15-04-2020 06:02:17 -0.7 C 45 %
2624 15-04-2020 06:12:17 -0.7 C 45 %
2625 15-04-2020 06:22:17 -0.7 C 45 %
Sensor: Nr:Datum:Temp:Feuchte:
Aussen-T/F 2626 15-04-2020 06:32:17 -0.6 C 45 %
2627 15-04-2020 06:42:17 -0.7 C 45 %
2628 15-04-2020 06:52:17 -0.9 C 45 %
2629 15-04-2020 07:02:17 -0.7 C 45 %
2630 15-04-2020 07:12:17 -0.6 C 45 %
2631 15-04-2020 07:22:17 -0.5 C 45 %
2632 15-04-2020 07:32:17 -0.1 C 46 %
2633 15-04-2020 07:42:17 0.1 C 45 %
2634 15-04-2020 07:52:18 0.4 C 45 %
2635 15-04-2020 08:02:17 0.7 C 45 %
2636 15-04-2020 08:12:17 1 C 43 %
2637 15-04-2020 08:22:18 1.4 C 42 %
2638 15-04-2020 08:32:18 1.6 C 41 %
2639 15-04-2020 08:42:18 1.9 C 41 %
2640 15-04-2020 08:52:18 2.4 C 40 %
2641 15-04-2020 09:02:17 2.8 C 40 %
2642 15-04-2020 09:12:17 3 C 38 %
2643 15-04-2020 09:22:18 3.4 C 38 %
2644 15-04-2020 09:32:18 3.5 C 37 %
2645 15-04-2020 09:42:18 4.2 C 36 %
2646 15-04-2020 09:52:17 4.4 C 36 %
2647 15-04-2020 10:02:18 4.9 C 35 %
2648 15-04-2020 10:12:18 5.4 C 35 %
2649 15-04-2020 10:22:18 6.2 C 34 %
2650 15-04-2020 10:32:18 6.9 C 33 %
Sensor: Nr:Datum:Temp:Feuchte:
Aussen-T/F 2651 15-04-2020 10:42:18 7.4 C 31 %
2652 15-04-2020 10:52:18 8.1 C 30 %
2653 15-04-2020 11:02:17 8.5 C 30 %
2654 15-04-2020 11:12:17 9.2 C 29 %
2655 15-04-2020 11:22:18 9.9 C 28 %
2656 15-04-2020 11:32:17 10.4 C 26 %
2657 15-04-2020 11:42:17 11 C 22 %
2658 15-04-2020 11:52:18 11.6 C 20 %
2659 15-04-2020 12:02:17 12.3 C 20 %
2660 15-04-2020 12:12:17 12.2 C 20 %
2661 15-04-2020 12:22:18 13.3 C 20 %
2662 15-04-2020 12:32:18 13.2 C 20 %
2663 15-04-2020 12:42:18 13.3 C 20 %
2664 15-04-2020 12:52:17 13.2 C 20 %
2665 15-04-2020 13:02:17 13.4 C 20 %
2666 15-04-2020 13:12:17 13.5 C 20 %
2667 15-04-2020 13:22:18 13.4 C 20 %
2668 15-04-2020 13:32:18 14.2 C 20 %
2669 15-04-2020 13:42:18 14.4 C 20 %
2670 15-04-2020 13:52:17 14.7 C 20 %
2671 15-04-2020 14:02:17 15.2 C 20 %
2672 15-04-2020 14:12:17 15.5 C 20 %
2673 15-04-2020 14:22:17 16.9 C 20 %
2674 15-04-2020 14:32:17 21.6 C 20 %
2675 15-04-2020 14:42:17 23.9 C 20 %
Sensor: Nr:Datum:Temp:Feuchte:
Aussen-T/F 2676 15-04-2020 14:52:17 25.2 C 20 %
2677 15-04-2020 15:02:18 24.8 C 20 %
2678 15-04-2020 15:12:18 23.5 C 20 %
2679 15-04-2020 15:22:18 24.4 C 20 %
2680 15-04-2020 15:32:18 23.9 C 20 %
2681 15-04-2020 15:42:18 24.5 C 20 %
2682 15-04-2020 15:52:17 24.4 C 20 %
2683 15-04-2020 16:02:18 24.8 C 20 %
2684 15-04-2020 16:12:18 24.6 C 20 %
2685 15-04-2020 16:22:17 23.3 C 20 %
2686 15-04-2020 16:32:18 23.7 C 20 %
2687 15-04-2020 16:42:18 25.4 C 20 %
2688 15-04-2020 16:52:18 25.9 C 20 %
2689 15-04-2020 17:02:17 25.4 C 20 %
2690 15-04-2020 17:12:17 26.8 C 20 %
2691 15-04-2020 17:22:18 24.8 C 20 %
2692 15-04-2020 17:32:17 24 C 20 %
2693 15-04-2020 17:42:17 22.4 C 20 %
2694 15-04-2020 17:52:18 24.4 C 20 %
2695 15-04-2020 18:02:18 20.6 C 20 %
2696 15-04-2020 18:12:18 20.2 C 20 %
2697 15-04-2020 18:22:18 19.7 C 20 %
2698 15-04-2020 18:32:18 19.1 C 20 %
2699 15-04-2020 18:42:18 19.4 C 20 %
2700 15-04-2020 18:52:17 19.4 C 20 %
Sensor: Nr:Datum:Temp:Feuchte:
Aussen-T/F 2701 15-04-2020 19:02:17 18.8 C 20 %
2702 15-04-2020 19:12:17 18.7 C 20 %
2703 15-04-2020 19:22:17 18.2 C 20 %
2704 15-04-2020 19:32:17 18 C 20 %
2705 15-04-2020 19:42:18 17.3 C 20 %
2706 15-04-2020 19:52:17 15.3 C 20 %
2707 15-04-2020 20:02:18 14 C 20 %
2708 15-04-2020 20:12:18 13.6 C 20 %
2709 15-04-2020 20:22:18 13.4 C 20 %
2710 15-04-2020 20:32:17 13.1 C 20 %
2711 15-04-2020 20:42:18 12.7 C 20 %
2712 15-04-2020 20:52:17 12 C 20 %
2713 15-04-2020 21:02:18 12 C 20 %
2714 15-04-2020 21:12:18 11 C 20 %
2715 15-04-2020 21:22:17 11 C 20 %
2716 15-04-2020 21:32:17 10.5 C 20 %
2717 15-04-2020 21:42:17 9.4 C 25 %
2718 15-04-2020 21:52:17 9 C 26 %
2719 15-04-2020 22:02:17 8.9 C 27 %
2720 15-04-2020 22:12:17 8.6 C 28 %
2721 15-04-2020 22:22:17 8.8 C 28 %
2722 15-04-2020 22:32:18 8.1 C 28 %
2723 15-04-2020 22:42:18 7.7 C 29 %
2724 15-04-2020 22:52:17 7.3 C 30 %
2725 15-04-2020 23:02:17 7.1 C 30 %
Sensor: Nr:Datum:Temp:Feuchte:
Aussen-T/F 2726 15-04-2020 23:12:17 7.2 C 30 %
2727 15-04-2020 23:22:17 7 C 30 %
2728 15-04-2020 23:32:17 6.6 C 31 %
2729 15-04-2020 23:42:18 6.4 C 32 %
2730 15-04-2020 23:52:17 6.2 C 32 %
2731 16-04-2020 00:02:17 6.2 C 32 %
2732 16-04-2020 00:12:17 6 C 33 %
2733 16-04-2020 00:22:17 5.8 C 34 %
2734 16-04-2020 00:32:18 5.5 C 35 %
2735 16-04-2020 00:42:18 5.3 C 35 %
2736 16-04-2020 00:52:17 5.2 C 35 %
2737 16-04-2020 01:02:17 4.8 C 35 %
2738 16-04-2020 01:12:17 4.8 C 35 %
2739 16-04-2020 01:22:17 5.1 C 35 %
2740 16-04-2020 01:32:18 5.1 C 35 %
2741 16-04-2020 01:42:18 4.7 C 36 %
2742 16-04-2020 01:52:17 4.8 C 36 %
2743 16-04-2020 02:02:18 4.6 C 36 %
2744 16-04-2020 02:12:18 4.3 C 36 %
2745 16-04-2020 02:22:18 3.9 C 38 %
2746 16-04-2020 02:32:17 4.1 C 38 %
2747 16-04-2020 02:42:17 4 C 38 %
2748 16-04-2020 02:52:17 3.7 C 39 %
2749 16-04-2020 03:02:17 3.6 C 40 %
2750 16-04-2020 03:12:17 3.6 C 39 %
Sensor: Nr:Datum:Temp:Feuchte:
Aussen-T/F 2751 16-04-2020 03:22:17 3.5 C 39 %
2752 16-04-2020 03:32:17 3.3 C 39 %
2753 16-04-2020 03:42:17 3 C 40 %
2754 16-04-2020 03:52:17 2.9 C 41 %
2755 16-04-2020 04:02:17 3.2 C 40 %
2756 16-04-2020 04:12:17 3.2 C 40 %
2757 16-04-2020 04:22:17 2.7 C 41 %
2758 16-04-2020 04:32:18 2.6 C 41 %
2759 16-04-2020 04:42:18 3 C 41 %
2760 16-04-2020 04:52:17 2.6 C 42 %
2761 16-04-2020 05:02:17 2.7 C 42 %
2762 16-04-2020 05:12:17 2.7 C 42 %
2763 16-04-2020 05:22:17 2.6 C 42 %
2764 16-04-2020 05:32:17 2.3 C 42 %
2765 16-04-2020 05:42:17 2 C 42 %
2766 16-04-2020 05:52:17 2.1 C 43 %
2767 16-04-2020 06:02:18 2.4 C 43 %
2768 16-04-2020 06:12:18 2 C 42 %
2769 16-04-2020 06:22:17 1.6 C 44 %
2770 16-04-2020 06:32:17 1.4 C 44 %
2771 16-04-2020 06:42:17 1.8 C 45 %
2772 16-04-2020 06:52:17 1.8 C 45 %
2773 16-04-2020 07:02:17 1.8 C 45 %
2774 16-04-2020 07:12:17 1.8 C 45 %
2775 16-04-2020 07:22:17 2.2 C 44 %
Sensor: Nr:Datum:Temp:Feuchte:
Aussen-T/F 2776 16-04-2020 07:32:17 2.1 C 44 %
2777 16-04-2020 07:42:17 2.1 C 44 %
2778 16-04-2020 07:52:17 2.5 C 44 %
2779 16-04-2020 08:02:17 2.5 C 44 %
2780 16-04-2020 08:12:17 2.6 C 44 %
2781 16-04-2020 08:22:17 3 C 43 %
2782 16-04-2020 08:32:18 3.2 C 42 %
2783 16-04-2020 08:42:18 3.5 C 42 %
2784 16-04-2020 08:52:17 3.6 C 41 %
2785 16-04-2020 09:02:18 3.9 C 41 %
2786 16-04-2020 09:12:18 4.2 C 41 %
2787 16-04-2020 09:22:17 4.5 C 40 %
2788 16-04-2020 09:32:17 5.1 C 40 %
2789 16-04-2020 09:42:17 5.8 C 39 %
2790 16-04-2020 09:52:17 6.6 C 37 %
2791 16-04-2020 10:02:18 7 C 36 %
2792 16-04-2020 10:12:18 7.5 C 36 %
2793 16-04-2020 10:22:17 8.1 C 35 %
2794 16-04-2020 10:32:17 9.4 C 34 %
2795 16-04-2020 10:42:18 10.4 C 31 %
2796 16-04-2020 10:52:17 11.2 C 30 %
2797 16-04-2020 11:02:18 12.2 C 29 %
2798 16-04-2020 11:12:18 14.2 C 25 %
2799 16-04-2020 11:22:17 15.5 C 20 %
2800 16-04-2020 11:32:17 16.8 C 20 %
Sensor: Nr:Datum:Temp:Feuchte:
Aussen-T/F 2801 16-04-2020 11:42:17 17.6 C 20 %
2802 16-04-2020 11:52:17 18 C 20 %
2803 16-04-2020 12:02:18 18.4 C 20 %
2804 16-04-2020 12:12:18 18.7 C 20 %
2805 16-04-2020 12:22:17 19.1 C 20 %
2806 16-04-2020 12:32:18 19.3 C 20 %
2807 16-04-2020 12:42:18 19.5 C 20 %
2808 16-04-2020 12:52:17 19.6 C 20 %
2809 16-04-2020 13:02:18 20.1 C 20 %
2810 16-04-2020 13:12:18 20.5 C 20 %
2811 16-04-2020 13:22:17 20.8 C 20 %
2812 16-04-2020 13:32:18 21.1 C 20 %
2813 16-04-2020 13:42:18 21.5 C 20 %
2814 16-04-2020 13:52:17 21.7 C 20 %
2815 16-04-2020 14:02:17 22 C 20 %
2816 16-04-2020 14:12:17 22.4 C 20 %
2817 16-04-2020 14:22:17 22.8 C 20 %
2818 16-04-2020 14:32:17 26.2 C 20 %
2819 16-04-2020 14:42:17 28 C 20 %
2820 16-04-2020 14:52:17 29.6 C 20 %
2821 16-04-2020 15:02:17 29.8 C 20 %
2822 16-04-2020 15:12:17 29.5 C 20 %
2823 16-04-2020 15:22:17 28.5 C 20 %
2824 16-04-2020 15:32:18 30.1 C 20 %
2825 16-04-2020 15:42:18 25.8 C 20 %
Sensor: Nr:Datum:Temp:Feuchte:
Aussen-T/F 2826 16-04-2020 15:52:17 27.1 C 20 %
2827 16-04-2020 16:02:17 29.5 C 20 %
2828 16-04-2020 16:12:17 28.4 C 20 %
2829 16-04-2020 16:22:17 26.5 C 20 %
2830 16-04-2020 16:32:17 26.6 C 20 %
2831 16-04-2020 16:42:18 27.2 C 20 %
2832 16-04-2020 16:52:17 24.9 C 20 %
2833 16-04-2020 17:02:17 25 C 20 %
2834 16-04-2020 17:12:17 26.1 C 20 %
2835 16-04-2020 17:22:18 28.3 C 20 %
2836 16-04-2020 17:32:17 27.6 C 20 %
2837 16-04-2020 17:42:17 27.3 C 20 %
2838 16-04-2020 17:52:17 26.5 C 20 %
2839 16-04-2020 18:02:17 25.6 C 20 %
2840 16-04-2020 18:12:17 24.3 C 20 %
2841 16-04-2020 18:22:17 24.4 C 20 %
2842 16-04-2020 18:32:17 24.2 C 20 %
2843 16-04-2020 18:42:17 23.9 C 20 %
2844 16-04-2020 18:52:17 24 C 20 %
2845 16-04-2020 19:02:17 23.2 C 20 %
2846 16-04-2020 19:12:17 22.9 C 20 %
2847 16-04-2020 19:22:17 22.2 C 20 %
2848 16-04-2020 19:32:18 21.9 C 20 %
2849 16-04-2020 19:42:18 21.2 C 20 %
2850 16-04-2020 19:52:17 20.5 C 20 %
Sensor: Nr:Datum:Temp:Feuchte:
Aussen-T/F 2851 16-04-2020 20:02:17 19.5 C 20 %
2852 16-04-2020 20:12:17 19.2 C 20 %
2853 16-04-2020 20:22:17 19.3 C 20 %
2854 16-04-2020 20:32:18 19.1 C 20 %
2855 16-04-2020 20:42:18 18.9 C 20 %
2856 16-04-2020 20:52:18 18.5 C 20 %
2857 16-04-2020 21:02:17 17.9 C 20 %
2858 16-04-2020 21:12:17 16.5 C 20 %
2859 16-04-2020 21:22:17 16.1 C 20 %
2860 16-04-2020 21:32:18 15.5 C 20 %
2861 16-04-2020 21:42:18 14.7 C 21 %
2862 16-04-2020 21:52:17 14.4 C 22 %
2863 16-04-2020 22:02:17 14.5 C 22 %
2864 16-04-2020 22:12:17 13.5 C 25 %
2865 16-04-2020 22:22:17 14.1 C 25 %
2866 16-04-2020 22:32:17 13.8 C 25 %
2867 16-04-2020 22:42:18 13.1 C 26 %
2868 16-04-2020 22:52:17 12.4 C 28 %
2869 16-04-2020 23:02:17 12.5 C 29 %
2870 16-04-2020 23:12:17 12.2 C 30 %
2871 16-04-2020 23:22:17 11.7 C 30 %
2872 16-04-2020 23:32:18 11.6 C 31 %
2873 16-04-2020 23:42:18 11.6 C 31 %
2874 16-04-2020 23:52:17 11.8 C 31 %
2875 17-04-2020 00:02:18 11.4 C 31 %
Sensor: Nr:Datum:Temp:Feuchte:
Aussen-T/F 2876 17-04-2020 00:12:18 11 C 31 %
2877 17-04-2020 00:22:17 11 C 32 %
2878 17-04-2020 00:32:17 11 C 32 %
2879 17-04-2020 00:42:17 11 C 32 %
2880 17-04-2020 00:52:18 10.4 C 33 %
2881 17-04-2020 01:02:17 10.1 C 34 %
2882 17-04-2020 01:12:18 10.1 C 34 %
2883 17-04-2020 01:22:18 9.8 C 35 %
2884 17-04-2020 01:32:18 10 C 35 %
2885 17-04-2020 01:42:18 10 C 35 %
2886 17-04-2020 01:52:17 9.5 C 36 %
2887 17-04-2020 02:02:17 9.7 C 36 %
2888 17-04-2020 02:12:17 9.6 C 36 %
2889 17-04-2020 02:22:17 9.1 C 36 %
2890 17-04-2020 02:32:17 8.9 C 37 %
2891 17-04-2020 02:42:17 8.5 C 38 %
2892 17-04-2020 02:52:17 8.1 C 38 %
2893 17-04-2020 03:02:17 7.9 C 39 %
2894 17-04-2020 03:12:18 7.9 C 40 %
2895 17-04-2020 03:22:18 7.8 C 40 %
2896 17-04-2020 03:32:17 7.8 C 40 %
2897 17-04-2020 03:42:18 7.8 C 40 %
2898 17-04-2020 03:52:18 8.5 C 39 %
2899 17-04-2020 04:02:17 8.4 C 39 %
2900 17-04-2020 04:12:17 8.3 C 39 %
Sensor: Nr:Datum:Temp:Feuchte:
Aussen-T/F 2901 17-04-2020 04:22:17 8 C 39 %
2902 17-04-2020 04:32:17 7.9 C 40 %
2903 17-04-2020 04:42:17 8 C 40 %
2904 17-04-2020 04:52:17 7.8 C 40 %
2905 17-04-2020 05:02:17 7.5 C 40 %
2906 17-04-2020 05:12:18 6.9 C 41 %
2907 17-04-2020 05:22:17 6.7 C 42 %
2908 17-04-2020 05:32:18 6.6 C 42 %
2909 17-04-2020 05:42:18 6.7 C 43 %
2910 17-04-2020 05:52:18 6.5 C 42 %
2911 17-04-2020 06:02:18 6.5 C 43 %
2912 17-04-2020 06:12:18 6.2 C 43 %
2913 17-04-2020 06:22:17 6 C 43 %
2914 17-04-2020 06:32:17 6 C 44 %
2915 17-04-2020 06:42:17 5.8 C 44 %
2916 17-04-2020 06:52:17 5.8 C 44 %
2917 17-04-2020 07:02:18 5.8 C 45 %
2918 17-04-2020 07:12:18 5.9 C 45 %
2919 17-04-2020 07:22:18 6.1 C 45 %
2920 17-04-2020 07:32:17 6.1 C 45 %
2921 17-04-2020 07:42:17 6.3 C 45 %
2922 17-04-2020 07:52:17 6.3 C 45 %
2923 17-04-2020 08:02:17 6.5 C 45 %
2924 17-04-2020 08:12:17 6.7 C 45 %
2925 17-04-2020 08:22:17 6.9 C 45 %
Sensor: Nr:Datum:Temp:Feuchte:
Aussen-T/F 2926 17-04-2020 08:32:18 7 C 44 %
2927 17-04-2020 08:42:18 7.6 C 44 %
2928 17-04-2020 08:52:17 7.9 C 44 %
2929 17-04-2020 09:02:18 8.4 C 42 %
2930 17-04-2020 09:12:18 8.6 C 42 %
2931 17-04-2020 09:22:17 8.8 C 41 %
2932 17-04-2020 09:32:17 9.3 C 41 %
2933 17-04-2020 09:42:17 9.6 C 40 %
2934 17-04-2020 09:52:18 10.3 C 39 %
2935 17-04-2020 10:02:17 10.8 C 38 %
2936 17-04-2020 10:12:17 11 C 37 %
2937 17-04-2020 10:22:18 11.8 C 36 %
2938 17-04-2020 10:32:18 12.4 C 35 %
2939 17-04-2020 10:42:18 13 C 34 %
2940 17-04-2020 10:52:17 13.9 C 34 %
2941 17-04-2020 11:02:17 14.6 C 32 %
2942 17-04-2020 11:12:17 15.8 C 30 %
2943 17-04-2020 11:22:18 16.5 C 28 %
2944 17-04-2020 11:32:17 17.1 C 28 %
2945 17-04-2020 11:42:17 17.7 C 26 %
2946 17-04-2020 11:52:17 17.9 C 25 %
2947 17-04-2020 12:02:18 18.5 C 25 %
2948 17-04-2020 12:12:18 18.7 C 24 %
2949 17-04-2020 12:22:17 19.1 C 22 %
2950 17-04-2020 12:32:17 19.7 C 20 %
Sensor: Nr:Datum:Temp:Feuchte:
Aussen-T/F 2951 17-04-2020 12:42:17 19.7 C 20 %
2952 17-04-2020 12:52:17 19.7 C 20 %
2953 17-04-2020 13:02:18 20 C 20 %
2954 17-04-2020 13:12:18 20.4 C 20 %
2955 17-04-2020 13:22:17 20.6 C 20 %
2956 17-04-2020 13:32:17 20.8 C 20 %
2957 17-04-2020 13:42:17 21.1 C 20 %
2958 17-04-2020 13:52:17 21.6 C 20 %
2959 17-04-2020 14:02:18 21.8 C 20 %
2960 17-04-2020 14:12:18 22.6 C 20 %
2961 17-04-2020 14:22:17 23.2 C 20 %
2962 17-04-2020 14:32:17 25.2 C 20 %
2963 17-04-2020 14:42:17 29 C 20 %
2964 17-04-2020 14:52:17 32.1 C 20 %
2965 17-04-2020 15:02:17 30.9 C 20 %
2966 17-04-2020 15:12:17 31.4 C 20 %
2967 17-04-2020 15:22:17 29.6 C 20 %
2968 17-04-2020 15:32:17 29.2 C 20 %
2969 17-04-2020 15:42:17 29 C 20 %
2970 17-04-2020 15:52:18 25.7 C 20 %
2971 17-04-2020 16:02:17 30.3 C 20 %
2972 17-04-2020 16:12:17 30.2 C 20 %
2973 17-04-2020 16:22:17 27.5 C 20 %
2974 17-04-2020 16:32:17 28.2 C 20 %
2975 17-04-2020 16:42:17 28.2 C 20 %
Sensor: Nr:Datum:Temp:Feuchte:
Aussen-T/F 2976 17-04-2020 16:52:17 27.7 C 20 %
2977 17-04-2020 17:02:18 29.6 C 20 %
2978 17-04-2020 17:12:18 29.4 C 20 %
2979 17-04-2020 17:22:17 29.5 C 20 %
2980 17-04-2020 17:32:17 30.4 C 20 %
2981 17-04-2020 17:42:18 27.7 C 20 %
2982 17-04-2020 17:52:17 28.5 C 20 %
2983 17-04-2020 18:02:17 26.6 C 20 %
2984 17-04-2020 18:12:17 26.2 C 20 %
2985 17-04-2020 18:22:17 25.7 C 20 %
2986 17-04-2020 18:32:17 24.8 C 20 %
2987 17-04-2020 18:42:17 24.7 C 20 %
2988 17-04-2020 18:52:18 24.2 C 20 %
2989 17-04-2020 19:02:17 24.1 C 20 %
2990 17-04-2020 19:12:17 23.7 C 20 %
2991 17-04-2020 19:22:17 23 C 20 %
2992 17-04-2020 19:32:17 22.2 C 20 %
2993 17-04-2020 19:42:17 21.7 C 20 %
2994 17-04-2020 19:52:17 20.7 C 20 %
2995 17-04-2020 20:02:17 20 C 20 %
2996 17-04-2020 20:12:17 19.5 C 20 %
2997 17-04-2020 20:22:17 18.8 C 21 %
2998 17-04-2020 20:32:17 18.4 C 21 %
2999 17-04-2020 20:42:17 18.2 C 21 %
3000 17-04-2020 20:52:17 17.7 C 23 %
Sensor: Nr:Datum:Temp:Feuchte:
Aussen-T/F 3001 17-04-2020 21:02:17 17.5 C 23 %
3002 17-04-2020 21:12:17 17.7 C 24 %
3003 17-04-2020 21:22:17 17.6 C 25 %
3004 17-04-2020 21:32:18 17.8 C 24 %
3005 17-04-2020 21:42:18 17 C 25 %
3006 17-04-2020 21:52:18 16.8 C 25 %
3007 17-04-2020 22:02:17 16 C 26 %
3008 17-04-2020 22:12:17 16 C 26 %
3009 17-04-2020 22:22:17 15.8 C 26 %
3010 17-04-2020 22:32:17 15.7 C 26 %
3011 17-04-2020 22:42:17 15.1 C 27 %
3012 17-04-2020 22:52:17 14.6 C 29 %
3013 17-04-2020 23:02:17 14.7 C 30 %
3014 17-04-2020 23:12:17 14.4 C 29 %
3015 17-04-2020 23:22:18 14.1 C 30 %
3016 17-04-2020 23:32:17 14 C 30 %
3017 17-04-2020 23:42:17 13.6 C 31 %
3018 17-04-2020 23:52:17 13.5 C 31 %
3019 18-04-2020 00:02:17 13.4 C 31 %
3020 18-04-2020 00:12:17 13.1 C 32 %
3021 18-04-2020 00:22:18 12.6 C 33 %
3022 18-04-2020 00:32:17 12.2 C 33 %
3023 18-04-2020 00:42:18 12 C 33 %
3024 18-04-2020 00:52:17 11.8 C 34 %
3025 18-04-2020 01:02:18 11.8 C 34 %
Sensor: Nr:Datum:Temp:Feuchte:
Aussen-T/F 3026 18-04-2020 01:12:18 11.8 C 34 %
3027 18-04-2020 01:22:17 11.4 C 34 %
3028 18-04-2020 01:32:18 11.1 C 35 %
3029 18-04-2020 01:42:18 10.9 C 36 %
3030 18-04-2020 01:52:17 10.9 C 36 %
3031 18-04-2020 02:02:18 10.8 C 36 %
3032 18-04-2020 02:12:18 10.6 C 36 %
3033 18-04-2020 02:22:17 10.7 C 36 %
3034 18-04-2020 02:32:17 10.1 C 37 %
3035 18-04-2020 02:42:17 10 C 38 %
3036 18-04-2020 02:52:18 9.8 C 38 %
3037 18-04-2020 03:02:17 9.7 C 39 %
3038 18-04-2020 03:12:17 9.6 C 39 %
3039 18-04-2020 03:22:18 9.2 C 39 %
3040 18-04-2020 03:32:18 9 C 39 %
3041 18-04-2020 03:42:18 9 C 39 %
3042 18-04-2020 03:52:18 8.9 C 40 %
3043 18-04-2020 04:02:17 9 C 40 %
3044 18-04-2020 04:12:17 9 C 40 %
3045 18-04-2020 04:22:17 9 C 40 %
3046 18-04-2020 04:32:18 8.9 C 41 %
3047 18-04-2020 04:42:18 8.8 C 41 %
3048 18-04-2020 04:52:17 8.6 C 41 %
3049 18-04-2020 05:02:17 8.4 C 41 %
3050 18-04-2020 05:12:17 8.5 C 41 %
Sensor: Nr:Datum:Temp:Feuchte:
Aussen-T/F 3051 18-04-2020 05:22:17 8.7 C 40 %
3052 18-04-2020 05:32:17 8.6 C 41 %
3053 18-04-2020 05:42:17 8.3 C 41 %
3054 18-04-2020 05:52:18 8.6 C 41 %
3055 18-04-2020 06:02:17 8.7 C 41 %
3056 18-04-2020 06:12:17 8.6 C 41 %
3057 18-04-2020 06:22:17 8.7 C 41 %
3058 18-04-2020 06:32:17 8.3 C 41 %
3059 18-04-2020 06:42:17 8.1 C 41 %
3060 18-04-2020 06:52:17 8.2 C 41 %
3061 18-04-2020 07:02:17 8.4 C 42 %
3062 18-04-2020 07:12:17 8.7 C 42 %
3063 18-04-2020 07:22:17 9.4 C 42 %
3064 18-04-2020 07:32:17 9.6 C 41 %
3065 18-04-2020 07:42:17 9.7 C 41 %
3066 18-04-2020 07:52:17 9.7 C 41 %
3067 18-04-2020 08:02:18 9.7 C 41 %
3068 18-04-2020 08:12:18 10 C 40 %
3069 18-04-2020 08:22:17 10.1 C 40 %
3070 18-04-2020 08:32:17 10.2 C 40 %
3071 18-04-2020 08:42:18 10.6 C 40 %
3072 18-04-2020 08:52:18 11.1 C 39 %
3073 18-04-2020 09:02:17 11.7 C 38 %
3074 18-04-2020 09:12:17 12.1 C 37 %
3075 18-04-2020 09:22:17 12.5 C 36 %
Sensor: Nr:Datum:Temp:Feuchte:
Aussen-T/F 3076 18-04-2020 09:32:18 13.4 C 35 %
3077 18-04-2020 09:42:18 13.8 C 34 %
3078 18-04-2020 09:52:18 14.4 C 32 %
3079 18-04-2020 10:02:18 15 C 31 %
3080 18-04-2020 10:12:18 14.9 C 31 %
3081 18-04-2020 10:22:18 16.2 C 30 %
3082 18-04-2020 10:32:18 15.8 C 30 %
3083 18-04-2020 10:42:18 17.2 C 29 %
3084 18-04-2020 10:52:18 17.9 C 29 %
3085 18-04-2020 11:02:18 18.5 C 27 %
3086 18-04-2020 11:12:18 18.3 C 27 %
3087 18-04-2020 11:22:17 18.5 C 26 %
3088 18-04-2020 11:32:18 17.8 C 27 %
3089 18-04-2020 11:42:18 18.6 C 26 %
3090 18-04-2020 11:52:18 18.9 C 27 %
3091 18-04-2020 12:02:17 19.1 C 26 %
3092 18-04-2020 12:12:17 20 C 25 %
3093 18-04-2020 12:22:18 20.2 C 24 %
3094 18-04-2020 12:32:18 20.1 C 24 %
3095 18-04-2020 12:42:18 19.6 C 25 %
3096 18-04-2020 12:52:17 19.3 C 25 %
3097 18-04-2020 13:02:17 20.8 C 24 %
3098 18-04-2020 13:12:17 21.8 C 21 %
3099 18-04-2020 13:22:18 21.5 C 20 %
3100 18-04-2020 13:32:18 21.8 C 20 %
Sensor: Nr:Datum:Temp:Feuchte:
Aussen-T/F 3101 18-04-2020 13:42:18 22.4 C 20 %
3102 18-04-2020 13:52:18 21.6 C 20 %
3103 18-04-2020 14:02:18 21.2 C 20 %
3104 18-04-2020 14:12:18 21.7 C 20 %
3105 18-04-2020 14:22:18 22.4 C 20 %
3106 18-04-2020 14:32:17 22.4 C 20 %
3107 18-04-2020 14:42:17 22.8 C 20 %
3108 18-04-2020 14:52:17 22.6 C 20 %
3109 18-04-2020 15:02:17 25.4 C 20 %
3110 18-04-2020 15:12:18 30.4 C 20 %
3111 18-04-2020 15:22:17 28.2 C 20 %
3112 18-04-2020 15:32:17 23.8 C 20 %
3113 18-04-2020 15:42:17 23.2 C 20 %
3114 18-04-2020 15:52:17 22.2 C 20 %
3115 18-04-2020 16:02:18 21.8 C 20 %
3116 18-04-2020 16:12:18 21.8 C 20 %
3117 18-04-2020 16:22:18 20.6 C 20 %
3118 18-04-2020 16:32:17 19.7 C 25 %
3119 18-04-2020 16:42:17 20 C 25 %
3120 18-04-2020 16:52:17 19.9 C 25 %
3121 18-04-2020 17:02:17 19.1 C 26 %
3122 18-04-2020 17:12:17 18.9 C 27 %
3123 18-04-2020 17:22:17 18.7 C 28 %
3124 18-04-2020 17:32:18 17.6 C 33 %
3125 18-04-2020 17:42:18 17.5 C 33 %
Sensor: Nr:Datum:Temp:Feuchte:
Aussen-T/F 3126 18-04-2020 17:52:18 17.4 C 33 %
3127 18-04-2020 18:02:18 17.3 C 34 %
3128 18-04-2020 18:12:18 17.1 C 34 %
3129 18-04-2020 18:22:17 17.3 C 33 %
3130 18-04-2020 18:32:18 17.7 C 31 %
3131 18-04-2020 18:42:18 17.7 C 31 %
3132 18-04-2020 18:52:17 17.9 C 30 %
3133 18-04-2020 19:02:18 18.1 C 30 %
3134 18-04-2020 19:12:18 17.9 C 30 %
3135 18-04-2020 19:22:17 17.6 C 30 %
3136 18-04-2020 19:32:17 17.8 C 30 %
3137 18-04-2020 19:42:17 18.1 C 29 %
3138 18-04-2020 19:52:18 17.7 C 30 %
3139 18-04-2020 20:02:17 17.3 C 30 %
3140 18-04-2020 20:12:17 16.5 C 30 %
3141 18-04-2020 20:22:17 15.9 C 31 %
3142 18-04-2020 20:32:17 15 C 32 %
3143 18-04-2020 20:42:17 14.8 C 34 %
3144 18-04-2020 20:52:17 14.5 C 34 %
3145 18-04-2020 21:02:18 14.5 C 35 %
3146 18-04-2020 21:12:18 14.9 C 34 %
3147 18-04-2020 21:22:17 15 C 33 %
3148 18-04-2020 21:32:17 15.1 C 33 %
3149 18-04-2020 21:42:17 15 C 33 %
3150 18-04-2020 21:52:18 14.8 C 34 %
Sensor: Nr:Datum:Temp:Feuchte:
Aussen-T/F 3151 18-04-2020 22:02:17 14.4 C 34 %
3152 18-04-2020 22:12:17 14.5 C 35 %
3153 18-04-2020 22:22:17 13.7 C 35 %
3154 18-04-2020 22:32:18 13.4 C 36 %
3155 18-04-2020 22:42:18 12.8 C 37 %
3156 18-04-2020 22:52:17 12.8 C 37 %
3157 18-04-2020 23:02:18 12.7 C 38 %
3158 18-04-2020 23:12:18 12.3 C 38 %
3159 18-04-2020 23:22:17 12.1 C 38 %
3160 18-04-2020 23:32:17 11.7 C 40 %
3161 18-04-2020 23:42:17 11.1 C 40 %
3162 18-04-2020 23:52:17 10.9 C 42 %
3163 19-04-2020 00:02:18 10.6 C 43 %
3164 19-04-2020 00:12:18 10.7 C 43 %
3165 19-04-2020 00:22:17 10.2 C 43 %
3166 19-04-2020 00:32:17 10.2 C 43 %
3167 19-04-2020 00:42:17 10.1 C 44 %
3168 19-04-2020 00:52:17 9.8 C 44 %
3169 19-04-2020 01:02:17 9.8 C 45 %
3170 19-04-2020 01:12:17 9.9 C 45 %
3171 19-04-2020 01:22:17 9.6 C 44 %
3172 19-04-2020 01:32:17 9.6 C 45 %
3173 19-04-2020 01:42:17 9.9 C 45 %
3174 19-04-2020 01:52:17 9.5 C 45 %
3175 19-04-2020 02:02:17 9.5 C 45 %
Sensor: Nr:Datum:Temp:Feuchte:
Aussen-T/F 3176 19-04-2020 02:12:18 9.6 C 45 %
3177 19-04-2020 02:22:17 9.7 C 45 %
3178 19-04-2020 02:32:17 10 C 45 %
3179 19-04-2020 02:42:17 10 C 44 %
3180 19-04-2020 02:52:17 9.8 C 45 %
3181 19-04-2020 03:02:17 9.6 C 45 %
3182 19-04-2020 03:12:17 9.3 C 44 %
3183 19-04-2020 03:22:17 9.1 C 45 %
3184 19-04-2020 03:32:17 8.9 C 45 %
3185 19-04-2020 03:42:17 8.7 C 45 %
3186 19-04-2020 03:52:17 8.7 C 45 %
3187 19-04-2020 04:02:17 8.5 C 45 %
3188 19-04-2020 04:12:17 9.2 C 45 %
3189 19-04-2020 04:22:17 9.2 C 45 %
3190 19-04-2020 04:32:17 9.4 C 45 %
3191 19-04-2020 04:42:17 9.6 C 45 %
3192 19-04-2020 04:52:17 9.6 C 45 %
3193 19-04-2020 05:02:17 9.7 C 45 %
3194 19-04-2020 05:12:17 9.6 C 45 %
3195 19-04-2020 05:22:18 9.6 C 45 %
3196 19-04-2020 05:32:17 9.7 C 45 %
3197 19-04-2020 05:42:17 9.7 C 45 %
3198 19-04-2020 05:52:17 9.8 C 45 %
3199 19-04-2020 06:02:17 9.9 C 45 %
3200 19-04-2020 06:12:17 10.1 C 44 %
Sensor: Nr:Datum:Temp:Feuchte:
Aussen-T/F 3201 19-04-2020 06:22:17 10.1 C 44 %
3202 19-04-2020 06:32:17 10.2 C 44 %
3203 19-04-2020 06:42:17 10.2 C 44 %
3204 19-04-2020 06:52:18 10.3 C 44 %
3205 19-04-2020 07:02:18 10.3 C 44 %
3206 19-04-2020 07:12:18 10.4 C 44 %
3207 19-04-2020 07:22:17 10.6 C 44 %
3208 19-04-2020 07:32:18 10.5 C 43 %
3209 19-04-2020 07:42:18 10.6 C 43 %
3210 19-04-2020 07:52:17 10.6 C 43 %
3211 19-04-2020 08:02:17 10.7 C 43 %
3212 19-04-2020 08:12:17 11.3 C 42 %
3213 19-04-2020 08:22:17 11.5 C 41 %
3214 19-04-2020 08:32:17 12 C 40 %
3215 19-04-2020 08:42:17 12.4 C 39 %
3216 19-04-2020 08:52:17 13.2 C 37 %
3217 19-04-2020 09:02:17 12.5 C 38 %
3218 19-04-2020 09:12:18 13 C 37 %
3219 19-04-2020 09:22:18 13.2 C 36 %
3220 19-04-2020 09:32:17 13.5 C 36 %
3221 19-04-2020 09:42:17 13.8 C 36 %
3222 19-04-2020 09:52:17 13.8 C 35 %
3223 19-04-2020 10:02:17 13.7 C 35 %
3224 19-04-2020 10:12:17 14.2 C 35 %
3225 19-04-2020 10:22:17 14.7 C 34 %
Sensor: Nr:Datum:Temp:Feuchte:
Aussen-T/F 3226 19-04-2020 10:32:17 15.5 C 33 %
3227 19-04-2020 10:42:17 16.4 C 31 %
3228 19-04-2020 10:52:17 16.4 C 31 %
3229 19-04-2020 11:02:17 15.7 C 32 %
3230 19-04-2020 11:12:17 14.7 C 33 %
3231 19-04-2020 11:22:17 14.7 C 33 %
3232 19-04-2020 11:32:17 14.4 C 34 %
3233 19-04-2020 11:42:17 14 C 34 %
3234 19-04-2020 11:52:17 13.8 C 35 %
3235 19-04-2020 12:02:17 14.2 C 34 %
3236 19-04-2020 12:12:17 14.7 C 34 %
3237 19-04-2020 12:22:17 16 C 31 %
3238 19-04-2020 12:32:18 16 C 31 %
3239 19-04-2020 12:42:18 16.3 C 30 %
3240 19-04-2020 12:52:17 16.9 C 30 %
3241 19-04-2020 13:02:17 17.4 C 28 %
3242 19-04-2020 13:12:17 16.9 C 29 %
3243 19-04-2020 13:22:17 17.4 C 27 %
3244 19-04-2020 13:32:17 18.8 C 26 %
3245 19-04-2020 13:42:17 19.1 C 25 %
3246 19-04-2020 13:52:17 19.3 C 25 %
3247 19-04-2020 14:02:18 18.8 C 25 %
3248 19-04-2020 14:12:18 18.6 C 25 %
3249 19-04-2020 14:22:17 18.1 C 25 %
3250 19-04-2020 14:32:17 17.4 C 26 %
Sensor: Nr:Datum:Temp:Feuchte:
Aussen-T/F 3251 19-04-2020 14:42:17 18 C 26 %
3252 19-04-2020 14:52:17 17.1 C 26 %
3253 19-04-2020 15:02:18 16.9 C 26 %
3254 19-04-2020 15:12:18 16.6 C 26 %
3255 19-04-2020 15:22:17 17 C 25 %
3256 19-04-2020 15:32:17 17.2 C 25 %
3257 19-04-2020 15:42:18 17.8 C 25 %
3258 19-04-2020 15:52:18 18.1 C 24 %
3259 19-04-2020 16:02:17 19.2 C 22 %
3260 19-04-2020 16:12:17 22.2 C 20 %
3261 19-04-2020 16:22:17 20.2 C 20 %
3262 19-04-2020 16:32:17 18.6 C 20 %
3263 19-04-2020 16:42:17 20.5 C 20 %
3264 19-04-2020 16:52:17 21.3 C 20 %
3265 19-04-2020 17:02:17 17.5 C 20 %
3266 19-04-2020 17:12:17 18.6 C 20 %
3267 19-04-2020 17:22:17 19.7 C 20 %
3268 19-04-2020 17:32:18 18.9 C 20 %
3269 19-04-2020 17:42:18 19.2 C 20 %
3270 19-04-2020 17:52:17 18.6 C 20 %
3271 19-04-2020 18:02:18 17.4 C 20 %
3272 19-04-2020 18:12:18 17.3 C 20 %
3273 19-04-2020 18:22:17 17.3 C 20 %
3274 19-04-2020 18:32:17 17.3 C 20 %
3275 19-04-2020 18:42:17 16.8 C 20 %
Sensor: Nr:Datum:Temp:Feuchte:
Aussen-T/F 3276 19-04-2020 18:52:17 16.8 C 20 %
3277 19-04-2020 19:02:17 16.8 C 20 %
3278 19-04-2020 19:12:17 16.7 C 20 %
3279 19-04-2020 19:22:17 16.3 C 20 %
3280 19-04-2020 19:32:18 16 C 20 %
3281 19-04-2020 19:42:18 15.6 C 20 %
3282 19-04-2020 19:52:17 15.1 C 20 %
3283 19-04-2020 20:02:18 14.7 C 20 %
3284 19-04-2020 20:12:18 13.7 C 23 %
3285 19-04-2020 20:22:17 13.3 C 24 %
3286 19-04-2020 20:32:17 13 C 25 %
3287 19-04-2020 20:42:17 12.5 C 26 %
3288 19-04-2020 20:52:17 12.3 C 26 %
3289 19-04-2020 21:02:18 12 C 26 %
3290 19-04-2020 21:12:18 12 C 26 %
3291 19-04-2020 21:22:17 11.7 C 27 %
3292 19-04-2020 21:32:17 11.5 C 27 %
3293 19-04-2020 21:42:17 11.4 C 27 %
3294 19-04-2020 21:52:17 11 C 27 %
3295 19-04-2020 22:02:17 11.2 C 26 %
3296 19-04-2020 22:12:17 11 C 26 %
3297 19-04-2020 22:22:17 11.1 C 26 %
3298 19-04-2020 22:32:17 10.9 C 26 %
3299 19-04-2020 22:42:17 10.3 C 26 %
3300 19-04-2020 22:52:17 10.2 C 26 %
Sensor: Nr:Datum:Temp:Feuchte:
Aussen-T/F 3301 19-04-2020 23:02:18 11.1 C 25 %
3302 19-04-2020 23:12:18 10.1 C 25 %
3303 19-04-2020 23:22:18 9.7 C 27 %
3304 19-04-2020 23:32:17 10.3 C 22 %
3305 19-04-2020 23:42:17 10.3 C 25 %
3306 19-04-2020 23:52:17 10.3 C 23 %
3307 20-04-2020 00:02:17 10.1 C 25 %
3308 20-04-2020 00:12:17 9.6 C 25 %
3309 20-04-2020 00:22:17 10.1 C 21 %
3310 20-04-2020 00:32:18 9.9 C 23 %
3311 20-04-2020 00:42:18 9.6 C 25 %
3312 20-04-2020 00:52:18 9.3 C 25 %
3313 20-04-2020 01:02:17 9.8 C 23 %
3314 20-04-2020 01:12:17 9.3 C 23 %
3315 20-04-2020 01:22:17 9.1 C 21 %
3316 20-04-2020 01:32:17 9.6 C 21 %
3317 20-04-2020 01:42:17 9.1 C 21 %
3318 20-04-2020 01:52:17 8.5 C 25 %
3319 20-04-2020 02:02:18 8.1 C 26 %
3320 20-04-2020 02:12:18 7.9 C 26 %
3321 20-04-2020 02:22:17 7.5 C 27 %
3322 20-04-2020 02:32:18 7.3 C 27 %
3323 20-04-2020 02:42:18 7.3 C 27 %
3324 20-04-2020 02:52:17 7.3 C 27 %
3325 20-04-2020 03:02:17 7 C 27 %
Sensor: Nr:Datum:Temp:Feuchte:
Aussen-T/F 3326 20-04-2020 03:12:17 6.9 C 28 %
3327 20-04-2020 03:22:17 6.7 C 29 %
3328 20-04-2020 03:32:17 6.9 C 28 %
3329 20-04-2020 03:42:17 6.9 C 28 %
3330 20-04-2020 03:52:17 6.7 C 29 %
3331 20-04-2020 04:02:17 6.6 C 28 %
3332 20-04-2020 04:12:17 6.5 C 28 %
3333 20-04-2020 04:22:17 6.4 C 29 %
3334 20-04-2020 04:32:18 6.4 C 28 %
3335 20-04-2020 04:42:18 6.4 C 28 %
3336 20-04-2020 04:52:17 6.2 C 29 %
3337 20-04-2020 05:02:18 6.4 C 29 %
3338 20-04-2020 05:12:18 6.3 C 29 %
3339 20-04-2020 05:22:17 6.3 C 29 %
3340 20-04-2020 05:32:17 6.2 C 30 %
3341 20-04-2020 05:42:18 6.3 C 29 %
3342 20-04-2020 05:52:17 6.3 C 29 %
3343 20-04-2020 06:02:18 6 C 30 %
3344 20-04-2020 06:12:18 5.9 C 30 %
3345 20-04-2020 06:22:17 5.9 C 30 %
3346 20-04-2020 06:32:17 6.1 C 30 %
3347 20-04-2020 06:42:17 6.1 C 30 %
3348 20-04-2020 06:52:17 5.9 C 30 %
3349 20-04-2020 07:02:17 6.1 C 30 %
3350 20-04-2020 07:12:17 6.2 C 30 %
Sensor: Nr:Datum:Temp:Feuchte:
Aussen-T/F 3351 20-04-2020 07:22:17 6.2 C 30 %
3352 20-04-2020 07:32:17 6.4 C 30 %
3353 20-04-2020 07:42:17 7.2 C 27 %
3354 20-04-2020 07:52:17 7.4 C 27 %
3355 20-04-2020 08:02:18 7.3 C 27 %
3356 20-04-2020 08:12:18 7.9 C 26 %
3357 20-04-2020 08:22:17 7.8 C 27 %
3358 20-04-2020 08:32:17 7.7 C 28 %
3359 20-04-2020 08:42:18 7.9 C 26 %
3360 20-04-2020 08:52:18 8.1 C 26 %
3361 20-04-2020 09:02:17 8.3 C 26 %
3362 20-04-2020 09:12:17 8.2 C 27 %
3363 20-04-2020 09:22:17 8.4 C 27 %
3364 20-04-2020 09:32:17 9 C 25 %
3365 20-04-2020 09:42:17 9.4 C 25 %
3366 20-04-2020 09:52:18 9.4 C 26 %
3367 20-04-2020 10:02:18 9.9 C 26 %
3368 20-04-2020 10:12:18 10.7 C 22 %
3369 20-04-2020 10:22:17 11.4 C 20 %
3370 20-04-2020 10:32:17 12.1 C 20 %
3371 20-04-2020 10:42:18 12.7 C 20 %
3372 20-04-2020 10:52:17 13.1 C 20 %
3373 20-04-2020 11:02:18 13.7 C 20 %
3374 20-04-2020 11:12:18 14 C 20 %
3375 20-04-2020 11:22:17 14.4 C 20 %
Sensor: Nr:Datum:Temp:Feuchte:
Aussen-T/F 3376 20-04-2020 11:32:17 14.7 C 20 %
3377 20-04-2020 11:42:18 14.8 C 20 %
3378 20-04-2020 11:52:17 15 C 20 %
3379 20-04-2020 12:02:17 15.2 C 20 %
3380 20-04-2020 12:12:17 15 C 20 %
3381 20-04-2020 12:22:17 15 C 20 %
3382 20-04-2020 12:32:17 15.1 C 20 %
3383 20-04-2020 12:42:17 15.1 C 20 %
3384 20-04-2020 12:52:17 15.4 C 20 %
3385 20-04-2020 13:02:17 15.4 C 20 %
3386 20-04-2020 13:12:17 16 C 20 %
3387 20-04-2020 13:22:17 15.8 C 20 %
3388 20-04-2020 13:32:17 16.1 C 20 %
3389 20-04-2020 13:42:17 16.1 C 20 %
3390 20-04-2020 13:52:17 16.8 C 20 %
3391 20-04-2020 14:02:17 16.9 C 20 %
3392 20-04-2020 14:12:17 17.3 C 20 %
3393 20-04-2020 14:22:17 18.3 C 20 %
3394 20-04-2020 14:32:18 21 C 20 %
3395 20-04-2020 14:42:18 23 C 20 %
3396 20-04-2020 14:52:18 23.2 C 20 %
3397 20-04-2020 15:02:17 22.9 C 20 %
3398 20-04-2020 15:12:17 21.8 C 20 %
3399 20-04-2020 15:22:17 22.9 C 20 %
3400 20-04-2020 15:32:17 23.3 C 20 %
Sensor: Nr:Datum:Temp:Feuchte:
Aussen-T/F 3401 20-04-2020 15:42:17 24.7 C 20 %
3402 20-04-2020 15:52:17 22.5 C 20 %
3403 20-04-2020 16:02:17 24.5 C 20 %
3404 20-04-2020 16:12:17 22.7 C 20 %
3405 20-04-2020 16:22:17 23 C 20 %
3406 20-04-2020 16:32:17 23.5 C 20 %
3407 20-04-2020 16:42:17 23.6 C 20 %
3408 20-04-2020 16:52:17 23.4 C 20 %
3409 20-04-2020 17:02:17 23.7 C 20 %
3410 20-04-2020 17:12:17 22.3 C 20 %
3411 20-04-2020 17:22:17 21.6 C 20 %
3412 20-04-2020 17:32:17 20.4 C 20 %
3413 20-04-2020 17:42:17 22.4 C 20 %
3414 20-04-2020 17:52:17 20.9 C 20 %
3415 20-04-2020 18:02:18 19.1 C 20 %
3416 20-04-2020 18:12:18 19 C 20 %
3417 20-04-2020 18:22:18 18.5 C 20 %
3418 20-04-2020 18:32:17 18.4 C 20 %
3419 20-04-2020 18:42:18 18.2 C 20 %
3420 20-04-2020 18:52:18 18.3 C 20 %
3421 20-04-2020 19:02:17 17.8 C 20 %
3422 20-04-2020 19:12:17 17.6 C 20 %
3423 20-04-2020 19:22:17 17.2 C 20 %
3424 20-04-2020 19:32:17 17 C 20 %
3425 20-04-2020 19:42:17 16.6 C 20 %
Sensor: Nr:Datum:Temp:Feuchte:
Aussen-T/F 3426 20-04-2020 19:52:17 16.3 C 20 %
3427 20-04-2020 20:02:17 16 C 20 %
3428 20-04-2020 20:12:17 15.6 C 20 %
3429 20-04-2020 20:22:17 15 C 20 %
3430 20-04-2020 20:32:17 14.4 C 20 %
3431 20-04-2020 20:42:17 14.5 C 20 %
3432 20-04-2020 20:52:17 13.8 C 20 %
3433 20-04-2020 21:02:17 13.7 C 20 %
3434 20-04-2020 21:12:17 12.9 C 20 %
3435 20-04-2020 21:22:17 12.6 C 20 %
3436 20-04-2020 21:32:17 12 C 20 %
3437 20-04-2020 21:42:17 12.2 C 20 %
3438 20-04-2020 21:52:17 12.6 C 20 %
3439 20-04-2020 22:02:17 11.8 C 20 %
3440 20-04-2020 22:12:17 11.9 C 20 %
3441 20-04-2020 22:22:17 12.1 C 20 %
3442 20-04-2020 22:32:17 12.2 C 20 %
3443 20-04-2020 22:42:17 11.9 C 20 %
3444 20-04-2020 22:52:18 11.5 C 20 %
3445 20-04-2020 23:02:17 11.5 C 20 %
3446 20-04-2020 23:12:17 11.6 C 20 %
3447 20-04-2020 23:22:17 11 C 20 %
3448 20-04-2020 23:32:18 11.6 C 20 %
3449 20-04-2020 23:42:18 11 C 20 %
3450 20-04-2020 23:52:17 11 C 20 %
Sensor: Nr:Datum:Temp:Feuchte:
Aussen-T/F 3451 21-04-2020 00:02:17 10.9 C 20 %
3452 21-04-2020 00:12:17 10.3 C 20 %
3453 21-04-2020 00:22:17 10.4 C 20 %
3454 21-04-2020 00:32:17 9.9 C 20 %
3455 21-04-2020 00:42:17 10.5 C 20 %
3456 21-04-2020 00:52:17 10 C 20 %
3457 21-04-2020 01:02:18 9.4 C 20 %
3458 21-04-2020 01:12:18 8.9 C 20 %
3459 21-04-2020 01:22:18 9 C 20 %
3460 21-04-2020 01:32:18 8.9 C 20 %
3461 21-04-2020 01:42:18 9.2 C 20 %
3462 21-04-2020 01:52:17 8.4 C 20 %
3463 21-04-2020 02:02:17 9.2 C 20 %
3464 21-04-2020 02:12:18 9.1 C 20 %
3465 21-04-2020 02:22:17 9.1 C 20 %
3466 21-04-2020 02:32:18 8.9 C 20 %
3467 21-04-2020 02:42:18 9.2 C 20 %
3468 21-04-2020 02:52:17 9 C 20 %
3469 21-04-2020 03:02:17 9.3 C 20 %
3470 21-04-2020 03:12:17 9.1 C 20 %
3471 21-04-2020 03:22:18 9.2 C 20 %
3472 21-04-2020 03:32:17 9.1 C 20 %
3473 21-04-2020 03:42:17 8.3 C 20 %
3474 21-04-2020 03:52:18 8.6 C 20 %
3475 21-04-2020 04:02:18 8.1 C 20 %
Sensor: Nr:Datum:Temp:Feuchte:
Aussen-T/F 3476 21-04-2020 04:12:18 7.4 C 23 %
3477 21-04-2020 04:22:17 7.8 C 20 %
3478 21-04-2020 04:32:17 7.7 C 23 %
3479 21-04-2020 04:42:17 7.5 C 25 %
3480 21-04-2020 04:52:17 7.5 C 25 %
3481 21-04-2020 05:02:17 7.1 C 25 %
3482 21-04-2020 05:12:17 7.7 C 25 %
3483 21-04-2020 05:22:17 7.3 C 25 %
3484 21-04-2020 05:32:18 7 C 25 %
3485 21-04-2020 05:42:18 6.8 C 26 %
3486 21-04-2020 05:52:17 6.5 C 27 %
3487 21-04-2020 06:02:17 6.9 C 27 %
3488 21-04-2020 06:12:17 6.6 C 27 %
3489 21-04-2020 06:22:18 6.6 C 27 %
3490 21-04-2020 06:32:18 6.3 C 28 %
3491 21-04-2020 06:42:18 6.4 C 28 %
3492 21-04-2020 06:52:17 6.3 C 29 %
3493 21-04-2020 07:02:18 6.1 C 30 %
3494 21-04-2020 07:12:18 6.2 C 29 %
3495 21-04-2020 07:22:17 6.3 C 30 %
3496 21-04-2020 07:32:17 6.5 C 30 %
3497 21-04-2020 07:42:17 7.3 C 27 %
3498 21-04-2020 07:52:17 6.9 C 29 %
3499 21-04-2020 08:02:17 7.4 C 27 %
3500 21-04-2020 08:12:17 7.7 C 26 %
Sensor: Nr:Datum:Temp:Feuchte:
Aussen-T/F 3501 21-04-2020 08:22:17 7.6 C 26 %
3502 21-04-2020 08:32:17 7.2 C 28 %
3503 21-04-2020 08:42:18 7.5 C 27 %
3504 21-04-2020 08:52:17 8.3 C 27 %
3505 21-04-2020 09:02:17 8.7 C 25 %
3506 21-04-2020 09:12:17 9.2 C 23 %
3507 21-04-2020 09:22:17 9.7 C 21 %
3508 21-04-2020 09:32:17 10.2 C 20 %
3509 21-04-2020 09:42:17 10.7 C 20 %
3510 21-04-2020 09:52:17 10.9 C 20 %
3511 21-04-2020 10:02:17 10.9 C 20 %
3512 21-04-2020 10:12:17 11.7 C 20 %
3513 21-04-2020 10:22:17 12.2 C 20 %
3514 21-04-2020 10:32:17 12.8 C 20 %
3515 21-04-2020 10:42:17 13.2 C 20 %
3516 21-04-2020 10:52:17 13.5 C 20 %
3517 21-04-2020 11:02:17 13.9 C 20 %
3518 21-04-2020 11:12:17 14.6 C 20 %
3519 21-04-2020 11:22:17 14.6 C 20 %
3520 21-04-2020 11:32:18 14.7 C 20 %
3521 21-04-2020 11:42:18 15.2 C 20 %
3522 21-04-2020 11:52:18 15.7 C 20 %
3523 21-04-2020 12:02:17 16.4 C 20 %
3524 21-04-2020 12:12:18 16.1 C 20 %
3525 21-04-2020 12:22:17 16.1 C 20 %
Sensor: Nr:Datum:Temp:Feuchte:
Aussen-T/F 3526 21-04-2020 12:32:17 16.2 C 20 %
3527 21-04-2020 12:42:17 16.4 C 20 %
3528 21-04-2020 12:52:17 16.6 C 20 %
3529 21-04-2020 13:02:17 16.9 C 20 %
3530 21-04-2020 13:12:17 17.4 C 20 %
3531 21-04-2020 13:22:17 17.2 C 20 %
3532 21-04-2020 13:32:17 17.3 C 20 %
3533 21-04-2020 13:42:17 17.9 C 20 %
3534 21-04-2020 13:52:17 18.1 C 20 %
3535 21-04-2020 14:02:17 18.5 C 20 %
3536 21-04-2020 14:12:17 19 C 20 %
3537 21-04-2020 14:22:17 19.4 C 20 %
3538 21-04-2020 14:32:17 22 C 20 %
3539 21-04-2020 14:42:17 24.4 C 20 %
3540 21-04-2020 14:52:17 24.2 C 20 %
3541 21-04-2020 15:02:17 24.5 C 20 %
3542 21-04-2020 15:12:17 22.2 C 20 %
3543 21-04-2020 15:22:17 23.7 C 20 %
3544 21-04-2020 15:32:18 23.2 C 20 %
3545 21-04-2020 15:42:18 24 C 20 %
3546 21-04-2020 15:52:17 23.4 C 20 %
3547 21-04-2020 16:02:18 22.8 C 20 %
3548 21-04-2020 16:12:18 23.2 C 20 %
3549 21-04-2020 16:22:17 22.9 C 20 %
3550 21-04-2020 16:32:17 23.2 C 20 %
Sensor: Nr:Datum:Temp:Feuchte:
Aussen-T/F 3551 21-04-2020 16:42:17 24.3 C 20 %
3552 21-04-2020 16:52:17 22.8 C 20 %
3553 21-04-2020 17:02:17 23.6 C 20 %
3554 21-04-2020 17:12:17 24.8 C 20 %
3555 21-04-2020 17:22:18 22.8 C 20 %
3556 21-04-2020 17:32:17 21.9 C 20 %
3557 21-04-2020 17:42:17 22.3 C 20 %
3558 21-04-2020 17:52:17 22.9 C 20 %
3559 21-04-2020 18:02:18 21.1 C 20 %
3560 21-04-2020 18:12:18 20.9 C 20 %
3561 21-04-2020 18:22:17 20.5 C 20 %
3562 21-04-2020 18:32:17 20.3 C 20 %
3563 21-04-2020 18:42:17 20 C 20 %
3564 21-04-2020 18:52:18 20 C 20 %
3565 21-04-2020 19:02:17 19.6 C 20 %
3566 21-04-2020 19:12:17 19.4 C 20 %
3567 21-04-2020 19:22:17 19.1 C 20 %
3568 21-04-2020 19:32:18 18.9 C 20 %
3569 21-04-2020 19:42:18 18.7 C 20 %
3570 21-04-2020 19:52:17 18.3 C 20 %
3571 21-04-2020 20:02:17 17.9 C 20 %
3572 21-04-2020 20:12:17 17.4 C 20 %
3573 21-04-2020 20:22:17 16.7 C 20 %
3574 21-04-2020 20:32:17 16.2 C 20 %
3575 21-04-2020 20:42:17 15.5 C 20 %
Sensor: Nr:Datum:Temp:Feuchte:
Aussen-T/F 3576 21-04-2020 20:52:17 14.8 C 20 %
3577 21-04-2020 21:02:18 14.2 C 20 %
3578 21-04-2020 21:12:18 14.5 C 20 %
3579 21-04-2020 21:22:17 14.1 C 20 %
3580 21-04-2020 21:32:17 13.9 C 20 %
3581 21-04-2020 21:42:17 13.2 C 20 %
3582 21-04-2020 21:52:18 12.9 C 20 %
3583 21-04-2020 22:02:17 13.2 C 20 %
3584 21-04-2020 22:12:17 13 C 20 %
3585 21-04-2020 22:22:17 13.4 C 20 %
3586 21-04-2020 22:32:17 12.6 C 20 %
3587 21-04-2020 22:42:17 12 C 20 %
3588 21-04-2020 22:52:18 11.8 C 20 %
3589 21-04-2020 23:02:18 12.1 C 20 %
3590 21-04-2020 23:12:18 11.8 C 20 %
3591 21-04-2020 23:22:17 11.5 C 20 %
3592 21-04-2020 23:32:18 11.3 C 20 %
3593 21-04-2020 23:42:18 11.3 C 20 %
3594 21-04-2020 23:52:18 11.1 C 20 %
3595 22-04-2020 00:02:18 11.1 C 20 %
3596 22-04-2020 00:12:18 10.6 C 20 %
3597 22-04-2020 00:22:17 11.1 C 20 %
3598 22-04-2020 00:32:18 11.4 C 20 %
3599 22-04-2020 00:42:18 10.9 C 20 %
3600 22-04-2020 00:52:17 11 C 20 %
Sensor: Nr:Datum:Temp:Feuchte:
Aussen-T/F 3601 22-04-2020 01:02:17 10.8 C 20 %
3602 22-04-2020 01:12:17 10 C 21 %
3603 22-04-2020 01:22:17 9.9 C 25 %
3604 22-04-2020 01:32:18 9.7 C 25 %
3605 22-04-2020 01:42:18 10.2 C 21 %
3606 22-04-2020 01:52:17 9.9 C 23 %
3607 22-04-2020 02:02:17 9.9 C 23 %
3608 22-04-2020 02:12:17 9.8 C 25 %
3609 22-04-2020 02:22:17 9.5 C 25 %
3610 22-04-2020 02:32:17 9.3 C 25 %
3611 22-04-2020 02:42:17 9.7 C 25 %
3612 22-04-2020 02:52:17 9.3 C 25 %
3613 22-04-2020 03:02:17 9.5 C 25 %
3614 22-04-2020 03:12:17 9 C 25 %
3615 22-04-2020 03:22:18 8.8 C 26 %
3616 22-04-2020 03:32:18 8.5 C 27 %
3617 22-04-2020 03:42:18 8.4 C 27 %
3618 22-04-2020 03:52:17 8.3 C 27 %
3619 22-04-2020 04:02:18 8.4 C 27 %
3620 22-04-2020 04:12:18 8.3 C 27 %
3621 22-04-2020 04:22:17 8 C 27 %
3622 22-04-2020 04:32:18 7.9 C 27 %
3623 22-04-2020 04:42:18 7.9 C 27 %
3624 22-04-2020 04:52:17 7.4 C 28 %
3625 22-04-2020 05:02:18 7.5 C 28 %
Sensor: Nr:Datum:Temp:Feuchte:
Aussen-T/F 3626 22-04-2020 05:12:18 7.3 C 28 %
3627 22-04-2020 05:22:17 7.1 C 29 %
3628 22-04-2020 05:32:17 7.1 C 29 %
3629 22-04-2020 05:42:18 6.9 C 30 %
3630 22-04-2020 05:52:17 6.7 C 30 %
3631 22-04-2020 06:02:18 6.7 C 30 %
3632 22-04-2020 06:12:18 6.1 C 31 %
3633 22-04-2020 06:22:17 5.8 C 32 %
3634 22-04-2020 06:32:17 5.6 C 33 %
3635 22-04-2020 06:42:17 5.3 C 35 %
3636 22-04-2020 06:52:17 5.6 C 35 %
3637 22-04-2020 07:02:17 5.6 C 35 %
3638 22-04-2020 07:12:17 5.4 C 35 %
3639 22-04-2020 07:22:18 5.9 C 35 %
3640 22-04-2020 07:32:17 5.5 C 35 %
3641 22-04-2020 07:42:17 5.7 C 35 %
3642 22-04-2020 07:52:17 5.9 C 35 %
3643 22-04-2020 08:02:17 6.5 C 34 %
3644 22-04-2020 08:12:17 6.6 C 34 %
3645 22-04-2020 08:22:17 7 C 33 %
3646 22-04-2020 08:32:17 7.5 C 32 %
3647 22-04-2020 08:42:17 8 C 31 %
3648 22-04-2020 08:52:18 8.9 C 30 %
3649 22-04-2020 09:02:18 9.1 C 30 %
3650 22-04-2020 09:12:18 9.1 C 30 %
Sensor: Nr:Datum:Temp:Feuchte:
Aussen-T/F 3651 22-04-2020 09:22:17 10.1 C 26 %
3652 22-04-2020 09:32:17 10.7 C 26 %
3653 22-04-2020 09:42:17 10.7 C 26 %
3654 22-04-2020 09:52:17 11.3 C 24 %
3655 22-04-2020 10:02:17 11.5 C 24 %
3656 22-04-2020 10:12:17 12.5 C 20 %
3657 22-04-2020 10:22:17 13 C 20 %
3658 22-04-2020 10:32:17 13.7 C 20 %
3659 22-04-2020 10:42:17 14.2 C 20 %
3660 22-04-2020 10:52:17 14.8 C 20 %
3661 22-04-2020 11:02:17 15.4 C 20 %
3662 22-04-2020 11:12:17 15.7 C 20 %
3663 22-04-2020 11:22:17 16.2 C 20 %
3664 22-04-2020 11:32:17 16.4 C 20 %
3665 22-04-2020 11:42:17 17.1 C 20 %
3666 22-04-2020 11:52:18 17.1 C 20 %
3667 22-04-2020 12:02:18 17.9 C 20 %
3668 22-04-2020 12:12:18 17.6 C 20 %
3669 22-04-2020 12:22:17 17.7 C 20 %
3670 22-04-2020 12:32:17 17.7 C 20 %
3671 22-04-2020 12:42:17 17.7 C 20 %
3672 22-04-2020 12:52:18 18 C 20 %
3673 22-04-2020 13:02:17 18.6 C 20 %
3674 22-04-2020 13:12:17 19.3 C 20 %
3675 22-04-2020 13:22:17 19 C 20 %
Sensor: Nr:Datum:Temp:Feuchte:
Aussen-T/F 3676 22-04-2020 13:32:17 18.9 C 20 %
3677 22-04-2020 13:42:17 19.1 C 20 %
3678 22-04-2020 13:52:17 19.4 C 20 %
3679 22-04-2020 14:02:17 19.8 C 20 %
3680 22-04-2020 14:12:17 20.3 C 20 %
3681 22-04-2020 14:22:17 21.2 C 20 %
3682 22-04-2020 14:32:17 25.4 C 20 %
3683 22-04-2020 14:42:17 27.1 C 20 %
3684 22-04-2020 14:52:17 25.8 C 20 %
3685 22-04-2020 15:02:17 24.9 C 20 %
3686 22-04-2020 15:12:18 26.4 C 20 %
3687 22-04-2020 15:22:17 27.6 C 20 %
3688 22-04-2020 15:32:17 27 C 20 %
3689 22-04-2020 15:42:17 25.4 C 20 %
3690 22-04-2020 15:52:17 25.7 C 20 %
3691 22-04-2020 16:02:17 25.3 C 20 %
3692 22-04-2020 16:12:17 27.2 C 20 %
3693 22-04-2020 16:22:17 26.8 C 20 %
3694 22-04-2020 16:32:18 27.7 C 20 %
3695 22-04-2020 16:42:18 25.2 C 20 %
3696 22-04-2020 16:52:17 26.3 C 20 %
3697 22-04-2020 17:02:17 25.2 C 20 %
3698 22-04-2020 17:12:17 24.6 C 20 %
3699 22-04-2020 17:22:17 25.1 C 20 %
3700 22-04-2020 17:32:17 25.5 C 20 %
Sensor: Nr:Datum:Temp:Feuchte:
Aussen-T/F 3701 22-04-2020 17:42:17 25.6 C 20 %
3702 22-04-2020 17:52:17 25.2 C 20 %
3703 22-04-2020 18:02:17 23.1 C 20 %
3704 22-04-2020 18:12:17 22 C 20 %
3705 22-04-2020 18:22:17 22.1 C 20 %
3706 22-04-2020 18:32:17 21.9 C 20 %
3707 22-04-2020 18:42:17 21.9 C 20 %
3708 22-04-2020 18:52:17 21.6 C 20 %
3709 22-04-2020 19:02:17 21.1 C 20 %
3710 22-04-2020 19:12:17 21.2 C 20 %
3711 22-04-2020 19:22:17 20.8 C 20 %
3712 22-04-2020 19:32:18 20.4 C 20 %
3713 22-04-2020 19:42:18 20.3 C 20 %
3714 22-04-2020 19:52:17 20 C 20 %
3715 22-04-2020 20:02:18 19.4 C 20 %
3716 22-04-2020 20:12:18 18.4 C 20 %
3717 22-04-2020 20:22:17 17 C 20 %
3718 22-04-2020 20:32:17 16.3 C 20 %
3719 22-04-2020 20:42:17 16.2 C 20 %
3720 22-04-2020 20:52:17 15.9 C 20 %
3721 22-04-2020 21:02:17 15.7 C 20 %
3722 22-04-2020 21:12:17 15 C 20 %
3723 22-04-2020 21:22:17 14.6 C 20 %
3724 22-04-2020 21:32:17 14.4 C 20 %
3725 22-04-2020 21:42:17 14.4 C 20 %
Sensor: Nr:Datum:Temp:Feuchte:
Aussen-T/F 3726 22-04-2020 21:52:17 14.1 C 20 %
3727 22-04-2020 22:02:17 13.7 C 20 %
3728 22-04-2020 22:12:17 13.8 C 20 %
3729 22-04-2020 22:22:17 14.2 C 20 %
3730 22-04-2020 22:32:17 13.6 C 20 %
3731 22-04-2020 22:42:17 13.5 C 20 %
3732 22-04-2020 22:52:18 13.5 C 20 %
3733 22-04-2020 23:02:17 13.7 C 20 %
3734 22-04-2020 23:12:17 13.5 C 20 %
3735 22-04-2020 23:22:17 13.2 C 20 %
3736 22-04-2020 23:32:17 12.9 C 20 %
3737 22-04-2020 23:42:17 13.2 C 20 %
3738 22-04-2020 23:52:18 12.8 C 20 %
3739 23-04-2020 00:02:17 12.6 C 20 %
3740 23-04-2020 00:12:17 12.4 C 20 %
3741 23-04-2020 00:22:17 12.4 C 20 %
3742 23-04-2020 00:32:17 12.2 C 20 %
3743 23-04-2020 00:42:17 12.2 C 20 %
3744 23-04-2020 00:52:17 12.3 C 20 %
3745 23-04-2020 01:02:17 12.1 C 20 %
3746 23-04-2020 01:12:17 11.9 C 20 %
3747 23-04-2020 01:22:18 11 C 20 %
3748 23-04-2020 01:32:17 12 C 20 %
3749 23-04-2020 01:42:17 10.9 C 20 %
3750 23-04-2020 01:52:17 10.5 C 22 %
Sensor: Nr:Datum:Temp:Feuchte:
Aussen-T/F 3751 23-04-2020 02:02:17 9.7 C 25 %
3752 23-04-2020 02:12:17 9.7 C 26 %
3753 23-04-2020 02:22:18 9.7 C 25 %
3754 23-04-2020 02:32:17 9.8 C 26 %
3755 23-04-2020 02:42:17 9.6 C 25 %
3756 23-04-2020 02:52:17 9.3 C 26 %
3757 23-04-2020 03:02:18 9.2 C 26 %
3758 23-04-2020 03:12:18 9.2 C 26 %
3759 23-04-2020 03:22:17 9.4 C 26 %
3760 23-04-2020 03:32:17 9.4 C 26 %
3761 23-04-2020 03:42:17 9.3 C 26 %
3762 23-04-2020 03:52:17 9.1 C 26 %
3763 23-04-2020 04:02:17 8.6 C 27 %
3764 23-04-2020 04:12:17 8.1 C 29 %
3765 23-04-2020 04:22:17 7.5 C 30 %
3766 23-04-2020 04:32:17 7.2 C 32 %
3767 23-04-2020 04:42:17 7.2 C 32 %
3768 23-04-2020 04:52:17 6.9 C 33 %
3769 23-04-2020 05:02:17 6.4 C 34 %
3770 23-04-2020 05:12:17 6.2 C 34 %
3771 23-04-2020 05:22:17 5.9 C 35 %
3772 23-04-2020 05:32:17 6 C 35 %
3773 23-04-2020 05:42:17 6 C 35 %
3774 23-04-2020 05:52:17 5.8 C 36 %
3775 23-04-2020 06:02:17 5.8 C 36 %
Sensor: Nr:Datum:Temp:Feuchte:
Aussen-T/F 3776 23-04-2020 06:12:18 5.4 C 36 %
3777 23-04-2020 06:22:17 5.4 C 36 %
3778 23-04-2020 06:32:18 5.3 C 36 %
3779 23-04-2020 06:42:18 5.3 C 36 %
3780 23-04-2020 06:52:17 5.3 C 36 %
3781 23-04-2020 07:02:17 5.3 C 37 %
3782 23-04-2020 07:12:17 5.3 C 37 %
3783 23-04-2020 07:22:17 5.2 C 37 %
3784 23-04-2020 07:32:17 5.2 C 39 %
3785 23-04-2020 07:42:17 5.2 C 39 %
3786 23-04-2020 07:52:17 5.3 C 39 %
3787 23-04-2020 08:02:17 5.4 C 39 %
3788 23-04-2020 08:12:18 5.5 C 39 %
3789 23-04-2020 08:22:18 5.9 C 39 %
3790 23-04-2020 08:32:18 6.2 C 38 %
3791 23-04-2020 08:42:18 6.5 C 38 %
3792 23-04-2020 08:52:17 6.9 C 38 %
3793 23-04-2020 09:02:17 7.7 C 36 %
3794 23-04-2020 09:12:17 8.1 C 36 %
3795 23-04-2020 09:22:17 8.6 C 35 %
3796 23-04-2020 09:32:17 9.2 C 35 %
3797 23-04-2020 09:42:17 9.7 C 34 %
3798 23-04-2020 09:52:17 9.9 C 34 %
3799 23-04-2020 10:02:18 10.5 C 33 %
3800 23-04-2020 10:12:18 11 C 32 %
Sensor: Nr:Datum:Temp:Feuchte:
Aussen-T/F 3801 23-04-2020 10:22:17 11.8 C 30 %
3802 23-04-2020 10:32:17 12.7 C 28 %
3803 23-04-2020 10:42:17 13.2 C 27 %
3804 23-04-2020 10:52:17 14.8 C 22 %
3805 23-04-2020 11:02:18 16 C 20 %
3806 23-04-2020 11:12:18 16.3 C 20 %
3807 23-04-2020 11:22:17 17.2 C 20 %
3808 23-04-2020 11:32:17 17.4 C 20 %
3809 23-04-2020 11:42:17 17.7 C 20 %
3810 23-04-2020 11:52:18 17.9 C 20 %
3811 23-04-2020 12:02:17 18.9 C 20 %
3812 23-04-2020 12:12:17 18.2 C 20 %
3813 23-04-2020 12:22:17 18 C 20 %
3814 23-04-2020 12:32:18 18.5 C 20 %
3815 23-04-2020 12:42:18 18.3 C 20 %
3816 23-04-2020 12:52:17 18.4 C 20 %
3817 23-04-2020 13:02:17 19.2 C 20 %
3818 23-04-2020 13:12:17 19.5 C 20 %
3819 23-04-2020 13:22:17 19.1 C 20 %
3820 23-04-2020 13:32:17 19.2 C 20 %
3821 23-04-2020 13:42:17 19.7 C 20 %
3822 23-04-2020 13:52:17 20.1 C 20 %
3823 23-04-2020 14:02:17 20.4 C 20 %
3824 23-04-2020 14:12:17 20.7 C 20 %
3825 23-04-2020 14:22:17 21.6 C 20 %
Sensor: Nr:Datum:Temp:Feuchte:
Aussen-T/F 3826 23-04-2020 14:32:17 27.4 C 20 %
3827 23-04-2020 14:42:17 29.1 C 20 %
3828 23-04-2020 14:52:17 29 C 20 %
3829 23-04-2020 15:02:17 29.3 C 20 %
3830 23-04-2020 15:12:17 29.5 C 20 %
3831 23-04-2020 15:22:18 28.8 C 20 %
3832 23-04-2020 15:32:17 30.3 C 20 %
3833 23-04-2020 15:42:17 31.4 C 20 %
3834 23-04-2020 15:52:17 28.9 C 20 %
3835 23-04-2020 16:02:18 27.7 C 20 %
3836 23-04-2020 16:12:18 28.1 C 20 %
3837 23-04-2020 16:22:17 28.4 C 20 %
3838 23-04-2020 16:32:18 28.3 C 20 %
3839 23-04-2020 16:42:18 29 C 20 %
3840 23-04-2020 16:52:17 29.2 C 20 %
3841 23-04-2020 17:02:17 31.6 C 20 %
3842 23-04-2020 17:12:18 28.2 C 20 %
3843 23-04-2020 17:22:17 28.6 C 20 %
3844 23-04-2020 17:32:18 28.1 C 20 %
3845 23-04-2020 17:42:18 28 C 20 %
3846 23-04-2020 17:52:18 30.1 C 20 %
3847 23-04-2020 18:02:17 27.1 C 20 %
3848 23-04-2020 18:12:17 24.5 C 20 %
3849 23-04-2020 18:22:17 23.9 C 20 %
3850 23-04-2020 18:32:17 23.6 C 20 %
Sensor: Nr:Datum:Temp:Feuchte:
Aussen-T/F 3851 23-04-2020 18:42:17 23.7 C 20 %
3852 23-04-2020 18:52:17 23.2 C 20 %
3853 23-04-2020 19:02:17 22.5 C 20 %
3854 23-04-2020 19:12:17 22.4 C 20 %
3855 23-04-2020 19:22:17 22 C 20 %
3856 23-04-2020 19:32:18 21.2 C 20 %
3857 23-04-2020 19:42:18 20 C 20 %
3858 23-04-2020 19:52:17 18.6 C 20 %
3859 23-04-2020 20:02:18 18.6 C 20 %
3860 23-04-2020 20:12:18 17.9 C 20 %
3861 23-04-2020 20:22:17 17.2 C 20 %
3862 23-04-2020 20:32:18 16.5 C 20 %
3863 23-04-2020 20:42:18 15.5 C 20 %
3864 23-04-2020 20:52:18 14.3 C 20 %
3865 23-04-2020 21:02:18 14 C 20 %
3866 23-04-2020 21:12:18 14.1 C 20 %
3867 23-04-2020 21:22:17 13.5 C 20 %
3868 23-04-2020 21:32:17 13.1 C 20 %
3869 23-04-2020 21:42:17 12.9 C 20 %
3870 23-04-2020 21:52:17 12.5 C 20 %
3871 23-04-2020 22:02:17 12 C 23 %
3872 23-04-2020 22:12:17 11.6 C 25 %
3873 23-04-2020 22:22:17 11.5 C 25 %
3874 23-04-2020 22:32:18 11 C 26 %
3875 23-04-2020 22:42:18 11.1 C 26 %
Sensor: Nr:Datum:Temp:Feuchte:
Aussen-T/F 3876 23-04-2020 22:52:18 10.8 C 26 %
3877 23-04-2020 23:02:18 10.4 C 27 %
3878 23-04-2020 23:12:18 10.3 C 27 %
3879 23-04-2020 23:22:18 9.6 C 29 %
3880 23-04-2020 23:32:17 9.6 C 29 %
3881 23-04-2020 23:42:17 9.6 C 29 %
3882 23-04-2020 23:52:17 9.2 C 30 %
3883 24-04-2020 00:02:18 9.2 C 30 %
3884 24-04-2020 00:12:18 9.3 C 30 %
3885 24-04-2020 00:22:17 9.2 C 30 %
3886 24-04-2020 00:32:18 8.6 C 31 %
3887 24-04-2020 00:42:18 8.4 C 31 %
3888 24-04-2020 00:52:17 8.3 C 32 %
3889 24-04-2020 01:02:18 8.1 C 32 %
3890 24-04-2020 01:12:18 8.3 C 33 %
3891 24-04-2020 01:22:17 8.1 C 32 %
3892 24-04-2020 01:32:18 8.1 C 33 %
3893 24-04-2020 01:42:18 8.2 C 33 %
3894 24-04-2020 01:52:17 7.8 C 33 %
3895 24-04-2020 02:02:17 7.5 C 34 %
3896 24-04-2020 02:12:17 7.1 C 34 %
3897 24-04-2020 02:22:17 7 C 35 %
3898 24-04-2020 02:32:18 7.2 C 35 %
3899 24-04-2020 02:42:18 6.8 C 36 %
3900 24-04-2020 02:52:18 7 C 35 %
Sensor: Nr:Datum:Temp:Feuchte:
Aussen-T/F 3901 24-04-2020 03:02:17 7 C 35 %
3902 24-04-2020 03:12:18 6.8 C 36 %
3903 24-04-2020 03:22:17 6.2 C 36 %
3904 24-04-2020 03:32:17 6.4 C 37 %
3905 24-04-2020 03:42:17 6.3 C 37 %
3906 24-04-2020 03:52:17 6.2 C 37 %
3907 24-04-2020 04:02:17 6.2 C 37 %
3908 24-04-2020 04:12:17 6.1 C 37 %
3909 24-04-2020 04:22:17 6 C 37 %
3910 24-04-2020 04:32:17 5.9 C 38 %
3911 24-04-2020 04:42:17 6.2 C 38 %
3912 24-04-2020 04:52:17 6.3 C 38 %
3913 24-04-2020 05:02:17 6.2 C 38 %
3914 24-04-2020 05:12:17 6 C 38 %
3915 24-04-2020 05:22:17 5.9 C 39 %
3916 24-04-2020 05:32:18 6.3 C 38 %
3917 24-04-2020 05:42:18 6.2 C 38 %
3918 24-04-2020 05:52:17 6.1 C 38 %
3919 24-04-2020 06:02:17 6.1 C 38 %
3920 24-04-2020 06:12:17 5.9 C 39 %
3921 24-04-2020 06:22:18 6 C 39 %
3922 24-04-2020 06:32:17 6 C 38 %
3923 24-04-2020 06:42:17 6 C 39 %
3924 24-04-2020 06:52:17 6.2 C 39 %
3925 24-04-2020 07:02:17 6.3 C 38 %
Sensor: Nr:Datum:Temp:Feuchte:
Aussen-T/F 3926 24-04-2020 07:12:17 6.3 C 39 %
3927 24-04-2020 07:22:17 6.3 C 39 %
3928 24-04-2020 07:32:18 6.3 C 39 %
3929 24-04-2020 07:42:18 6.5 C 39 %
3930 24-04-2020 07:52:17 6.7 C 39 %
3931 24-04-2020 08:02:18 6.8 C 39 %
3932 24-04-2020 08:12:18 7.3 C 38 %
3933 24-04-2020 08:22:17 8.2 C 36 %
3934 24-04-2020 08:32:17 9 C 35 %
3935 24-04-2020 08:42:17 9.6 C 35 %
3936 24-04-2020 08:52:17 9.9 C 34 %
3937 24-04-2020 09:02:17 10.4 C 33 %
3938 24-04-2020 09:12:18 11 C 32 %
3939 24-04-2020 09:22:17 11.5 C 31 %
3940 24-04-2020 09:32:18 11.9 C 31 %
3941 24-04-2020 09:42:18 12.5 C 30 %
3942 24-04-2020 09:52:17 12.4 C 30 %
3943 24-04-2020 10:02:17 12.8 C 30 %
3944 24-04-2020 10:12:17 13.1 C 29 %
3945 24-04-2020 10:22:17 14 C 28 %
3946 24-04-2020 10:32:17 14.2 C 28 %
3947 24-04-2020 10:42:17 14.6 C 27 %
3948 24-04-2020 10:52:17 15 C 26 %
3949 24-04-2020 11:02:17 15.6 C 26 %
3950 24-04-2020 11:12:18 15.6 C 26 %
Sensor: Nr:Datum:Temp:Feuchte:
Aussen-T/F 3951 24-04-2020 11:22:17 16.5 C 25 %
3952 24-04-2020 11:32:18 16.6 C 24 %
3953 24-04-2020 11:42:18 17 C 24 %
3954 24-04-2020 11:52:17 17 C 23 %
3955 24-04-2020 12:02:17 17.9 C 23 %
3956 24-04-2020 12:12:17 18.1 C 21 %
3957 24-04-2020 12:22:17 18.2 C 21 %
3958 24-04-2020 12:32:18 18.4 C 21 %
3959 24-04-2020 12:42:18 18.9 C 20 %
3960 24-04-2020 12:52:18 19.3 C 20 %
3961 24-04-2020 13:02:17 19.6 C 20 %
3962 24-04-2020 13:12:17 20.2 C 20 %
3963 24-04-2020 13:22:17 20.5 C 20 %
3964 24-04-2020 13:32:18 20.7 C 20 %
3965 24-04-2020 13:42:18 21 C 20 %
3966 24-04-2020 13:52:17 21.3 C 20 %
3967 24-04-2020 14:02:17 21.8 C 20 %
3968 24-04-2020 14:12:17 22.2 C 20 %
3969 24-04-2020 14:22:17 23.5 C 20 %
3970 24-04-2020 14:32:17 26.8 C 20 %
3971 24-04-2020 14:42:17 28.5 C 20 %
3972 24-04-2020 14:52:17 27.1 C 20 %
3973 24-04-2020 15:02:18 28 C 20 %
3974 24-04-2020 15:12:18 31 C 20 %
3975 24-04-2020 15:22:17 27.6 C 20 %
Sensor: Nr:Datum:Temp:Feuchte:
Aussen-T/F 3976 24-04-2020 15:32:17 28.1 C 20 %
3977 24-04-2020 15:42:18 27.5 C 20 %
3978 24-04-2020 15:52:17 28.8 C 20 %
3979 24-04-2020 16:02:18 28.7 C 20 %
3980 24-04-2020 16:12:18 28.7 C 20 %
3981 24-04-2020 16:22:18 27.2 C 20 %
3982 24-04-2020 16:32:18 26.8 C 20 %
3983 24-04-2020 16:42:18 28 C 20 %
3984 24-04-2020 16:52:17 26.3 C 20 %
3985 24-04-2020 17:02:17 26 C 20 %
3986 24-04-2020 17:12:17 26.7 C 20 %
3987 24-04-2020 17:22:18 26.4 C 20 %
3988 24-04-2020 17:32:18 26.3 C 20 %
3989 24-04-2020 17:42:18 24.2 C 20 %
3990 24-04-2020 17:52:17 26 C 20 %
3991 24-04-2020 18:02:18 24.1 C 20 %
3992 24-04-2020 18:12:18 22.3 C 20 %
3993 24-04-2020 18:22:17 22.2 C 20 %
3994 24-04-2020 18:32:17 22 C 20 %
3995 24-04-2020 18:42:17 20.9 C 20 %
3996 24-04-2020 18:52:18 21 C 20 %
3997 24-04-2020 19:02:17 20.5 C 20 %
3998 24-04-2020 19:12:17 20.3 C 20 %
3999 24-04-2020 19:23:17 20 C 20 %
4000 24-04-2020 19:32:17 19.9 C 20 %
Sensor: Nr:Datum:Temp:Feuchte:
Aussen-T/F 4001 24-04-2020 19:42:18 19.6 C 20 %
4002 24-04-2020 19:53:17 19.2 C 20 %
4003 24-04-2020 20:02:18 19 C 20 %
4004 24-04-2020 20:12:18 18.5 C 20 %
4005 24-04-2020 20:22:17 17.7 C 20 %
4006 24-04-2020 20:32:18 17.3 C 20 %
4007 24-04-2020 20:42:18 16.8 C 20 %
4008 24-04-2020 20:52:18 16.1 C 20 %
4009 24-04-2020 21:02:18 15.9 C 20 %
4010 24-04-2020 21:12:18 15.5 C 20 %
4011 24-04-2020 21:23:17 15.4 C 20 %
4012 24-04-2020 21:33:17 15 C 20 %
4013 24-04-2020 21:42:17 15.1 C 20 %
4014 24-04-2020 21:52:17 14.7 C 20 %
4015 24-04-2020 22:03:17 14.4 C 20 %
4016 24-04-2020 22:13:17 14.1 C 20 %
4017 24-04-2020 22:22:18 14.2 C 20 %
4018 24-04-2020 22:32:18 14.4 C 20 %
4019 24-04-2020 22:42:18 13.9 C 20 %
4020 24-04-2020 22:52:18 13.3 C 20 %
4021 24-04-2020 23:02:18 13.2 C 20 %
4022 24-04-2020 23:12:18 13.2 C 20 %
4023 24-04-2020 23:22:17 12.7 C 20 %
4024 24-04-2020 23:33:17 12.5 C 20 %
4025 24-04-2020 23:43:17 13 C 20 %
Sensor: Nr:Datum:Temp:Feuchte:
Aussen-T/F 4026 24-04-2020 23:53:17 12.4 C 20 %
4027 25-04-2020 00:02:18 12.6 C 20 %
4028 25-04-2020 00:12:18 12.7 C 20 %
4029 25-04-2020 00:23:17 12.6 C 20 %
4030 25-04-2020 00:32:18 12.3 C 20 %
4031 25-04-2020 00:42:18 11.8 C 20 %
4032 25-04-2020 00:52:18 11.7 C 20 %
4033 25-04-2020 01:03:17 11.7 C 20 %
4034 25-04-2020 01:12:17 11.7 C 20 %
4035 25-04-2020 01:23:17 11.3 C 22 %
4036 25-04-2020 01:33:17 11 C 25 %
4037 25-04-2020 01:43:17 11.1 C 25 %
4038 25-04-2020 01:52:17 11.1 C 25 %
4039 25-04-2020 02:02:18 10.4 C 26 %
4040 25-04-2020 02:12:18 10.3 C 26 %
4041 25-04-2020 02:23:17 9.7 C 29 %
4042 25-04-2020 02:33:17 9.5 C 29 %
4043 25-04-2020 02:43:17 9.4 C 30 %
4044 25-04-2020 02:53:17 9.8 C 29 %
4045 25-04-2020 03:03:17 10.1 C 28 %
4046 25-04-2020 03:13:17 10 C 28 %
4047 25-04-2020 03:22:18 10 C 28 %
4048 25-04-2020 03:33:17 9.7 C 30 %
4049 25-04-2020 03:43:17 9 C 30 %
4050 25-04-2020 03:53:17 9 C 30 %
Sensor: Nr:Datum:Temp:Feuchte:
Aussen-T/F 4051 25-04-2020 04:02:18 9.3 C 30 %
4052 25-04-2020 04:12:18 8.9 C 30 %
4053 25-04-2020 04:23:17 8.9 C 30 %
4054 25-04-2020 04:33:18 8.7 C 31 %
4055 25-04-2020 04:42:18 8.2 C 32 %
4056 25-04-2020 04:53:17 8.3 C 33 %
4057 25-04-2020 05:03:17 8.1 C 33 %
4058 25-04-2020 05:13:18 7.5 C 35 %
4059 25-04-2020 05:23:18 7 C 36 %
4060 25-04-2020 05:32:18 7.1 C 37 %
4061 25-04-2020 05:42:18 7.2 C 38 %
4062 25-04-2020 05:53:18 7.6 C 38 %
4063 25-04-2020 06:02:18 8 C 36 %
4064 25-04-2020 06:12:18 8.2 C 36 %
4065 25-04-2020 06:23:17 8.3 C 36 %
4066 25-04-2020 06:33:17 8.3 C 36 %
4067 25-04-2020 06:43:18 8.4 C 35 %
4068 25-04-2020 06:53:17 8.3 C 35 %
4069 25-04-2020 07:03:18 8.3 C 35 %
4070 25-04-2020 07:12:18 8.4 C 35 %
4071 25-04-2020 07:23:17 8.3 C 35 %
4072 25-04-2020 07:32:18 8.4 C 35 %
4073 25-04-2020 07:42:18 8.4 C 35 %
4074 25-04-2020 07:52:18 8.4 C 35 %
4075 25-04-2020 08:03:17 8.4 C 34 %
Sensor: Nr:Datum:Temp:Feuchte:
Aussen-T/F 4076 25-04-2020 08:13:17 8.7 C 34 %
4077 25-04-2020 08:23:17 8.6 C 34 %
4078 25-04-2020 08:33:17 8.7 C 34 %
4079 25-04-2020 08:43:17 8.8 C 34 %
4080 25-04-2020 08:53:17 8.8 C 32 %
4081 25-04-2020 09:03:17 9.3 C 32 %
4082 25-04-2020 09:13:17 9.6 C 31 %
4083 25-04-2020 09:23:17 9.7 C 31 %
4084 25-04-2020 09:33:17 9.8 C 31 %
4085 25-04-2020 09:43:17 10.2 C 30 %
4086 25-04-2020 09:53:17 10.4 C 30 %
4087 25-04-2020 10:03:17 10.8 C 30 %
4088 25-04-2020 10:13:17 10.5 C 28 %
4089 25-04-2020 10:23:17 11 C 28 %
4090 25-04-2020 10:32:18 11.1 C 27 %
4091 25-04-2020 10:42:18 10.5 C 27 %
4092 25-04-2020 10:53:17 11.5 C 26 %
4093 25-04-2020 11:03:17 12.4 C 25 %
4094 25-04-2020 11:13:18 12 C 24 %
4095 25-04-2020 11:23:17 10.9 C 25 %
4096 25-04-2020 11:32:18 11.6 C 25 %
4097 25-04-2020 11:42:18 11.2 C 25 %
4098 25-04-2020 11:53:17 11.8 C 25 %
4099 25-04-2020 12:03:18 11.2 C 25 %
4100 25-04-2020 12:13:18 11.5 C 25 %
Sensor: Nr:Datum:Temp:Feuchte:
Aussen-T/F 4101 25-04-2020 12:23:18 11.7 C 25 %
4102 25-04-2020 12:33:17 11.7 C 25 %
4103 25-04-2020 12:43:18 11.4 C 25 %
4104 25-04-2020 12:53:17 12.3 C 24 %
4105 25-04-2020 13:03:17 12.4 C 22 %
4106 25-04-2020 13:13:17 12.5 C 23 %
4107 25-04-2020 13:23:17 13.2 C 21 %
4108 25-04-2020 13:33:17 13.1 C 21 %
4109 25-04-2020 13:43:17 13.2 C 21 %
4110 25-04-2020 13:53:17 13.7 C 20 %
4111 25-04-2020 14:03:17 13.8 C 20 %
4112 25-04-2020 14:13:17 14.1 C 20 %
4113 25-04-2020 14:23:17 15.8 C 20 %
4114 25-04-2020 14:33:17 21 C 20 %
4115 25-04-2020 14:43:17 22.5 C 20 %
4116 25-04-2020 14:53:17 20.7 C 20 %
4117 25-04-2020 15:03:17 23.8 C 20 %
4118 25-04-2020 15:13:17 23.8 C 20 %
4119 25-04-2020 15:23:17 23.7 C 20 %
4120 25-04-2020 15:33:18 25.7 C 20 %
4121 25-04-2020 15:43:18 25.7 C 20 %
4122 25-04-2020 15:53:18 26.3 C 20 %
4123 25-04-2020 16:03:17 23.2 C 20 %
4124 25-04-2020 16:13:17 24.8 C 20 %
4125 25-04-2020 16:23:17 23.9 C 20 %
Sensor: Nr:Datum:Temp:Feuchte:
Aussen-T/F 4126 25-04-2020 16:33:17 25.3 C 20 %
4127 25-04-2020 16:43:17 22.5 C 20 %
4128 25-04-2020 16:53:17 23.9 C 20 %
4129 25-04-2020 17:03:17 25.1 C 20 %
4130 25-04-2020 17:13:17 25.9 C 20 %
4131 25-04-2020 17:23:17 26.4 C 20 %
4132 25-04-2020 17:33:18 27.1 C 20 %
4133 25-04-2020 17:43:18 22.5 C 20 %
4134 25-04-2020 17:53:17 23.3 C 20 %
4135 25-04-2020 18:03:17 20.1 C 20 %
4136 25-04-2020 18:13:17 18.5 C 20 %
4137 25-04-2020 18:23:17 18.6 C 20 %
4138 25-04-2020 18:33:17 18.3 C 20 %
4139 25-04-2020 18:43:17 17.9 C 20 %
4140 25-04-2020 18:53:17 17.7 C 20 %
4141 25-04-2020 19:03:17 17.5 C 20 %
4142 25-04-2020 19:13:17 17.1 C 20 %
4143 25-04-2020 19:23:17 16.9 C 20 %
4144 25-04-2020 19:33:17 16.4 C 20 %
4145 25-04-2020 19:43:18 16.2 C 20 %
4146 25-04-2020 19:53:17 15.7 C 20 %
4147 25-04-2020 20:03:18 15.4 C 20 %
4148 25-04-2020 20:13:18 14.7 C 20 %
4149 25-04-2020 20:23:17 13.9 C 20 %
4150 25-04-2020 20:33:17 13.8 C 20 %
Sensor: Nr:Datum:Temp:Feuchte:
Aussen-T/F 4151 25-04-2020 20:43:17 12.7 C 20 %
4152 25-04-2020 20:53:17 12.4 C 20 %
4153 25-04-2020 21:03:18 12.1 C 20 %
4154 25-04-2020 21:13:18 12 C 20 %
4155 25-04-2020 21:23:17 11.4 C 21 %
4156 25-04-2020 21:33:17 11.1 C 22 %
4157 25-04-2020 21:43:18 11.2 C 21 %
4158 25-04-2020 21:53:17 11 C 22 %
4159 25-04-2020 22:03:17 11 C 22 %
4160 25-04-2020 22:13:17 10.9 C 23 %
4161 25-04-2020 22:23:17 10.1 C 25 %
4162 25-04-2020 22:33:17 10.1 C 25 %
4163 25-04-2020 22:43:17 9.9 C 26 %
4164 25-04-2020 22:53:18 9.8 C 27 %
4165 25-04-2020 23:03:17 9.6 C 27 %
4166 25-04-2020 23:13:17 9.5 C 27 %
4167 25-04-2020 23:23:17 9.1 C 28 %
4168 25-04-2020 23:33:18 8.7 C 30 %
4169 25-04-2020 23:43:18 8.2 C 31 %
4170 25-04-2020 23:53:17 7.7 C 32 %
4171 26-04-2020 00:03:18 7.1 C 33 %
4172 26-04-2020 00:13:18 6.8 C 35 %
4173 26-04-2020 00:23:17 6.6 C 35 %
4174 26-04-2020 00:33:18 6.3 C 35 %
4175 26-04-2020 00:43:18 6.2 C 36 %
Sensor: Nr:Datum:Temp:Feuchte:
Aussen-T/F 4176 26-04-2020 00:53:17 5.9 C 37 %
4177 26-04-2020 01:03:17 5.8 C 37 %
4178 26-04-2020 01:13:18 5.5 C 38 %
4179 26-04-2020 01:23:17 5.6 C 38 %
4180 26-04-2020 01:33:17 5.2 C 38 %
4181 26-04-2020 01:43:17 5.1 C 38 %
4182 26-04-2020 01:53:17 5.1 C 39 %
4183 26-04-2020 02:03:17 4.7 C 40 %
4184 26-04-2020 02:13:17 4.7 C 40 %
4185 26-04-2020 02:23:17 4.6 C 40 %
4186 26-04-2020 02:33:17 4.5 C 40 %
4187 26-04-2020 02:43:17 4.8 C 41 %
4188 26-04-2020 02:53:18 4.7 C 41 %
4189 26-04-2020 03:03:17 4.4 C 41 %
4190 26-04-2020 03:13:18 4.3 C 41 %
4191 26-04-2020 03:23:17 4.1 C 41 %
4192 26-04-2020 03:33:18 4 C 41 %
4193 26-04-2020 03:43:18 3.8 C 42 %
4194 26-04-2020 03:53:17 3.6 C 43 %
4195 26-04-2020 04:03:18 3.9 C 44 %
4196 26-04-2020 04:13:18 3.6 C 43 %
4197 26-04-2020 04:23:17 3.4 C 43 %
4198 26-04-2020 04:33:17 3.2 C 43 %
4199 26-04-2020 04:43:17 3.3 C 44 %
4200 26-04-2020 04:53:17 3.1 C 44 %
Sensor: Nr:Datum:Temp:Feuchte:
Aussen-T/F 4201 26-04-2020 05:03:18 3.1 C 45 %
4202 26-04-2020 05:13:18 3 C 44 %
4203 26-04-2020 05:23:17 2.7 C 45 %
4204 26-04-2020 05:33:17 2.6 C 45 %
4205 26-04-2020 05:43:17 2.7 C 46 %
4206 26-04-2020 05:53:17 2.5 C 46 %
4207 26-04-2020 06:03:17 2.3 C 46 %
4208 26-04-2020 06:13:17 2.4 C 46 %
4209 26-04-2020 06:23:17 2.4 C 46 %
4210 26-04-2020 06:33:17 2.4 C 46 %
4211 26-04-2020 06:43:18 2.3 C 46 %
4212 26-04-2020 06:53:17 2.3 C 46 %
4213 26-04-2020 07:03:17 2.3 C 46 %
4214 26-04-2020 07:13:17 2.6 C 47 %
4215 26-04-2020 07:23:17 2.7 C 47 %
4216 26-04-2020 07:33:17 2.8 C 46 %
4217 26-04-2020 07:43:17 2.8 C 46 %
4218 26-04-2020 07:53:17 2.9 C 47 %
4219 26-04-2020 08:03:17 3.2 C 46 %
4220 26-04-2020 08:13:17 3.4 C 46 %
4221 26-04-2020 08:23:17 3.6 C 46 %
4222 26-04-2020 08:33:17 4 C 45 %
4223 26-04-2020 08:43:17 4.3 C 45 %
4224 26-04-2020 08:53:17 4.5 C 45 %
4225 26-04-2020 09:03:17 4.9 C 45 %
Sensor: Nr:Datum:Temp:Feuchte:
Aussen-T/F 4226 26-04-2020 09:13:17 5.2 C 43 %
4227 26-04-2020 09:23:17 5.8 C 44 %
4228 26-04-2020 09:33:17 6.4 C 42 %
4229 26-04-2020 09:43:17 6.8 C 41 %
4230 26-04-2020 09:53:17 7.4 C 40 %
4231 26-04-2020 10:03:18 7.8 C 39 %
4232 26-04-2020 10:13:18 8.5 C 38 %
4233 26-04-2020 10:23:17 9 C 37 %
4234 26-04-2020 10:33:18 9.6 C 36 %
4235 26-04-2020 10:43:18 10.4 C 35 %
4236 26-04-2020 10:53:17 11.3 C 32 %
4237 26-04-2020 11:03:17 12.2 C 31 %
4238 26-04-2020 11:13:17 12.8 C 29 %
4239 26-04-2020 11:23:17 13.6 C 27 %
4240 26-04-2020 11:33:17 14.1 C 26 %
4241 26-04-2020 11:43:17 14.7 C 25 %
4242 26-04-2020 11:53:17 15.2 C 22 %
4243 26-04-2020 12:03:17 15.2 C 21 %
4244 26-04-2020 12:13:17 15.1 C 20 %
4245 26-04-2020 12:23:18 15.4 C 20 %
4246 26-04-2020 12:33:17 15.9 C 20 %
4247 26-04-2020 12:43:18 15.9 C 20 %
4248 26-04-2020 12:53:17 16.2 C 20 %
4249 26-04-2020 13:03:17 16.5 C 20 %
4250 26-04-2020 13:13:17 16.8 C 20 %
Sensor: Nr:Datum:Temp:Feuchte:
Aussen-T/F 4251 26-04-2020 13:23:18 16.6 C 20 %
4252 26-04-2020 13:33:17 16.8 C 20 %
4253 26-04-2020 13:43:17 17.1 C 20 %
4254 26-04-2020 13:53:17 17.1 C 20 %
4255 26-04-2020 14:03:17 17.4 C 20 %
4256 26-04-2020 14:13:17 18.1 C 20 %
4257 26-04-2020 14:23:17 19.3 C 20 %
4258 26-04-2020 14:33:18 25 C 20 %
4259 26-04-2020 14:43:18 24.8 C 20 %
4260 26-04-2020 14:53:17 26.7 C 20 %
4261 26-04-2020 15:03:18 26.6 C 20 %
4262 26-04-2020 15:13:18 28.3 C 20 %
4263 26-04-2020 15:23:17 29.7 C 20 %
4264 26-04-2020 15:33:17 29.5 C 20 %
4265 26-04-2020 15:43:17 28 C 20 %
4266 26-04-2020 15:53:18 29 C 20 %
4267 26-04-2020 16:03:18 30.5 C 20 %
4268 26-04-2020 16:13:18 27.6 C 20 %
4269 26-04-2020 16:23:17 28.4 C 20 %
4270 26-04-2020 16:33:17 26.5 C 20 %
4271 26-04-2020 16:43:17 30.3 C 20 %
4272 26-04-2020 16:53:17 28.1 C 20 %
4273 26-04-2020 17:03:18 29 C 20 %
4274 26-04-2020 17:13:18 28.3 C 20 %
4275 26-04-2020 17:23:18 27.4 C 20 %
Sensor: Nr:Datum:Temp:Feuchte:
Aussen-T/F 4276 26-04-2020 17:33:18 27.2 C 20 %
4277 26-04-2020 17:43:18 28 C 20 %
4278 26-04-2020 17:53:17 26.5 C 20 %
4279 26-04-2020 18:03:17 25.8 C 20 %
4280 26-04-2020 18:13:17 23.1 C 20 %
4281 26-04-2020 18:23:17 22 C 20 %
4282 26-04-2020 18:33:17 21.9 C 20 %
4283 26-04-2020 18:43:17 21.1 C 20 %
4284 26-04-2020 18:53:17 21.1 C 20 %
4285 26-04-2020 19:03:17 20.9 C 20 %
4286 26-04-2020 19:13:17 20.2 C 20 %
4287 26-04-2020 19:23:17 19.7 C 20 %
4288 26-04-2020 19:33:17 19.5 C 20 %
4289 26-04-2020 19:43:18 19.1 C 20 %
4290 26-04-2020 19:53:17 18.2 C 20 %
4291 26-04-2020 20:03:18 17.3 C 20 %
4292 26-04-2020 20:13:18 16.6 C 20 %
4293 26-04-2020 20:23:17 15.8 C 20 %
4294 26-04-2020 20:33:17 14.7 C 20 %
4295 26-04-2020 20:43:17 14.3 C 20 %
4296 26-04-2020 20:53:18 14 C 20 %
4297 26-04-2020 21:03:18 13.7 C 20 %
4298 26-04-2020 21:13:18 13.1 C 20 %
4299 26-04-2020 21:23:17 12.6 C 20 %
4300 26-04-2020 21:33:18 12.4 C 20 %
Sensor: Nr:Datum:Temp:Feuchte:
Aussen-T/F 4301 26-04-2020 21:43:18 12.1 C 20 %
4302 26-04-2020 21:53:17 11.6 C 23 %
4303 26-04-2020 22:03:17 11.3 C 25 %
4304 26-04-2020 22:13:17 10.9 C 26 %
4305 26-04-2020 22:23:18 10.7 C 26 %
4306 26-04-2020 22:33:17 10.5 C 26 %
4307 26-04-2020 22:43:17 9.9 C 28 %
4308 26-04-2020 22:53:17 9.6 C 29 %
4309 26-04-2020 23:03:17 9.2 C 29 %
4310 26-04-2020 23:13:17 9 C 30 %
4311 26-04-2020 23:23:17 8.9 C 30 %
4312 26-04-2020 23:33:18 8.8 C 30 %
4313 26-04-2020 23:43:18 8.7 C 30 %
4314 26-04-2020 23:53:17 8.5 C 30 %
4315 27-04-2020 00:03:18 8.3 C 30 %
4316 27-04-2020 00:13:18 8 C 31 %
4317 27-04-2020 00:23:18 7.9 C 32 %
4318 27-04-2020 00:33:17 7.6 C 32 %
4319 27-04-2020 00:43:17 7.4 C 33 %
4320 27-04-2020 00:53:17 7.2 C 33 %
4321 27-04-2020 01:03:18 7.1 C 33 %
4322 27-04-2020 01:13:18 6.8 C 35 %
4323 27-04-2020 01:23:18 6.9 C 35 %
4324 27-04-2020 01:33:17 6.9 C 35 %
4325 27-04-2020 01:43:17 6.8 C 35 %
Sensor: Nr:Datum:Temp:Feuchte:
Aussen-T/F 4326 27-04-2020 01:53:17 6.4 C 35 %
4327 27-04-2020 02:03:17 6.2 C 36 %
4328 27-04-2020 02:13:17 6 C 36 %
4329 27-04-2020 02:23:17 5.9 C 37 %
4330 27-04-2020 02:33:17 5.7 C 37 %
4331 27-04-2020 02:43:17 6 C 37 %
4332 27-04-2020 02:53:17 6 C 37 %
4333 27-04-2020 03:03:18 5.7 C 38 %
4334 27-04-2020 03:13:18 5.6 C 38 %
4335 27-04-2020 03:23:18 5.6 C 38 %
4336 27-04-2020 03:33:17 5.6 C 38 %
4337 27-04-2020 03:43:17 5.6 C 39 %
4338 27-04-2020 03:53:17 5.7 C 39 %
4339 27-04-2020 04:03:18 5 C 38 %
4340 27-04-2020 04:13:18 4.8 C 40 %
4341 27-04-2020 04:23:17 4.4 C 40 %
4342 27-04-2020 04:33:18 4.3 C 41 %
4343 27-04-2020 04:43:18 4 C 41 %
4344 27-04-2020 04:53:17 4.1 C 42 %
4345 27-04-2020 05:03:17 4 C 42 %
4346 27-04-2020 05:13:17 4.2 C 42 %
4347 27-04-2020 05:23:17 3.7 C 43 %
4348 27-04-2020 05:33:17 3.7 C 43 %
4349 27-04-2020 05:43:17 3.4 C 43 %
4350 27-04-2020 05:53:17 3.7 C 44 %
Sensor: Nr:Datum:Temp:Feuchte:
Aussen-T/F 4351 27-04-2020 06:03:18 3.5 C 44 %
4352 27-04-2020 06:13:18 3.4 C 44 %
4353 27-04-2020 06:23:17 3.6 C 45 %
4354 27-04-2020 06:33:17 3.8 C 45 %
4355 27-04-2020 06:43:17 3.8 C 44 %
4356 27-04-2020 06:53:17 3.8 C 44 %
4357 27-04-2020 07:03:17 3.8 C 44 %
4358 27-04-2020 07:13:17 3.9 C 45 %
4359 27-04-2020 07:23:17 3.9 C 45 %
4360 27-04-2020 07:33:17 4.2 C 44 %
4361 27-04-2020 07:43:17 4.5 C 43 %
4362 27-04-2020 07:53:17 4.6 C 43 %
4363 27-04-2020 08:03:17 4.9 C 42 %
4364 27-04-2020 08:13:17 4.8 C 42 %
4365 27-04-2020 08:23:17 5.1 C 42 %
4366 27-04-2020 08:33:17 5.5 C 41 %
4367 27-04-2020 08:43:17 5.7 C 41 %
4368 27-04-2020 08:53:17 6 C 41 %
4369 27-04-2020 09:03:18 6.4 C 40 %
4370 27-04-2020 09:13:18 6.6 C 40 %
4371 27-04-2020 09:23:17 7 C 40 %
4372 27-04-2020 09:33:17 7.6 C 39 %
4373 27-04-2020 09:43:17 8.3 C 37 %
4374 27-04-2020 09:53:17 8.5 C 38 %
4375 27-04-2020 10:03:17 9.1 C 37 %
Sensor: Nr:Datum:Temp:Feuchte:
Aussen-T/F 4376 27-04-2020 10:13:17 9.9 C 37 %
4377 27-04-2020 10:23:17 10.7 C 35 %
4378 27-04-2020 10:33:17 11.7 C 34 %
4379 27-04-2020 10:43:17 12.3 C 32 %
4380 27-04-2020 10:53:17 13.5 C 30 %
4381 27-04-2020 11:03:17 15.5 C 25 %
4382 27-04-2020 11:13:17 16.6 C 22 %
4383 27-04-2020 11:23:17 16.8 C 20 %
4384 27-04-2020 11:33:17 17.2 C 20 %
4385 27-04-2020 11:43:17 17.5 C 20 %
4386 27-04-2020 11:53:17 17.7 C 20 %
4387 27-04-2020 12:03:17 18.1 C 20 %
4388 27-04-2020 12:13:17 18.4 C 20 %
4389 27-04-2020 12:23:17 18.3 C 20 %
4390 27-04-2020 12:33:17 18.7 C 20 %
4391 27-04-2020 12:43:17 19 C 20 %
4392 27-04-2020 12:53:18 19.1 C 20 %
4393 27-04-2020 13:03:17 19.7 C 20 %
4394 27-04-2020 13:13:17 19.5 C 20 %
4395 27-04-2020 13:23:17 19.6 C 20 %
4396 27-04-2020 13:33:17 20.1 C 20 %
4397 27-04-2020 13:43:17 20.2 C 20 %
4398 27-04-2020 13:53:17 20.4 C 20 %
4399 27-04-2020 14:03:18 21 C 20 %
4400 27-04-2020 14:13:18 21.4 C 20 %
Sensor: Nr:Datum:Temp:Feuchte:
Aussen-T/F 4401 27-04-2020 14:23:17 25.1 C 20 %
4402 27-04-2020 14:33:18 25.5 C 20 %
4403 27-04-2020 14:43:18 28.2 C 20 %
4404 27-04-2020 14:53:17 28.9 C 20 %
4405 27-04-2020 15:03:17 30.1 C 20 %
4406 27-04-2020 15:13:17 27.6 C 20 %
4407 27-04-2020 15:23:17 26.7 C 20 %
4408 27-04-2020 15:33:17 27.5 C 20 %
4409 27-04-2020 15:43:17 27.6 C 20 %
4410 27-04-2020 15:53:17 27.9 C 20 %
4411 27-04-2020 16:03:17 26.8 C 20 %
4412 27-04-2020 16:13:17 23.7 C 20 %
4413 27-04-2020 16:23:17 23.4 C 20 %
4414 27-04-2020 16:33:17 24.1 C 20 %
4415 27-04-2020 16:43:17 23.7 C 20 %
4416 27-04-2020 16:53:17 22.7 C 20 %
4417 27-04-2020 17:03:18 22.1 C 20 %
4418 27-04-2020 17:13:18 22.1 C 20 %
4419 27-04-2020 17:23:17 21.6 C 20 %
4420 27-04-2020 17:33:17 21.7 C 20 %
4421 27-04-2020 17:43:17 21.6 C 20 %
4422 27-04-2020 17:53:17 22.2 C 20 %
4423 27-04-2020 18:03:17 21.5 C 20 %
4424 27-04-2020 18:13:17 21.8 C 20 %
4425 27-04-2020 18:23:17 24 C 20 %
Sensor: Nr:Datum:Temp:Feuchte:
Aussen-T/F 4426 27-04-2020 18:33:18 23.1 C 20 %
4427 27-04-2020 18:43:18 22.4 C 20 %
4428 27-04-2020 18:53:17 22.1 C 20 %
4429 27-04-2020 19:03:17 20.9 C 20 %
4430 27-04-2020 19:13:17 19.4 C 20 %
4431 27-04-2020 19:23:18 19.2 C 20 %
4432 27-04-2020 19:33:17 18.3 C 20 %
4433 27-04-2020 19:43:18 18.2 C 20 %
4434 27-04-2020 19:53:17 17.4 C 20 %
4435 27-04-2020 20:03:17 17.1 C 20 %
4436 27-04-2020 20:13:17 16.8 C 20 %
4437 27-04-2020 20:23:17 16.2 C 20 %
4438 27-04-2020 20:33:17 15.4 C 21 %
4439 27-04-2020 20:43:17 15.1 C 21 %
4440 27-04-2020 20:53:18 15.2 C 21 %
4441 27-04-2020 21:03:17 15 C 21 %
4442 27-04-2020 21:13:17 15 C 22 %
4443 27-04-2020 21:23:17 14.6 C 25 %
4444 27-04-2020 21:33:18 14.2 C 25 %
4445 27-04-2020 21:43:18 13.6 C 26 %
4446 27-04-2020 21:53:17 13.2 C 27 %
4447 27-04-2020 22:03:18 13.3 C 27 %
4448 27-04-2020 22:13:18 13.3 C 27 %
4449 27-04-2020 22:23:17 13 C 28 %
4450 27-04-2020 22:33:17 12.3 C 30 %
Sensor: Nr:Datum:Temp:Feuchte:
Aussen-T/F 4451 27-04-2020 22:43:17 12.1 C 30 %
4452 27-04-2020 22:53:18 12 C 30 %
4453 27-04-2020 23:03:17 12 C 30 %
4454 27-04-2020 23:13:17 12 C 30 %
4455 27-04-2020 23:23:17 11.8 C 31 %
4456 27-04-2020 23:33:17 11.4 C 32 %
4457 27-04-2020 23:43:17 11 C 32 %
4458 27-04-2020 23:53:18 10.6 C 34 %
Sensor: Nr:Datum:Temp:Feuchte:
G-T/H 1 28-03-2020 00:00:17 10 C 57 %
2 28-03-2020 00:10:17 10 C 57 %
3 28-03-2020 00:20:17 10 C 58 %
4 28-03-2020 00:30:18 10.1 C 58 %
5 28-03-2020 00:40:18 10.1 C 58 %
6 28-03-2020 00:50:17 10 C 58 %
7 28-03-2020 01:00:17 10.1 C 59 %
8 28-03-2020 01:10:17 10.1 C 59 %
9 28-03-2020 01:20:17 10.1 C 59 %
10 28-03-2020 01:30:17 10.1 C 59 %
11 28-03-2020 01:40:18 10.1 C 59 %
12 28-03-2020 01:50:17 10.1 C 60 %
13 28-03-2020 02:00:18 10.1 C 60 %
14 28-03-2020 02:10:18 10.1 C 60 %
15 28-03-2020 02:20:18 10 C 60 %
16 28-03-2020 02:30:17 10 C 60 %
17 28-03-2020 02:40:17 10 C 60 %
18 28-03-2020 02:50:18 10.1 C 60 %
19 28-03-2020 03:00:18 10 C 60 %
20 28-03-2020 03:10:18 10 C 60 %
21 28-03-2020 03:20:17 10 C 60 %
22 28-03-2020 03:30:18 10 C 61 %
23 28-03-2020 03:40:18 10 C 61 %
24 28-03-2020 03:50:17 10 C 61 %
25 28-03-2020 04:00:18 10 C 61 %
Sensor: Nr:Datum:Temp:Feuchte:
G-T/H 26 28-03-2020 04:10:18 10 C 61 %
27 28-03-2020 04:20:18 10 C 61 %
28 28-03-2020 04:30:18 10 C 61 %
29 28-03-2020 04:40:18 10 C 61 %
30 28-03-2020 04:50:17 10 C 61 %
31 28-03-2020 05:00:18 9.9 C 62 %
32 28-03-2020 05:10:18 9.9 C 62 %
33 28-03-2020 05:20:17 9.9 C 62 %
34 28-03-2020 05:30:18 9.9 C 62 %
35 28-03-2020 05:40:18 9.8 C 62 %
36 28-03-2020 05:50:18 9.8 C 62 %
37 28-03-2020 06:00:18 9.8 C 62 %
38 28-03-2020 06:10:18 9.8 C 62 %
39 28-03-2020 06:20:17 9.8 C 62 %
40 28-03-2020 06:30:17 9.8 C 62 %
41 28-03-2020 06:40:17 9.8 C 62 %
42 28-03-2020 06:50:17 9.8 C 62 %
43 28-03-2020 07:00:17 9.8 C 62 %
44 28-03-2020 07:10:17 9.8 C 62 %
45 28-03-2020 07:20:17 9.7 C 62 %
46 28-03-2020 07:30:18 9.7 C 62 %
47 28-03-2020 07:40:18 9.7 C 62 %
48 28-03-2020 07:50:17 9.7 C 62 %
49 28-03-2020 08:00:17 9.7 C 62 %
50 28-03-2020 08:10:18 9.7 C 63 %
Sensor: Nr:Datum:Temp:Feuchte:
G-T/H 51 28-03-2020 08:20:18 9.7 C 63 %
52 28-03-2020 08:30:17 9.7 C 63 %
53 28-03-2020 08:40:17 9.6 C 63 %
54 28-03-2020 08:50:18 9.7 C 63 %
55 28-03-2020 09:00:18 9.6 C 63 %
56 28-03-2020 09:10:18 9.7 C 63 %
57 28-03-2020 09:20:17 9.6 C 63 %
58 28-03-2020 09:30:18 9.6 C 63 %
59 28-03-2020 09:40:18 9.6 C 63 %
60 28-03-2020 09:50:18 9.6 C 63 %
61 28-03-2020 10:00:18 9.6 C 63 %
62 28-03-2020 10:10:18 9.6 C 63 %
63 28-03-2020 10:20:17 9.6 C 64 %
64 28-03-2020 10:30:17 9.6 C 64 %
65 28-03-2020 10:40:17 9.6 C 64 %
66 28-03-2020 10:50:18 9.6 C 64 %
67 28-03-2020 11:00:18 9.6 C 64 %
68 28-03-2020 11:10:18 9.6 C 64 %
69 28-03-2020 11:20:17 9.6 C 64 %
70 28-03-2020 11:30:17 9.6 C 64 %
71 28-03-2020 11:40:17 9.6 C 64 %
72 28-03-2020 11:50:18 9.6 C 64 %
73 28-03-2020 12:00:17 9.7 C 64 %
74 28-03-2020 12:10:17 9.8 C 64 %
75 28-03-2020 12:20:17 9.8 C 64 %
Sensor: Nr:Datum:Temp:Feuchte:
G-T/H 76 28-03-2020 12:30:17 9.8 C 64 %
77 28-03-2020 12:40:17 9.8 C 64 %
78 28-03-2020 12:50:18 9.8 C 64 %
79 28-03-2020 13:00:18 9.8 C 64 %
80 28-03-2020 13:10:18 9.9 C 64 %
81 28-03-2020 13:20:18 10.6 C 62 %
82 28-03-2020 13:30:17 11 C 59 %
83 28-03-2020 13:40:17 11.2 C 57 %
84 28-03-2020 13:50:18 11.4 C 56 %
85 28-03-2020 14:00:17 11.5 C 56 %
86 28-03-2020 14:10:17 11.7 C 55 %
87 28-03-2020 14:20:17 11.9 C 54 %
88 28-03-2020 14:30:17 11.9 C 53 %
89 28-03-2020 14:40:17 12.1 C 52 %
90 28-03-2020 14:50:17 12.2 C 52 %
91 28-03-2020 15:00:18 12.3 C 51 %
92 28-03-2020 15:10:18 12.4 C 49 %
93 28-03-2020 15:20:18 12.4 C 49 %
94 28-03-2020 15:30:18 11.9 C 50 %
95 28-03-2020 15:40:18 11.9 C 51 %
96 28-03-2020 15:50:18 12.1 C 50 %
97 28-03-2020 16:00:18 11.8 C 51 %
98 28-03-2020 16:10:18 11.6 C 52 %
99 28-03-2020 16:20:18 11.5 C 53 %
100 28-03-2020 16:30:18 11.4 C 54 %
Sensor: Nr:Datum:Temp:Feuchte:
G-T/H 101 28-03-2020 16:40:18 11.4 C 55 %
102 28-03-2020 16:50:18 11.3 C 55 %
103 28-03-2020 17:00:18 11.3 C 56 %
104 28-03-2020 17:10:18 11.3 C 56 %
105 28-03-2020 17:20:18 11.2 C 56 %
106 28-03-2020 17:30:18 11.2 C 57 %
107 28-03-2020 17:40:18 11.2 C 57 %
108 28-03-2020 17:50:17 11.2 C 57 %
109 28-03-2020 18:00:18 11.2 C 57 %
110 28-03-2020 18:10:18 11.2 C 57 %
111 28-03-2020 18:20:17 11.2 C 58 %
112 28-03-2020 18:30:17 11.1 C 58 %
113 28-03-2020 18:40:17 11.1 C 58 %
114 28-03-2020 18:50:18 11.1 C 58 %
115 28-03-2020 19:00:18 11.1 C 58 %
116 28-03-2020 19:10:18 11.1 C 58 %
117 28-03-2020 19:20:18 11.1 C 58 %
118 28-03-2020 19:30:18 11.1 C 58 %
119 28-03-2020 19:40:18 11.1 C 58 %
120 28-03-2020 19:50:17 11.1 C 59 %
121 28-03-2020 20:00:18 11.1 C 59 %
122 28-03-2020 20:10:18 11.1 C 59 %
123 28-03-2020 20:20:17 11.1 C 59 %
124 28-03-2020 20:30:18 11.1 C 59 %
125 28-03-2020 20:40:18 11 C 59 %
Sensor: Nr:Datum:Temp:Feuchte:
G-T/H 126 28-03-2020 20:50:17 11 C 59 %
127 28-03-2020 21:00:17 11.1 C 60 %
128 28-03-2020 21:10:17 11 C 60 %
129 28-03-2020 21:20:17 11 C 60 %
130 28-03-2020 21:30:17 11 C 60 %
131 28-03-2020 21:40:17 11 C 60 %
132 28-03-2020 21:50:17 11 C 60 %
133 28-03-2020 22:00:17 11 C 60 %
134 28-03-2020 22:10:17 11 C 60 %
135 28-03-2020 22:20:17 11 C 61 %
136 28-03-2020 22:30:17 11 C 61 %
137 28-03-2020 22:40:17 11 C 61 %
138 28-03-2020 22:50:17 11 C 61 %
139 28-03-2020 23:00:17 11 C 61 %
140 28-03-2020 23:10:17 11 C 61 %
141 28-03-2020 23:20:18 11 C 61 %
142 28-03-2020 23:30:18 10.9 C 62 %
143 28-03-2020 23:40:18 10.9 C 62 %
144 28-03-2020 23:50:17 10.9 C 62 %
145 29-03-2020 00:00:18 10.9 C 62 %
146 29-03-2020 00:10:18 10.9 C 62 %
147 29-03-2020 00:20:17 10.9 C 62 %
148 29-03-2020 00:30:17 10.9 C 62 %
149 29-03-2020 00:40:17 10.9 C 62 %
150 29-03-2020 00:50:18 10.9 C 62 %
Sensor: Nr:Datum:Temp:Feuchte:
G-T/H 151 29-03-2020 01:00:18 10.9 C 62 %
152 29-03-2020 01:10:18 10.9 C 62 %
153 29-03-2020 01:20:17 10.8 C 62 %
154 29-03-2020 01:30:17 10.8 C 62 %
155 29-03-2020 01:40:17 10.8 C 62 %
156 29-03-2020 01:50:17 10.8 C 62 %
157 29-03-2020 02:00:17 10.8 C 62 %
158 29-03-2020 02:10:17 10.8 C 62 %
159 29-03-2020 02:20:18 10.8 C 62 %
160 29-03-2020 02:30:18 10.8 C 62 %
161 29-03-2020 02:40:18 10.7 C 62 %
162 29-03-2020 02:50:18 10.7 C 62 %
163 29-03-2020 04:00:18 10.7 C 62 %
164 29-03-2020 04:10:18 10.7 C 62 %
165 29-03-2020 04:20:17 10.7 C 61 %
166 29-03-2020 04:30:17 10.6 C 61 %
167 29-03-2020 04:40:17 10.6 C 61 %
168 29-03-2020 04:50:18 10.6 C 61 %
169 29-03-2020 05:00:17 10.6 C 61 %
170 29-03-2020 05:10:17 10.5 C 60 %
171 29-03-2020 05:20:17 10.5 C 60 %
172 29-03-2020 05:30:17 10.5 C 60 %
173 29-03-2020 05:40:17 10.5 C 60 %
174 29-03-2020 05:50:18 10.5 C 60 %
175 29-03-2020 06:00:18 10.5 C 60 %
Sensor: Nr:Datum:Temp:Feuchte:
G-T/H 176 29-03-2020 06:10:18 10.5 C 60 %
177 29-03-2020 06:20:17 10.5 C 60 %
178 29-03-2020 06:30:18 10.4 C 60 %
179 29-03-2020 06:40:18 10.4 C 60 %
180 29-03-2020 06:50:17 10.4 C 60 %
181 29-03-2020 07:00:18 10.4 C 60 %
182 29-03-2020 07:10:18 10.4 C 60 %
183 29-03-2020 07:20:17 10.4 C 60 %
184 29-03-2020 07:30:17 10.4 C 60 %
185 29-03-2020 07:40:17 10.3 C 61 %
186 29-03-2020 07:50:17 10.4 C 61 %
187 29-03-2020 08:00:18 10.3 C 61 %
188 29-03-2020 08:10:18 10.3 C 61 %
189 29-03-2020 08:20:17 10.3 C 60 %
190 29-03-2020 08:30:17 10.2 C 60 %
191 29-03-2020 08:40:17 10.2 C 60 %
192 29-03-2020 08:50:17 10.2 C 60 %
193 29-03-2020 09:00:17 10.2 C 60 %
194 29-03-2020 09:10:17 10.2 C 60 %
195 29-03-2020 09:20:17 10.2 C